PWSweather.com
Personal Weather Stations
Station Observations
WILKWX
Wilkowyja, WilkowyjaPL 63-200

WilkowyjaWilkowyjaPL 63-200

Lat: 52.001852, Lon: 17.530752

Elevation: 89

Station Type: WS 1080

Latest ConditionsUpdated 4:02:00 PM GMT+01:01 Wednesday, Nov 21, 2018
Currently Today's Max Today's Min Today's Average
Temperature 33.4°F0.8°C 34.0°F1.1°C 31.8°F-0.1°C 32.7°F0.4°C
Dew Point 25.4°F-3.7°C 25.6°F-3.6°C 21.9°F-5.6°C 24.5°F-4.2°C
Winds 7.2 mph ESE11.6 kmh ESE 10.0 mph -16.1 kmh - - 7.0 mph 11.3 kmh
Wind Gusts 13.6 mph21.9 kmh 24.4 mph39.3 kmh - -
Humidity 72% 77% 63% 71%
Pressure 30.38 in1028.8 mb 30.38 in1028.8 mb 30.27 in1025.1 mb -
Hour Temp Dew Point Humidity Winds Wind Gusts Pressure Precip Precip Rate Daily Precip Total
04:02 PM 33.4°F0.8°C 25.4°F-3.7°C 72% 7.2 mph ESE11.6 kmh ESE 13.6 mph21.9 kmh 30.38 in1028.8 mb 0.00 in0.0 mm 0.00 in0.0 mm 0.00 in0.0 mm
04:01 PM 33.4°F0.8°C 25.4°F-3.7°C 72% 7.3 mph ESE11.7 kmh ESE 13.6 mph21.9 kmh 30.38 in1028.8 mb 0.00 in0.0 mm 0.00 in0.0 mm 0.00 in0.0 mm
04:00 PM 33.4°F0.8°C 25.4°F-3.7°C 72% 7.4 mph ESE11.9 kmh ESE 13.6 mph21.9 kmh 30.38 in1028.8 mb 0.00 in0.0 mm 0.00 in0.0 mm 0.00 in0.0 mm
03:59 PM 33.4°F0.8°C 25.4°F-3.7°C 72% 7.6 mph ESE12.2 kmh ESE 13.6 mph21.9 kmh 30.38 in1028.8 mb 0.00 in0.0 mm 0.00 in0.0 mm 0.00 in0.0 mm
03:58 PM 33.4°F0.8°C 25.4°F-3.7°C 72% 7.8 mph E12.6 kmh E 14.5 mph23.3 kmh 30.38 in1028.8 mb 0.00 in0.0 mm 0.00 in0.0 mm 0.00 in0.0 mm
03:57 PM 33.4°F0.8°C 25.4°F-3.7°C 72% 8.1 mph E13.0 kmh E 14.5 mph23.3 kmh 30.37 in1028.4 mb 0.00 in0.0 mm 0.00 in0.0 mm 0.00 in0.0 mm
03:56 PM 33.4°F0.8°C 25.4°F-3.7°C 72% 8.4 mph E13.5 kmh E 15.2 mph24.5 kmh 30.38 in1028.8 mb 0.00 in0.0 mm 0.00 in0.0 mm 0.00 in0.0 mm
03:55 PM 33.4°F0.8°C 25.4°F-3.7°C 72% 8.6 mph E13.8 kmh E 15.2 mph24.5 kmh 30.38 in1028.8 mb 0.00 in0.0 mm 0.00 in0.0 mm 0.00 in0.0 mm
03:54 PM 33.4°F0.8°C 25.4°F-3.7°C 72% 8.7 mph E14.0 kmh E 15.2 mph24.5 kmh 30.37 in1028.4 mb 0.00 in0.0 mm 0.00 in0.0 mm 0.00 in0.0 mm
03:53 PM 33.4°F0.8°C 25.4°F-3.7°C 72% 8.6 mph E13.8 kmh E 15.2 mph24.5 kmh 30.38 in1028.8 mb 0.00 in0.0 mm 0.00 in0.0 mm 0.00 in0.0 mm
03:52 PM 33.4°F0.8°C 25.4°F-3.7°C 72% 9.0 mph E14.5 kmh E 15.9 mph25.6 kmh 30.38 in1028.8 mb 0.00 in0.0 mm 0.00 in0.0 mm 0.00 in0.0 mm
03:51 PM 33.4°F0.8°C 25.4°F-3.7°C 72% 9.2 mph E14.8 kmh E 15.9 mph25.6 kmh 30.38 in1028.8 mb 0.00 in0.0 mm 0.00 in0.0 mm 0.00 in0.0 mm
03:50 PM 33.4°F0.8°C 25.4°F-3.7°C 72% 9.3 mph E15.0 kmh E 15.9 mph25.6 kmh 30.38 in1028.8 mb 0.00 in0.0 mm 0.00 in0.0 mm 0.00 in0.0 mm
03:49 PM 33.4°F0.8°C 25.4°F-3.7°C 72% 9.2 mph E14.8 kmh E 15.9 mph25.6 kmh 30.38 in1028.8 mb 0.00 in0.0 mm 0.00 in0.0 mm 0.00 in0.0 mm
03:48 PM 33.4°F0.8°C 25.1°F-3.8°C 71% 9.1 mph E14.6 kmh E 15.9 mph25.6 kmh 30.38 in1028.8 mb 0.00 in0.0 mm 0.00 in0.0 mm 0.00 in0.0 mm
03:47 PM 33.4°F0.8°C 25.1°F-3.8°C 71% 8.6 mph E13.8 kmh E 15.9 mph25.6 kmh 30.38 in1028.8 mb 0.00 in0.0 mm 0.00 in0.0 mm 0.00 in0.0 mm
03:46 PM 33.4°F0.8°C 25.1°F-3.8°C 71% 8.2 mph E13.2 kmh E 15.9 mph25.6 kmh 30.38 in1028.8 mb 0.00 in0.0 mm 0.00 in0.0 mm 0.00 in0.0 mm
03:45 PM 33.4°F0.8°C 25.1°F-3.8°C 71% 8.0 mph E12.9 kmh E 15.9 mph25.6 kmh 30.38 in1028.8 mb 0.00 in0.0 mm 0.00 in0.0 mm 0.00 in0.0 mm
03:44 PM 33.4°F0.8°C 25.1°F-3.8°C 71% 7.9 mph E12.7 kmh E 15.9 mph25.6 kmh 30.38 in1028.8 mb 0.00 in0.0 mm 0.00 in0.0 mm 0.00 in0.0 mm
03:43 PM 33.4°F0.8°C 25.1°F-3.8°C 71% 7.4 mph ESE11.9 kmh ESE 15.9 mph25.6 kmh 30.38 in1028.8 mb 0.00 in0.0 mm 0.00 in0.0 mm 0.00 in0.0 mm
03:42 PM 33.4°F0.8°C 25.1°F-3.8°C 71% 6.9 mph ESE11.1 kmh ESE 15.9 mph25.6 kmh 30.37 in1028.4 mb 0.00 in0.0 mm 0.00 in0.0 mm 0.00 in0.0 mm
03:41 PM 33.4°F0.8°C 25.1°F-3.8°C 71% 6.6 mph ESE10.6 kmh ESE 13.0 mph20.9 kmh 30.38 in1028.8 mb 0.00 in0.0 mm 0.00 in0.0 mm 0.00 in0.0 mm
03:40 PM 33.4°F0.8°C 25.1°F-3.8°C 71% 6.2 mph ESE10.0 kmh ESE 13.0 mph20.9 kmh 30.38 in1028.8 mb 0.00 in0.0 mm 0.00 in0.0 mm 0.00 in0.0 mm
03:39 PM 33.4°F0.8°C 25.1°F-3.8°C 71% 6.1 mph ESE9.8 kmh ESE 13.0 mph20.9 kmh 30.38 in1028.8 mb 0.00 in0.0 mm 0.00 in0.0 mm 0.00 in0.0 mm
03:38 PM 33.4°F0.8°C 25.1°F-3.8°C 71% 5.8 mph ESE9.3 kmh ESE 13.0 mph20.9 kmh 30.38 in1028.8 mb 0.00 in0.0 mm 0.00 in0.0 mm 0.00 in0.0 mm
03:37 PM 33.4°F0.8°C 25.1°F-3.8°C 71% 5.8 mph E9.3 kmh E 13.6 mph21.9 kmh 30.38 in1028.8 mb 0.00 in0.0 mm 0.00 in0.0 mm 0.00 in0.0 mm
03:36 PM 33.4°F0.8°C 25.1°F-3.8°C 71% 5.7 mph E9.2 kmh E 13.6 mph21.9 kmh 30.38 in1028.8 mb 0.00 in0.0 mm 0.00 in0.0 mm 0.00 in0.0 mm
03:35 PM 33.4°F0.8°C 25.1°F-3.8°C 71% 5.6 mph ESE9.0 kmh ESE 13.6 mph21.9 kmh 30.38 in1028.8 mb 0.00 in0.0 mm 0.00 in0.0 mm 0.00 in0.0 mm
03:34 PM 33.4°F0.8°C 25.1°F-3.8°C 71% 5.5 mph E8.9 kmh E 13.6 mph21.9 kmh 30.38 in1028.8 mb 0.00 in0.0 mm 0.00 in0.0 mm 0.00 in0.0 mm
03:33 PM 33.4°F0.8°C 25.1°F-3.8°C 71% 5.6 mph E9.0 kmh E 13.6 mph21.9 kmh 30.38 in1028.8 mb 0.00 in0.0 mm 0.00 in0.0 mm 0.00 in0.0 mm
03:32 PM 33.4°F0.8°C 25.1°F-3.8°C 71% 5.8 mph E9.3 kmh E 13.6 mph21.9 kmh 30.38 in1028.8 mb 0.00 in0.0 mm 0.00 in0.0 mm 0.00 in0.0 mm
03:31 PM 33.4°F0.8°C 25.1°F-3.8°C 71% 6.2 mph E10.0 kmh E 13.6 mph21.9 kmh 30.38 in1028.8 mb 0.00 in0.0 mm 0.00 in0.0 mm 0.00 in0.0 mm
03:30 PM 33.3°F0.7°C 24.9°F-3.9°C 71% 6.3 mph E10.1 kmh E 13.6 mph21.9 kmh 30.38 in1028.8 mb 0.00 in0.0 mm 0.00 in0.0 mm 0.00 in0.0 mm
03:29 PM 33.3°F0.7°C 24.9°F-3.9°C 71% 6.5 mph E10.5 kmh E 13.6 mph21.9 kmh 30.37 in1028.4 mb 0.00 in0.0 mm 0.00 in0.0 mm 0.00 in0.0 mm
03:28 PM 33.3°F0.7°C 24.9°F-3.9°C 71% 6.7 mph E10.8 kmh E 13.6 mph21.9 kmh 30.38 in1028.8 mb 0.00 in0.0 mm 0.00 in0.0 mm 0.00 in0.0 mm
03:27 PM 33.3°F0.7°C 24.9°F-3.9°C 71% 6.7 mph E10.8 kmh E 13.6 mph21.9 kmh 30.37 in1028.4 mb 0.00 in0.0 mm 0.00 in0.0 mm 0.00 in0.0 mm
03:26 PM 33.3°F0.7°C 24.9°F-3.9°C 71% 6.9 mph E11.1 kmh E 13.6 mph21.9 kmh 30.38 in1028.8 mb 0.00 in0.0 mm 0.00 in0.0 mm 0.00 in0.0 mm
03:25 PM 33.3°F0.7°C 24.9°F-3.9°C 71% 7.1 mph E11.4 kmh E 13.6 mph21.9 kmh 30.37 in1028.4 mb 0.00 in0.0 mm 0.00 in0.0 mm 0.00 in0.0 mm
03:24 PM 33.3°F0.7°C 24.9°F-3.9°C 71% 7.2 mph E11.6 kmh E 13.6 mph21.9 kmh 30.38 in1028.8 mb 0.00 in0.0 mm 0.00 in0.0 mm 0.00 in0.0 mm
03:23 PM 33.3°F0.7°C 24.9°F-3.9°C 71% 7.4 mph E11.9 kmh E 13.6 mph21.9 kmh 30.38 in1028.8 mb 0.00 in0.0 mm 0.00 in0.0 mm 0.00 in0.0 mm
03:22 PM 33.3°F0.7°C 24.9°F-3.9°C 71% 7.5 mph E12.1 kmh E 15.2 mph24.5 kmh 30.37 in1028.4 mb 0.00 in0.0 mm 0.00 in0.0 mm 0.00 in0.0 mm
03:21 PM 33.3°F0.7°C 24.9°F-3.9°C 71% 7.6 mph E12.2 kmh E 15.2 mph24.5 kmh 30.37 in1028.4 mb 0.00 in0.0 mm 0.00 in0.0 mm 0.00 in0.0 mm
03:20 PM 33.3°F0.7°C 24.9°F-3.9°C 71% 7.8 mph E12.6 kmh E 15.2 mph24.5 kmh 30.37 in1028.4 mb 0.00 in0.0 mm 0.00 in0.0 mm 0.00 in0.0 mm
03:19 PM 33.3°F0.7°C 24.9°F-3.9°C 71% 7.7 mph E12.4 kmh E 15.2 mph24.5 kmh 30.38 in1028.8 mb 0.00 in0.0 mm 0.00 in0.0 mm 0.00 in0.0 mm
03:18 PM 33.3°F0.7°C 24.9°F-3.9°C 71% 7.7 mph E12.4 kmh E 15.2 mph24.5 kmh 30.38 in1028.8 mb 0.00 in0.0 mm 0.00 in0.0 mm 0.00 in0.0 mm
03:17 PM 33.3°F0.7°C 24.9°F-3.9°C 71% 7.8 mph E12.6 kmh E 15.2 mph24.5 kmh 30.37 in1028.4 mb 0.00 in0.0 mm 0.00 in0.0 mm 0.00 in0.0 mm
03:16 PM 33.3°F0.7°C 24.9°F-3.9°C 71% 7.7 mph E12.4 kmh E 15.2 mph24.5 kmh 30.38 in1028.8 mb 0.00 in0.0 mm 0.00 in0.0 mm 0.00 in0.0 mm
03:15 PM 33.4°F0.8°C 25.1°F-3.8°C 71% 7.8 mph E12.6 kmh E 15.2 mph24.5 kmh 30.37 in1028.4 mb 0.00 in0.0 mm 0.00 in0.0 mm 0.00 in0.0 mm
03:14 PM 33.4°F0.8°C 25.1°F-3.8°C 71% 7.8 mph E12.6 kmh E 15.2 mph24.5 kmh 30.38 in1028.8 mb 0.00 in0.0 mm 0.00 in0.0 mm 0.00 in0.0 mm
03:13 PM 33.4°F0.8°C 25.1°F-3.8°C 71% 7.8 mph E12.6 kmh E 15.2 mph24.5 kmh 30.37 in1028.4 mb 0.00 in0.0 mm 0.00 in0.0 mm 0.00 in0.0 mm
03:12 PM 33.4°F0.8°C 25.1°F-3.8°C 71% 7.7 mph ESE12.4 kmh ESE 15.2 mph24.5 kmh 30.38 in1028.8 mb 0.00 in0.0 mm 0.00 in0.0 mm 0.00 in0.0 mm
03:11 PM 33.4°F0.8°C 25.1°F-3.8°C 71% 7.5 mph ESE12.1 kmh ESE 14.5 mph23.3 kmh 30.38 in1028.8 mb 0.00 in0.0 mm 0.00 in0.0 mm 0.00 in0.0 mm
03:10 PM 33.4°F0.8°C 25.1°F-3.8°C 71% 7.5 mph E12.1 kmh E 15.9 mph25.6 kmh 30.37 in1028.4 mb 0.00 in0.0 mm 0.00 in0.0 mm 0.00 in0.0 mm
03:09 PM 33.4°F0.8°C 25.1°F-3.8°C 71% 7.7 mph ESE12.4 kmh ESE 15.9 mph25.6 kmh 30.37 in1028.4 mb 0.00 in0.0 mm 0.00 in0.0 mm 0.00 in0.0 mm
03:08 PM 33.4°F0.8°C 25.1°F-3.8°C 71% 7.8 mph ESE12.6 kmh ESE 15.9 mph25.6 kmh 30.37 in1028.4 mb 0.00 in0.0 mm 0.00 in0.0 mm 0.00 in0.0 mm
03:07 PM 33.4°F0.8°C 25.1°F-3.8°C 71% 8.2 mph ESE13.2 kmh ESE 16.8 mph27.0 kmh 30.37 in1028.4 mb 0.00 in0.0 mm 0.00 in0.0 mm 0.00 in0.0 mm
03:06 PM 33.4°F0.8°C 25.1°F-3.8°C 71% 8.4 mph E13.5 kmh E 16.8 mph27.0 kmh 30.37 in1028.4 mb 0.00 in0.0 mm 0.00 in0.0 mm 0.00 in0.0 mm
03:05 PM 33.4°F0.8°C 25.1°F-3.8°C 71% 8.4 mph E13.5 kmh E 16.8 mph27.0 kmh 30.37 in1028.4 mb 0.00 in0.0 mm 0.00 in0.0 mm 0.00 in0.0 mm
03:04 PM 33.4°F0.8°C 25.1°F-3.8°C 71% 8.5 mph E13.7 kmh E 16.8 mph27.0 kmh 30.37 in1028.4 mb 0.00 in0.0 mm 0.00 in0.0 mm 0.00 in0.0 mm
03:03 PM 33.4°F0.8°C 25.1°F-3.8°C 71% 8.5 mph E13.7 kmh E 16.8 mph27.0 kmh 30.37 in1028.4 mb 0.00 in0.0 mm 0.00 in0.0 mm 0.00 in0.0 mm
03:02 PM 33.4°F0.8°C 25.1°F-3.8°C 71% 8.8 mph E14.2 kmh E 16.8 mph27.0 kmh 30.37 in1028.4 mb 0.00 in0.0 mm 0.00 in0.0 mm 0.00 in0.0 mm
03:01 PM 33.4°F0.8°C 25.1°F-3.8°C 71% 9.1 mph E14.6 kmh E 16.8 mph27.0 kmh 30.37 in1028.4 mb 0.00 in0.0 mm 0.00 in0.0 mm 0.00 in0.0 mm
03:00 PM 33.4°F0.8°C 25.1°F-3.8°C 71% 9.1 mph E14.6 kmh E 16.8 mph27.0 kmh 30.37 in1028.4 mb 0.00 in0.0 mm 0.00 in0.0 mm 0.00 in0.0 mm
02:59 PM 33.4°F0.8°C 25.1°F-3.8°C 71% 8.9 mph E14.3 kmh E 16.8 mph27.0 kmh 30.37 in1028.4 mb 0.00 in0.0 mm 0.00 in0.0 mm 0.00 in0.0 mm
02:58 PM 33.4°F0.8°C 24.7°F-4.1°C 70% 8.6 mph E13.8 kmh E 16.8 mph27.0 kmh 30.37 in1028.4 mb 0.00 in0.0 mm 0.00 in0.0 mm 0.00 in0.0 mm
02:57 PM 33.4°F0.8°C 24.7°F-4.1°C 70% 8.4 mph E13.5 kmh E 16.8 mph27.0 kmh 30.38 in1028.8 mb 0.00 in0.0 mm 0.00 in0.0 mm 0.00 in0.0 mm
02:56 PM 33.4°F0.8°C 24.7°F-4.1°C 70% 8.6 mph E13.8 kmh E 16.8 mph27.0 kmh 30.37 in1028.4 mb 0.00 in0.0 mm 0.00 in0.0 mm 0.00 in0.0 mm
02:55 PM 33.4°F0.8°C 24.7°F-4.1°C 70% 8.7 mph E14.0 kmh E 16.8 mph27.0 kmh 30.38 in1028.8 mb 0.00 in0.0 mm 0.00 in0.0 mm 0.00 in0.0 mm
02:54 PM 33.6°F0.9°C 24.9°F-3.9°C 70% 8.7 mph E14.0 kmh E 16.8 mph27.0 kmh 30.38 in1028.8 mb 0.00 in0.0 mm 0.00 in0.0 mm 0.00 in0.0 mm
02:53 PM 33.6°F0.9°C 24.9°F-3.9°C 70% 8.9 mph E14.3 kmh E 16.8 mph27.0 kmh 30.38 in1028.8 mb 0.00 in0.0 mm 0.00 in0.0 mm 0.00 in0.0 mm
02:52 PM 33.6°F0.9°C 24.9°F-3.9°C 70% 8.7 mph E14.0 kmh E 16.8 mph27.0 kmh 30.37 in1028.4 mb 0.00 in0.0 mm 0.00 in0.0 mm 0.00 in0.0 mm
02:51 PM 33.6°F0.9°C 24.9°F-3.9°C 70% 8.2 mph E13.2 kmh E 15.2 mph24.5 kmh 30.37 in1028.4 mb 0.00 in0.0 mm 0.00 in0.0 mm 0.00 in0.0 mm
02:50 PM 33.6°F0.9°C 24.9°F-3.9°C 70% 8.2 mph E13.2 kmh E 15.2 mph24.5 kmh 30.38 in1028.8 mb 0.00 in0.0 mm 0.00 in0.0 mm 0.00 in0.0 mm
02:49 PM 33.6°F0.9°C 24.9°F-3.9°C 70% 8.6 mph E13.8 kmh E 15.2 mph24.5 kmh 30.37 in1028.4 mb 0.00 in0.0 mm 0.00 in0.0 mm 0.00 in0.0 mm
02:48 PM 33.6°F0.9°C 24.9°F-3.9°C 70% 8.9 mph E14.3 kmh E 15.2 mph24.5 kmh 30.37 in1028.4 mb 0.00 in0.0 mm 0.00 in0.0 mm 0.00 in0.0 mm
02:47 PM 33.6°F0.9°C 24.9°F-3.9°C 70% 8.9 mph ESE14.3 kmh ESE 15.2 mph24.5 kmh 30.37 in1028.4 mb 0.00 in0.0 mm 0.00 in0.0 mm 0.00 in0.0 mm
02:46 PM 33.6°F0.9°C 24.9°F-3.9°C 70% 9.2 mph ESE14.8 kmh ESE 15.9 mph25.6 kmh 30.37 in1028.4 mb 0.00 in0.0 mm 0.00 in0.0 mm 0.00 in0.0 mm
02:45 PM 33.6°F0.9°C 24.9°F-3.9°C 70% 9.0 mph ESE14.5 kmh ESE 15.9 mph25.6 kmh 30.37 in1028.4 mb 0.00 in0.0 mm 0.00 in0.0 mm 0.00 in0.0 mm
02:44 PM 33.6°F0.9°C 24.9°F-3.9°C 70% 8.8 mph ESE14.2 kmh ESE 15.9 mph25.6 kmh 30.37 in1028.4 mb 0.00 in0.0 mm 0.00 in0.0 mm 0.00 in0.0 mm
02:43 PM 33.6°F0.9°C 24.9°F-3.9°C 70% 8.4 mph ESE13.5 kmh ESE 15.9 mph25.6 kmh 30.37 in1028.4 mb 0.00 in0.0 mm 0.00 in0.0 mm 0.00 in0.0 mm
02:42 PM 33.6°F0.9°C 24.9°F-3.9°C 70% 8.2 mph ESE13.2 kmh ESE 15.9 mph25.6 kmh 30.37 in1028.4 mb 0.00 in0.0 mm 0.00 in0.0 mm 0.00 in0.0 mm
02:41 PM 33.6°F0.9°C 24.9°F-3.9°C 70% 8.3 mph ESE13.4 kmh ESE 15.9 mph25.6 kmh 30.37 in1028.4 mb 0.00 in0.0 mm 0.00 in0.0 mm 0.00 in0.0 mm
02:40 PM 33.6°F0.9°C 24.9°F-3.9°C 70% 8.1 mph ESE13.0 kmh ESE 15.9 mph25.6 kmh 30.37 in1028.4 mb 0.00 in0.0 mm 0.00 in0.0 mm 0.00 in0.0 mm
02:39 PM 33.6°F0.9°C 24.9°F-3.9°C 70% 7.8 mph ESE12.6 kmh ESE 15.9 mph25.6 kmh 30.37 in1028.4 mb 0.00 in0.0 mm 0.00 in0.0 mm 0.00 in0.0 mm
02:38 PM 33.6°F0.9°C 24.9°F-3.9°C 70% 7.4 mph ESE11.9 kmh ESE 15.9 mph25.6 kmh 30.37 in1028.4 mb 0.00 in0.0 mm 0.00 in0.0 mm 0.00 in0.0 mm
02:37 PM 33.6°F0.9°C 24.9°F-3.9°C 70% 7.3 mph E11.7 kmh E 15.9 mph25.6 kmh 30.37 in1028.4 mb 0.00 in0.0 mm 0.00 in0.0 mm 0.00 in0.0 mm
02:36 PM 33.6°F0.9°C 24.9°F-3.9°C 70% 6.8 mph E10.9 kmh E 14.5 mph23.3 kmh 30.37 in1028.4 mb 0.00 in0.0 mm 0.00 in0.0 mm 0.00 in0.0 mm
02:35 PM 33.6°F0.9°C 24.9°F-3.9°C 70% 6.6 mph E10.6 kmh E 14.5 mph23.3 kmh 30.37 in1028.4 mb 0.00 in0.0 mm 0.00 in0.0 mm 0.00 in0.0 mm
02:34 PM 33.6°F0.9°C 24.9°F-3.9°C 70% 6.4 mph E10.3 kmh E 13.6 mph21.9 kmh 30.37 in1028.4 mb 0.00 in0.0 mm 0.00 in0.0 mm 0.00 in0.0 mm
02:33 PM 33.6°F0.9°C 24.9°F-3.9°C 70% 6.7 mph E10.8 kmh E 13.6 mph21.9 kmh 30.37 in1028.4 mb 0.00 in0.0 mm 0.00 in0.0 mm 0.00 in0.0 mm
02:32 PM 33.6°F0.9°C 24.9°F-3.9°C 70% 6.8 mph E10.9 kmh E 13.6 mph21.9 kmh 30.37 in1028.4 mb 0.00 in0.0 mm 0.00 in0.0 mm 0.00 in0.0 mm
02:31 PM 33.6°F0.9°C 24.9°F-3.9°C 70% 6.7 mph E10.8 kmh E 13.6 mph21.9 kmh 30.38 in1028.8 mb 0.00 in0.0 mm 0.00 in0.0 mm 0.00 in0.0 mm
02:30 PM 33.6°F0.9°C 24.9°F-3.9°C 70% 6.6 mph E10.6 kmh E 13.0 mph20.9 kmh 30.37 in1028.4 mb 0.00 in0.0 mm 0.00 in0.0 mm 0.00 in0.0 mm
02:29 PM 33.6°F0.9°C 24.9°F-3.9°C 70% 6.5 mph E10.5 kmh E 13.0 mph20.9 kmh 30.37 in1028.4 mb 0.00 in0.0 mm 0.00 in0.0 mm 0.00 in0.0 mm
02:28 PM 33.6°F0.9°C 24.9°F-3.9°C 70% 6.5 mph E10.5 kmh E 13.0 mph20.9 kmh 30.37 in1028.4 mb 0.00 in0.0 mm 0.00 in0.0 mm 0.00 in0.0 mm
02:27 PM 33.6°F0.9°C 24.9°F-3.9°C 70% 6.5 mph E10.5 kmh E 13.0 mph20.9 kmh 30.38 in1028.8 mb 0.00 in0.0 mm 0.00 in0.0 mm 0.00 in0.0 mm
02:26 PM 33.6°F0.9°C 24.9°F-3.9°C 70% 6.7 mph E10.8 kmh E 15.9 mph25.6 kmh 30.37 in1028.4 mb 0.00 in0.0 mm 0.00 in0.0 mm 0.00 in0.0 mm
02:25 PM 33.6°F0.9°C 24.9°F-3.9°C 70% 7.0 mph E11.3 kmh E 15.9 mph25.6 kmh 30.36 in1028.1 mb 0.00 in0.0 mm 0.00 in0.0 mm 0.00 in0.0 mm
02:24 PM 33.6°F0.9°C 24.9°F-3.9°C 70% 7.3 mph E11.7 kmh E 15.9 mph25.6 kmh 30.37 in1028.4 mb 0.00 in0.0 mm 0.00 in0.0 mm 0.00 in0.0 mm
02:23 PM 33.6°F0.9°C 24.9°F-3.9°C 70% 7.4 mph E11.9 kmh E 15.9 mph25.6 kmh 30.38 in1028.8 mb 0.00 in0.0 mm 0.00 in0.0 mm 0.00 in0.0 mm
02:22 PM 33.6°F0.9°C 24.9°F-3.9°C 70% 7.6 mph E12.2 kmh E 15.9 mph25.6 kmh 30.37 in1028.4 mb 0.00 in0.0 mm 0.00 in0.0 mm 0.00 in0.0 mm
02:21 PM 33.6°F0.9°C 24.9°F-3.9°C 70% 8.0 mph E12.9 kmh E 15.9 mph25.6 kmh 30.37 in1028.4 mb 0.00 in0.0 mm 0.00 in0.0 mm 0.00 in0.0 mm
02:20 PM 33.6°F0.9°C 24.9°F-3.9°C 70% 8.1 mph E13.0 kmh E 15.9 mph25.6 kmh 30.37 in1028.4 mb 0.00 in0.0 mm 0.00 in0.0 mm 0.00 in0.0 mm
02:19 PM 33.6°F0.9°C 24.9°F-3.9°C 70% 8.2 mph E13.2 kmh E 15.9 mph25.6 kmh 30.37 in1028.4 mb 0.00 in0.0 mm 0.00 in0.0 mm 0.00 in0.0 mm
02:18 PM 33.6°F0.9°C 24.9°F-3.9°C 70% 8.3 mph E13.4 kmh E 15.9 mph25.6 kmh 30.37 in1028.4 mb 0.00 in0.0 mm 0.00 in0.0 mm 0.00 in0.0 mm
02:17 PM 33.6°F0.9°C 24.9°F-3.9°C 70% 8.3 mph E13.4 kmh E 15.9 mph25.6 kmh 30.37 in1028.4 mb 0.00 in0.0 mm 0.00 in0.0 mm 0.00 in0.0 mm
02:16 PM 33.6°F0.9°C 24.9°F-3.9°C 70% 8.5 mph E13.7 kmh E 15.9 mph25.6 kmh 30.37 in1028.4 mb 0.00 in0.0 mm 0.00 in0.0 mm 0.00 in0.0 mm
02:15 PM 33.6°F0.9°C 24.9°F-3.9°C 70% 8.4 mph E13.5 kmh E 14.5 mph23.3 kmh 30.38 in1028.8 mb 0.00 in0.0 mm 0.00 in0.0 mm 0.00 in0.0 mm
02:14 PM 33.8°F1.0°C 24.7°F-4.1°C 69% 8.0 mph E12.9 kmh E 14.5 mph23.3 kmh 30.37 in1028.4 mb 0.00 in0.0 mm 0.00 in0.0 mm 0.00 in0.0 mm
02:13 PM 33.8°F1.0°C 24.7°F-4.1°C 69% 7.5 mph E12.1 kmh E 14.5 mph23.3 kmh 30.37 in1028.4 mb 0.00 in0.0 mm 0.00 in0.0 mm 0.00 in0.0 mm
02:12 PM 33.8°F1.0°C 24.7°F-4.1°C 69% 7.0 mph E11.3 kmh E 14.5 mph23.3 kmh 30.37 in1028.4 mb 0.00 in0.0 mm 0.00 in0.0 mm 0.00 in0.0 mm
02:11 PM 33.8°F1.0°C 24.7°F-4.1°C 69% 6.6 mph E10.6 kmh E 13.0 mph20.9 kmh 30.36 in1028.1 mb 0.00 in0.0 mm 0.00 in0.0 mm 0.00 in0.0 mm
02:10 PM 33.8°F1.0°C 24.7°F-4.1°C 69% 6.3 mph E10.1 kmh E 13.0 mph20.9 kmh 30.36 in1028.1 mb 0.00 in0.0 mm 0.00 in0.0 mm 0.00 in0.0 mm
02:09 PM 33.8°F1.0°C 24.7°F-4.1°C 69% 6.0 mph E9.7 kmh E 13.0 mph20.9 kmh 30.37 in1028.4 mb 0.00 in0.0 mm 0.00 in0.0 mm 0.00 in0.0 mm
02:08 PM 33.8°F1.0°C 24.7°F-4.1°C 69% 5.7 mph E9.2 kmh E 13.0 mph20.9 kmh 30.37 in1028.4 mb 0.00 in0.0 mm 0.00 in0.0 mm 0.00 in0.0 mm
02:07 PM 34.0°F1.1°C 25.2°F-3.8°C 70% 5.4 mph E8.7 kmh E 13.0 mph20.9 kmh 30.37 in1028.4 mb 0.00 in0.0 mm 0.00 in0.0 mm 0.00 in0.0 mm
02:06 PM 33.8°F1.0°C 25.1°F-3.8°C 70% 5.0 mph E8.0 kmh E 13.0 mph20.9 kmh 30.37 in1028.4 mb 0.00 in0.0 mm 0.00 in0.0 mm 0.00 in0.0 mm
02:05 PM 33.8°F1.0°C 25.1°F-3.8°C 70% 4.5 mph E7.2 kmh E 8.3 mph13.4 kmh 30.37 in1028.4 mb 0.00 in0.0 mm 0.00 in0.0 mm 0.00 in0.0 mm
02:04 PM 33.8°F1.0°C 25.1°F-3.8°C 70% 4.5 mph E7.2 kmh E 8.3 mph13.4 kmh 30.37 in1028.4 mb 0.00 in0.0 mm 0.00 in0.0 mm 0.00 in0.0 mm
02:03 PM 33.8°F1.0°C 25.1°F-3.8°C 70% 4.7 mph E7.6 kmh E 9.2 mph14.8 kmh 30.37 in1028.4 mb 0.00 in0.0 mm 0.00 in0.0 mm 0.00 in0.0 mm
02:02 PM 33.8°F1.0°C 25.1°F-3.8°C 70% 4.7 mph E7.6 kmh E 9.2 mph14.8 kmh 30.37 in1028.4 mb 0.00 in0.0 mm 0.00 in0.0 mm 0.00 in0.0 mm
02:01 PM 33.8°F1.0°C 25.1°F-3.8°C 70% 4.8 mph E7.7 kmh E 9.2 mph14.8 kmh 30.37 in1028.4 mb 0.00 in0.0 mm 0.00 in0.0 mm 0.00 in0.0 mm
02:00 PM 33.8°F1.0°C 25.1°F-3.8°C 70% 4.9 mph E7.9 kmh E 9.2 mph14.8 kmh 30.37 in1028.4 mb 0.00 in0.0 mm 0.00 in0.0 mm 0.00 in0.0 mm
01:59 PM 33.8°F1.0°C 25.1°F-3.8°C 70% 4.9 mph E7.9 kmh E 9.2 mph14.8 kmh 30.37 in1028.4 mb 0.00 in0.0 mm 0.00 in0.0 mm 0.00 in0.0 mm
01:58 PM 33.8°F1.0°C 25.1°F-3.8°C 70% 5.0 mph E8.0 kmh E 9.2 mph14.8 kmh 30.37 in1028.4 mb 0.00 in0.0 mm 0.00 in0.0 mm 0.00 in0.0 mm
01:57 PM 33.8°F1.0°C 25.1°F-3.8°C 70% 5.3 mph E8.5 kmh E 9.2 mph14.8 kmh 30.37 in1028.4 mb 0.00 in0.0 mm 0.00 in0.0 mm 0.00 in0.0 mm
01:56 PM 33.8°F1.0°C 25.1°F-3.8°C 70% 5.3 mph E8.5 kmh E 9.2 mph14.8 kmh 30.37 in1028.4 mb 0.00 in0.0 mm 0.00 in0.0 mm 0.00 in0.0 mm
01:55 PM 33.8°F1.0°C 25.1°F-3.8°C 70% 5.2 mph E8.4 kmh E 9.2 mph14.8 kmh 30.37 in1028.4 mb 0.00 in0.0 mm 0.00 in0.0 mm 0.00 in0.0 mm
01:54 PM 33.8°F1.0°C 25.1°F-3.8°C 70% 5.3 mph E8.5 kmh E 9.2 mph14.8 kmh 30.37 in1028.4 mb 0.00 in0.0 mm 0.00 in0.0 mm 0.00 in0.0 mm
01:53 PM 33.8°F1.0°C 25.1°F-3.8°C 70% 5.4 mph E8.7 kmh E 13.6 mph21.9 kmh 30.37 in1028.4 mb 0.00 in0.0 mm 0.00 in0.0 mm 0.00 in0.0 mm
01:52 PM 33.8°F1.0°C 25.1°F-3.8°C 70% 6.0 mph E9.7 kmh E 13.6 mph21.9 kmh 30.36 in1028.1 mb 0.00 in0.0 mm 0.00 in0.0 mm 0.00 in0.0 mm
01:51 PM 33.8°F1.0°C 25.1°F-3.8°C 70% 6.0 mph E9.7 kmh E 13.6 mph21.9 kmh 30.37 in1028.4 mb 0.00 in0.0 mm 0.00 in0.0 mm 0.00 in0.0 mm
01:50 PM 33.6°F0.9°C 25.2°F-3.8°C 71% 6.2 mph E10.0 kmh E 13.6 mph21.9 kmh 30.36 in1028.1 mb 0.00 in0.0 mm 0.00 in0.0 mm 0.00 in0.0 mm
01:49 PM 33.6°F0.9°C 25.2°F-3.8°C 71% 6.2 mph E10.0 kmh E 13.6 mph21.9 kmh 30.36 in1028.1 mb 0.00 in0.0 mm 0.00 in0.0 mm 0.00 in0.0 mm
01:48 PM 33.6°F0.9°C 25.2°F-3.8°C 71% 6.1 mph E9.8 kmh E 13.6 mph21.9 kmh 30.36 in1028.1 mb 0.00 in0.0 mm 0.00 in0.0 mm 0.00 in0.0 mm
01:47 PM 33.6°F0.9°C 25.2°F-3.8°C 71% 6.0 mph E9.7 kmh E 13.6 mph21.9 kmh 30.36 in1028.1 mb 0.00 in0.0 mm 0.00 in0.0 mm 0.00 in0.0 mm
01:46 PM 33.6°F0.9°C 25.2°F-3.8°C 71% 6.1 mph E9.8 kmh E 13.6 mph21.9 kmh 30.37 in1028.4 mb 0.00 in0.0 mm 0.00 in0.0 mm 0.00 in0.0 mm
01:45 PM 33.6°F0.9°C 25.2°F-3.8°C 71% 6.4 mph E10.3 kmh E 13.6 mph21.9 kmh 30.36 in1028.1 mb 0.00 in0.0 mm 0.00 in0.0 mm 0.00 in0.0 mm
01:44 PM 33.6°F0.9°C 25.2°F-3.8°C 71% 6.5 mph E10.5 kmh E 13.6 mph21.9 kmh 30.37 in1028.4 mb 0.00 in0.0 mm 0.00 in0.0 mm 0.00 in0.0 mm
01:43 PM 33.6°F0.9°C 25.2°F-3.8°C 71% 6.4 mph E10.3 kmh E 13.6 mph21.9 kmh 30.37 in1028.4 mb 0.00 in0.0 mm 0.00 in0.0 mm 0.00 in0.0 mm
01:42 PM 33.6°F0.9°C 25.2°F-3.8°C 71% 5.9 mph E9.5 kmh E 12.1 mph19.5 kmh 30.36 in1028.1 mb 0.00 in0.0 mm 0.00 in0.0 mm 0.00 in0.0 mm
01:41 PM 33.6°F0.9°C 25.2°F-3.8°C 71% 6.1 mph E9.8 kmh E 12.1 mph19.5 kmh 30.36 in1028.1 mb 0.00 in0.0 mm 0.00 in0.0 mm 0.00 in0.0 mm
01:40 PM 33.6°F0.9°C 25.2°F-3.8°C 71% 6.2 mph E10.0 kmh E 12.1 mph19.5 kmh 30.36 in1028.1 mb 0.00 in0.0 mm 0.00 in0.0 mm 0.00 in0.0 mm
01:39 PM 33.6°F0.9°C 25.2°F-3.8°C 71% 6.3 mph E10.1 kmh E 12.1 mph19.5 kmh 30.36 in1028.1 mb 0.00 in0.0 mm 0.00 in0.0 mm 0.00 in0.0 mm
01:38 PM 33.6°F0.9°C 25.2°F-3.8°C 71% 6.5 mph E10.5 kmh E 12.1 mph19.5 kmh 30.37 in1028.4 mb 0.00 in0.0 mm 0.00 in0.0 mm 0.00 in0.0 mm
01:37 PM 33.6°F0.9°C 25.2°F-3.8°C 71% 6.8 mph E10.9 kmh E 12.1 mph19.5 kmh 30.36 in1028.1 mb 0.00 in0.0 mm 0.00 in0.0 mm 0.00 in0.0 mm
01:36 PM 33.6°F0.9°C 25.2°F-3.8°C 71% 7.3 mph E11.7 kmh E 14.5 mph23.3 kmh 30.37 in1028.4 mb 0.00 in0.0 mm 0.00 in0.0 mm 0.00 in0.0 mm
01:35 PM 33.6°F0.9°C 25.2°F-3.8°C 71% 7.7 mph E12.4 kmh E 14.5 mph23.3 kmh 30.36 in1028.1 mb 0.00 in0.0 mm 0.00 in0.0 mm 0.00 in0.0 mm
01:34 PM 33.6°F0.9°C 25.2°F-3.8°C 71% 7.5 mph E12.1 kmh E 14.5 mph23.3 kmh 30.36 in1028.1 mb 0.00 in0.0 mm 0.00 in0.0 mm 0.00 in0.0 mm
01:33 PM 33.6°F0.9°C 25.2°F-3.8°C 71% 7.5 mph E12.1 kmh E 14.5 mph23.3 kmh 30.37 in1028.4 mb 0.00 in0.0 mm 0.00 in0.0 mm 0.00 in0.0 mm
01:32 PM 33.6°F0.9°C 25.2°F-3.8°C 71% 7.4 mph E11.9 kmh E 14.5 mph23.3 kmh 30.37 in1028.4 mb 0.00 in0.0 mm 0.00 in0.0 mm 0.00 in0.0 mm
01:31 PM 33.6°F0.9°C 25.2°F-3.8°C 71% 7.4 mph E11.9 kmh E 14.5 mph23.3 kmh 30.37 in1028.4 mb 0.00 in0.0 mm 0.00 in0.0 mm 0.00 in0.0 mm
01:30 PM 33.4°F0.8°C 25.1°F-3.8°C 71% 7.5 mph E12.1 kmh E 14.5 mph23.3 kmh 30.37 in1028.4 mb 0.00 in0.0 mm 0.00 in0.0 mm 0.00 in0.0 mm
01:29 PM 33.4°F0.8°C 25.1°F-3.8°C 71% 7.6 mph E12.2 kmh E 14.5 mph23.3 kmh 30.37 in1028.4 mb 0.00 in0.0 mm 0.00 in0.0 mm 0.00 in0.0 mm
01:28 PM 33.4°F0.8°C 25.1°F-3.8°C 71% 7.4 mph E11.9 kmh E 14.5 mph23.3 kmh 30.36 in1028.1 mb 0.00 in0.0 mm 0.00 in0.0 mm 0.00 in0.0 mm
01:27 PM 33.6°F0.9°C 25.2°F-3.8°C 71% 7.2 mph E11.6 kmh E 14.5 mph23.3 kmh 30.36 in1028.1 mb 0.00 in0.0 mm 0.00 in0.0 mm 0.00 in0.0 mm
01:26 PM 33.6°F0.9°C 25.2°F-3.8°C 71% 6.9 mph E11.1 kmh E 14.5 mph23.3 kmh 30.37 in1028.4 mb 0.00 in0.0 mm 0.00 in0.0 mm 0.00 in0.0 mm
01:25 PM 33.6°F0.9°C 25.2°F-3.8°C 71% 6.6 mph E10.6 kmh E 13.0 mph20.9 kmh 30.36 in1028.1 mb 0.00 in0.0 mm 0.00 in0.0 mm 0.00 in0.0 mm
01:24 PM 33.4°F0.8°C 25.1°F-3.8°C 71% 6.8 mph E10.9 kmh E 13.0 mph20.9 kmh 30.37 in1028.4 mb 0.00 in0.0 mm 0.00 in0.0 mm 0.00 in0.0 mm
01:23 PM 33.4°F0.8°C 25.1°F-3.8°C 71% 6.9 mph E11.1 kmh E 13.0 mph20.9 kmh 30.37 in1028.4 mb 0.00 in0.0 mm 0.00 in0.0 mm 0.00 in0.0 mm
01:22 PM 33.4°F0.8°C 25.1°F-3.8°C 71% 7.3 mph E11.7 kmh E 13.0 mph20.9 kmh 30.37 in1028.4 mb 0.00 in0.0 mm 0.00 in0.0 mm 0.00 in0.0 mm
01:21 PM 33.4°F0.8°C 25.1°F-3.8°C 71% 7.1 mph E11.4 kmh E 12.1 mph19.5 kmh 30.37 in1028.4 mb 0.00 in0.0 mm 0.00 in0.0 mm 0.00 in0.0 mm
01:20 PM 33.4°F0.8°C 25.1°F-3.8°C 71% 7.1 mph E11.4 kmh E 12.1 mph19.5 kmh 30.37 in1028.4 mb 0.00 in0.0 mm 0.00 in0.0 mm 0.00 in0.0 mm
01:19 PM 33.4°F0.8°C 25.1°F-3.8°C 71% 7.6 mph E12.2 kmh E 14.5 mph23.3 kmh 30.37 in1028.4 mb 0.00 in0.0 mm 0.00 in0.0 mm 0.00 in0.0 mm
01:18 PM 33.3°F0.7°C 24.9°F-3.9°C 71% 8.0 mph E12.9 kmh E 16.8 mph27.0 kmh 30.37 in1028.4 mb 0.00 in0.0 mm 0.00 in0.0 mm 0.00 in0.0 mm
01:17 PM 33.3°F0.7°C 24.9°F-3.9°C 71% 8.3 mph E13.4 kmh E 16.8 mph27.0 kmh 30.37 in1028.4 mb 0.00 in0.0 mm 0.00 in0.0 mm 0.00 in0.0 mm
01:16 PM 33.3°F0.7°C 24.9°F-3.9°C 71% 8.2 mph E13.2 kmh E 16.8 mph27.0 kmh 30.37 in1028.4 mb 0.00 in0.0 mm 0.00 in0.0 mm 0.00 in0.0 mm
01:15 PM 33.3°F0.7°C 24.9°F-3.9°C 71% 8.1 mph E13.0 kmh E 16.8 mph27.0 kmh 30.37 in1028.4 mb 0.00 in0.0 mm 0.00 in0.0 mm 0.00 in0.0 mm
01:14 PM 33.3°F0.7°C 24.9°F-3.9°C 71% 8.1 mph E13.0 kmh E 16.8 mph27.0 kmh 30.37 in1028.4 mb 0.00 in0.0 mm 0.00 in0.0 mm 0.00 in0.0 mm
01:13 PM 33.3°F0.7°C 24.9°F-3.9°C 71% 8.1 mph E13.0 kmh E 16.8 mph27.0 kmh 30.37 in1028.4 mb 0.00 in0.0 mm 0.00 in0.0 mm 0.00 in0.0 mm
01:12 PM 33.3°F0.7°C 24.9°F-3.9°C 71% 7.8 mph E12.6 kmh E 16.8 mph27.0 kmh 30.37 in1028.4 mb 0.00 in0.0 mm 0.00 in0.0 mm 0.00 in0.0 mm
01:11 PM 33.3°F0.7°C 24.9°F-3.9°C 71% 8.5 mph E13.7 kmh E 16.8 mph27.0 kmh 30.37 in1028.4 mb 0.00 in0.0 mm 0.00 in0.0 mm 0.00 in0.0 mm
01:10 PM 33.4°F0.8°C 25.1°F-3.8°C 71% 8.3 mph E13.4 kmh E 16.8 mph27.0 kmh 30.37 in1028.4 mb 0.00 in0.0 mm 0.00 in0.0 mm 0.00 in0.0 mm
01:09 PM 33.4°F0.8°C 25.1°F-3.8°C 71% 7.7 mph E12.4 kmh E 16.8 mph27.0 kmh 30.36 in1028.1 mb 0.00 in0.0 mm 0.00 in0.0 mm 0.00 in0.0 mm
01:08 PM 33.3°F0.7°C 24.9°F-3.9°C 71% 7.2 mph E11.6 kmh E 15.2 mph24.5 kmh 30.37 in1028.4 mb 0.00 in0.0 mm 0.00 in0.0 mm 0.00 in0.0 mm
01:07 PM 33.4°F0.8°C 25.1°F-3.8°C 71% 6.8 mph E10.9 kmh E 15.2 mph24.5 kmh 30.37 in1028.4 mb 0.00 in0.0 mm 0.00 in0.0 mm 0.00 in0.0 mm
01:06 PM 33.4°F0.8°C 25.4°F-3.7°C 72% 6.7 mph E10.8 kmh E 15.2 mph24.5 kmh 30.37 in1028.4 mb 0.00 in0.0 mm 0.00 in0.0 mm 0.00 in0.0 mm
01:05 PM 33.3°F0.7°C 25.2°F-3.8°C 72% 6.7 mph E10.8 kmh E 15.2 mph24.5 kmh 30.37 in1028.4 mb 0.00 in0.0 mm 0.00 in0.0 mm 0.00 in0.0 mm
01:04 PM 33.3°F0.7°C 25.2°F-3.8°C 72% 6.6 mph E10.6 kmh E 15.2 mph24.5 kmh 30.37 in1028.4 mb 0.00 in0.0 mm 0.00 in0.0 mm 0.00 in0.0 mm
01:03 PM 33.4°F0.8°C 25.4°F-3.7°C 72% 6.6 mph E10.6 kmh E 15.2 mph24.5 kmh 30.37 in1028.4 mb 0.00 in0.0 mm 0.00 in0.0 mm 0.00 in0.0 mm
01:02 PM 33.4°F0.8°C 25.4°F-3.7°C 72% 6.6 mph E10.6 kmh E 15.2 mph24.5 kmh 30.37 in1028.4 mb 0.00 in0.0 mm 0.00 in0.0 mm 0.00 in0.0 mm
01:01 PM 33.4°F0.8°C 25.4°F-3.7°C 72% 5.9 mph E9.5 kmh E 13.0 mph20.9 kmh 30.37 in1028.4 mb 0.00 in0.0 mm 0.00 in0.0 mm 0.00 in0.0 mm
01:00 PM 33.4°F0.8°C 25.4°F-3.7°C 72% 5.7 mph ESE9.2 kmh ESE 11.4 mph18.3 kmh 30.38 in1028.8 mb 0.00 in0.0 mm 0.00 in0.0 mm 0.00 in0.0 mm
12:59 PM 33.4°F0.8°C 25.4°F-3.7°C 72% 5.8 mph E9.3 kmh E 11.4 mph18.3 kmh 30.37 in1028.4 mb 0.00 in0.0 mm 0.00 in0.0 mm 0.00 in0.0 mm
12:58 PM 33.4°F0.8°C 25.4°F-3.7°C 72% 5.7 mph E9.2 kmh E 11.4 mph18.3 kmh 30.37 in1028.4 mb 0.00 in0.0 mm 0.00 in0.0 mm 0.00 in0.0 mm
12:57 PM 33.4°F0.8°C 25.4°F-3.7°C 72% 5.9 mph ESE9.5 kmh ESE 11.4 mph18.3 kmh 30.37 in1028.4 mb 0.00 in0.0 mm 0.00 in0.0 mm 0.00 in0.0 mm
12:56 PM 33.4°F0.8°C 25.4°F-3.7°C 72% 5.8 mph ESE9.3 kmh ESE 11.4 mph18.3 kmh 30.38 in1028.8 mb 0.00 in0.0 mm 0.00 in0.0 mm 0.00 in0.0 mm
12:55 PM 33.4°F0.8°C 25.4°F-3.7°C 72% 5.6 mph ESE9.0 kmh ESE 9.8 mph15.8 kmh 30.37 in1028.4 mb 0.00 in0.0 mm 0.00 in0.0 mm 0.00 in0.0 mm
12:54 PM 33.3°F0.7°C 25.2°F-3.8°C 72% 5.8 mph E9.3 kmh E 15.2 mph24.5 kmh 30.38 in1028.8 mb 0.00 in0.0 mm 0.00 in0.0 mm 0.00 in0.0 mm
12:53 PM 33.4°F0.8°C 25.4°F-3.7°C 72% 6.5 mph E10.5 kmh E 15.2 mph24.5 kmh 30.38 in1028.8 mb 0.00 in0.0 mm 0.00 in0.0 mm 0.00 in0.0 mm
12:52 PM 33.3°F0.7°C 24.9°F-3.9°C 71% 6.5 mph E10.5 kmh E 15.2 mph24.5 kmh 30.37 in1028.4 mb 0.00 in0.0 mm 0.00 in0.0 mm 0.00 in0.0 mm
12:51 PM 33.4°F0.8°C 25.1°F-3.8°C 71% 6.6 mph E10.6 kmh E 15.2 mph24.5 kmh 30.38 in1028.8 mb 0.00 in0.0 mm 0.00 in0.0 mm 0.00 in0.0 mm
12:50 PM 33.3°F0.7°C 24.9°F-3.9°C 71% 6.8 mph E10.9 kmh E 15.2 mph24.5 kmh 30.37 in1028.4 mb 0.00 in0.0 mm 0.00 in0.0 mm 0.00 in0.0 mm
12:49 PM 33.3°F0.7°C 24.9°F-3.9°C 71% 6.9 mph ESE11.1 kmh ESE 15.2 mph24.5 kmh 30.38 in1028.8 mb 0.00 in0.0 mm 0.00 in0.0 mm 0.00 in0.0 mm
12:48 PM 33.3°F0.7°C 24.9°F-3.9°C 71% 7.3 mph ESE11.7 kmh ESE 15.2 mph24.5 kmh 30.37 in1028.4 mb 0.00 in0.0 mm 0.00 in0.0 mm 0.00 in0.0 mm
12:47 PM 33.3°F0.7°C 24.9°F-3.9°C 71% 7.3 mph ESE11.7 kmh ESE 15.2 mph24.5 kmh 30.37 in1028.4 mb 0.00 in0.0 mm 0.00 in0.0 mm 0.00 in0.0 mm
12:46 PM 33.3°F0.7°C 24.9°F-3.9°C 71% 7.5 mph E12.1 kmh E 15.2 mph24.5 kmh 30.38 in1028.8 mb 0.00 in0.0 mm 0.00 in0.0 mm 0.00 in0.0 mm
12:45 PM 33.4°F0.8°C 25.1°F-3.8°C 71% 7.8 mph E12.6 kmh E 16.8 mph27.0 kmh 30.38 in1028.8 mb 0.00 in0.0 mm 0.00 in0.0 mm 0.00 in0.0 mm
12:44 PM 33.3°F0.7°C 24.9°F-3.9°C 71% 8.3 mph E13.4 kmh E 18.3 mph29.5 kmh 30.38 in1028.8 mb 0.00 in0.0 mm 0.00 in0.0 mm 0.00 in0.0 mm
12:43 PM 33.4°F0.8°C 25.1°F-3.8°C 71% 7.8 mph E12.6 kmh E 18.3 mph29.5 kmh 30.38 in1028.8 mb 0.00 in0.0 mm 0.00 in0.0 mm 0.00 in0.0 mm
12:42 PM 33.3°F0.7°C 24.9°F-3.9°C 71% 7.8 mph E12.6 kmh E 18.3 mph29.5 kmh 30.38 in1028.8 mb 0.00 in0.0 mm 0.00 in0.0 mm 0.00 in0.0 mm
12:41 PM 33.3°F0.7°C 24.9°F-3.9°C 71% 7.7 mph E12.4 kmh E 18.3 mph29.5 kmh 30.37 in1028.4 mb 0.00 in0.0 mm 0.00 in0.0 mm 0.00 in0.0 mm
12:40 PM 33.4°F0.8°C 25.1°F-3.8°C 71% 7.8 mph E12.6 kmh E 18.3 mph29.5 kmh 30.38 in1028.8 mb 0.00 in0.0 mm 0.00 in0.0 mm 0.00 in0.0 mm
12:39 PM 33.4°F0.8°C 25.1°F-3.8°C 71% 7.6 mph E12.2 kmh E 18.3 mph29.5 kmh 30.37 in1028.4 mb 0.00 in0.0 mm 0.00 in0.0 mm 0.00 in0.0 mm
12:38 PM 33.4°F0.8°C 25.1°F-3.8°C 71% 7.4 mph E11.9 kmh E 18.3 mph29.5 kmh 30.38 in1028.8 mb 0.00 in0.0 mm 0.00 in0.0 mm 0.00 in0.0 mm
12:37 PM 33.4°F0.8°C 25.1°F-3.8°C 71% 7.2 mph E11.6 kmh E 18.3 mph29.5 kmh 30.37 in1028.4 mb 0.00 in0.0 mm 0.00 in0.0 mm 0.00 in0.0 mm
12:36 PM 33.4°F0.8°C 25.1°F-3.8°C 71% 7.0 mph E11.3 kmh E 18.3 mph29.5 kmh 30.38 in1028.8 mb 0.00 in0.0 mm 0.00 in0.0 mm 0.00 in0.0 mm
12:35 PM 33.6°F0.9°C 25.6°F-3.6°C 72% 6.5 mph E10.5 kmh E 18.3 mph29.5 kmh 30.38 in1028.8 mb 0.00 in0.0 mm 0.00 in0.0 mm 0.00 in0.0 mm
12:34 PM 33.6°F0.9°C 25.6°F-3.6°C 72% 5.9 mph E9.5 kmh E 18.3 mph29.5 kmh 30.38 in1028.8 mb 0.00 in0.0 mm 0.00 in0.0 mm 0.00 in0.0 mm
12:33 PM 33.6°F0.9°C 25.6°F-3.6°C 72% 5.7 mph E9.2 kmh E 11.4 mph18.3 kmh 30.37 in1028.4 mb 0.00 in0.0 mm 0.00 in0.0 mm 0.00 in0.0 mm
12:32 PM 33.6°F0.9°C 25.6°F-3.6°C 72% 5.5 mph E8.9 kmh E 11.4 mph18.3 kmh 30.38 in1028.8 mb 0.00 in0.0 mm 0.00 in0.0 mm 0.00 in0.0 mm
12:31 PM 33.6°F0.9°C 25.6°F-3.6°C 72% 5.5 mph E8.9 kmh E 11.4 mph18.3 kmh 30.38 in1028.8 mb 0.00 in0.0 mm 0.00 in0.0 mm 0.00 in0.0 mm
12:30 PM 33.6°F0.9°C 25.6°F-3.6°C 72% 5.4 mph E8.7 kmh E 15.9 mph25.6 kmh 30.37 in1028.4 mb 0.00 in0.0 mm 0.00 in0.0 mm 0.00 in0.0 mm
12:29 PM 33.6°F0.9°C 25.6°F-3.6°C 72% 5.6 mph E9.0 kmh E 15.9 mph25.6 kmh 30.37 in1028.4 mb 0.00 in0.0 mm 0.00 in0.0 mm 0.00 in0.0 mm
12:28 PM 33.6°F0.9°C 25.6°F-3.6°C 72% 5.9 mph E9.5 kmh E 15.9 mph25.6 kmh 30.38 in1028.8 mb 0.00 in0.0 mm 0.00 in0.0 mm 0.00 in0.0 mm
12:27 PM 33.6°F0.9°C 25.6°F-3.6°C 72% 6.3 mph E10.1 kmh E 15.9 mph25.6 kmh 30.38 in1028.8 mb 0.00 in0.0 mm 0.00 in0.0 mm 0.00 in0.0 mm
12:26 PM 33.6°F0.9°C 25.6°F-3.6°C 72% 6.3 mph E10.1 kmh E 15.9 mph25.6 kmh 30.38 in1028.8 mb 0.00 in0.0 mm 0.00 in0.0 mm 0.00 in0.0 mm
12:25 PM 33.6°F0.9°C 25.6°F-3.6°C 72% 6.4 mph E10.3 kmh E 15.9 mph25.6 kmh 30.37 in1028.4 mb 0.00 in0.0 mm 0.00 in0.0 mm 0.00 in0.0 mm
12:24 PM 33.6°F0.9°C 25.6°F-3.6°C 72% 6.4 mph E10.3 kmh E 15.9 mph25.6 kmh 30.37 in1028.4 mb 0.00 in0.0 mm 0.00 in0.0 mm 0.00 in0.0 mm
12:23 PM 33.4°F0.8°C 25.4°F-3.7°C 72% 6.8 mph E10.9 kmh E 15.9 mph25.6 kmh 30.37 in1028.4 mb 0.00 in0.0 mm 0.00 in0.0 mm 0.00 in0.0 mm
12:22 PM 33.4°F0.8°C 25.4°F-3.7°C 72% 6.9 mph E11.1 kmh E 15.9 mph25.6 kmh 30.38 in1028.8 mb 0.00 in0.0 mm 0.00 in0.0 mm 0.00 in0.0 mm
12:21 PM 33.4°F0.8°C 25.4°F-3.7°C 72% 7.2 mph E11.6 kmh E 15.9 mph25.6 kmh 30.38 in1028.8 mb 0.00 in0.0 mm 0.00 in0.0 mm 0.00 in0.0 mm
12:20 PM 33.4°F0.8°C 25.4°F-3.7°C 72% 7.3 mph E11.7 kmh E 15.9 mph25.6 kmh 30.38 in1028.8 mb 0.00 in0.0 mm 0.00 in0.0 mm 0.00 in0.0 mm
12:19 PM 33.4°F0.8°C 25.4°F-3.7°C 72% 7.2 mph E11.6 kmh E 13.6 mph21.9 kmh 30.38 in1028.8 mb 0.00 in0.0 mm 0.00 in0.0 mm 0.00 in0.0 mm
12:18 PM 33.4°F0.8°C 25.4°F-3.7°C 72% 7.4 mph E11.9 kmh E 13.6 mph21.9 kmh 30.37 in1028.4 mb 0.00 in0.0 mm 0.00 in0.0 mm 0.00 in0.0 mm
12:17 PM 33.4°F0.8°C 25.4°F-3.7°C 72% 7.2 mph E11.6 kmh E 13.6 mph21.9 kmh 30.37 in1028.4 mb 0.00 in0.0 mm 0.00 in0.0 mm 0.00 in0.0 mm
12:16 PM 33.4°F0.8°C 25.4°F-3.7°C 72% 7.3 mph E11.7 kmh E 13.6 mph21.9 kmh 30.37 in1028.4 mb 0.00 in0.0 mm 0.00 in0.0 mm 0.00 in0.0 mm
12:15 PM 33.4°F0.8°C 25.4°F-3.7°C 72% 7.3 mph E11.7 kmh E 13.6 mph21.9 kmh 30.37 in1028.4 mb 0.00 in0.0 mm 0.00 in0.0 mm 0.00 in0.0 mm
12:14 PM 33.4°F0.8°C 25.4°F-3.7°C 72% 7.2 mph E11.6 kmh E 13.6 mph21.9 kmh 30.38 in1028.8 mb 0.00 in0.0 mm 0.00 in0.0 mm 0.00 in0.0 mm
12:13 PM 33.4°F0.8°C 25.4°F-3.7°C 72% 6.9 mph E11.1 kmh E 12.1 mph19.5 kmh 30.38 in1028.8 mb 0.00 in0.0 mm 0.00 in0.0 mm 0.00 in0.0 mm
12:12 PM 33.4°F0.8°C 25.4°F-3.7°C 72% 6.9 mph E11.1 kmh E 12.1 mph19.5 kmh 30.38 in1028.8 mb 0.00 in0.0 mm 0.00 in0.0 mm 0.00 in0.0 mm
12:11 PM 33.4°F0.8°C 25.4°F-3.7°C 72% 6.7 mph E10.8 kmh E 12.1 mph19.5 kmh 30.37 in1028.4 mb 0.00 in0.0 mm 0.00 in0.0 mm 0.00 in0.0 mm
12:10 PM 33.4°F0.8°C 25.4°F-3.7°C 72% 6.6 mph E10.6 kmh E 12.1 mph19.5 kmh 30.38 in1028.8 mb 0.00 in0.0 mm 0.00 in0.0 mm 0.00 in0.0 mm
12:09 PM 33.4°F0.8°C 25.4°F-3.7°C 72% 6.6 mph E10.6 kmh E 12.1 mph19.5 kmh 30.38 in1028.8 mb 0.00 in0.0 mm 0.00 in0.0 mm 0.00 in0.0 mm
12:08 PM 33.4°F0.8°C 25.4°F-3.7°C 72% 6.3 mph E10.1 kmh E 12.1 mph19.5 kmh 30.38 in1028.8 mb 0.00 in0.0 mm 0.00 in0.0 mm 0.00 in0.0 mm
12:07 PM 33.4°F0.8°C 25.4°F-3.7°C 72% 6.2 mph E10.0 kmh E 12.1 mph19.5 kmh 30.38 in1028.8 mb 0.00 in0.0 mm 0.00 in0.0 mm 0.00 in0.0 mm
12:06 PM 33.4°F0.8°C 25.4°F-3.7°C 72% 6.2 mph E10.0 kmh E 12.1 mph19.5 kmh 30.38 in1028.8 mb 0.00 in0.0 mm 0.00 in0.0 mm 0.00 in0.0 mm
12:05 PM 33.4°F0.8°C 25.4°F-3.7°C 72% 6.2 mph E10.0 kmh E 12.1 mph19.5 kmh 30.38 in1028.8 mb 0.00 in0.0 mm 0.00 in0.0 mm 0.00 in0.0 mm
12:04 PM 33.4°F0.8°C 25.4°F-3.7°C 72% 6.3 mph E10.1 kmh E 12.1 mph19.5 kmh 30.38 in1028.8 mb 0.00 in0.0 mm 0.00 in0.0 mm 0.00 in0.0 mm
12:03 PM 33.4°F0.8°C 25.4°F-3.7°C 72% 6.2 mph E10.0 kmh E 12.1 mph19.5 kmh 30.38 in1028.8 mb 0.00 in0.0 mm 0.00 in0.0 mm 0.00 in0.0 mm
12:02 PM 33.4°F0.8°C 25.4°F-3.7°C 72% 6.6 mph E10.6 kmh E 14.5 mph23.3 kmh 30.38 in1028.8 mb 0.00 in0.0 mm 0.00 in0.0 mm 0.00 in0.0 mm
12:01 PM 33.4°F0.8°C 25.4°F-3.7°C 72% 6.9 mph E11.1 kmh E 14.5 mph23.3 kmh 30.38 in1028.8 mb 0.00 in0.0 mm 0.00 in0.0 mm 0.00 in0.0 mm
12:00 PM 33.4°F0.8°C 25.4°F-3.7°C 72% 7.4 mph E11.9 kmh E 14.5 mph23.3 kmh 30.38 in1028.8 mb 0.00 in0.0 mm 0.00 in0.0 mm 0.00 in0.0 mm
11:59 AM 33.4°F0.8°C 25.4°F-3.7°C 72% 7.9 mph E12.7 kmh E 14.5 mph23.3 kmh 30.38 in1028.8 mb 0.00 in0.0 mm 0.00 in0.0 mm 0.00 in0.0 mm
11:58 AM 33.4°F0.8°C 25.4°F-3.7°C 72% 8.1 mph E13.0 kmh E 14.5 mph23.3 kmh 30.38 in1028.8 mb 0.00 in0.0 mm 0.00 in0.0 mm 0.00 in0.0 mm
11:57 AM 33.3°F0.7°C 25.2°F-3.8°C 72% 8.3 mph E13.4 kmh E 14.5 mph23.3 kmh 30.38 in1028.8 mb 0.00 in0.0 mm 0.00 in0.0 mm 0.00 in0.0 mm
11:56 AM 33.3°F0.7°C 25.2°F-3.8°C 72% 8.8 mph E14.2 kmh E 16.8 mph27.0 kmh 30.38 in1028.8 mb 0.00 in0.0 mm 0.00 in0.0 mm 0.00 in0.0 mm
11:55 AM 33.1°F0.6°C 25.1°F-3.8°C 72% 9.5 mph E15.3 kmh E 20.6 mph33.2 kmh 30.38 in1028.8 mb 0.00 in0.0 mm 0.00 in0.0 mm 0.00 in0.0 mm
11:54 AM 33.1°F0.6°C 25.1°F-3.8°C 72% 9.8 mph E15.8 kmh E 20.6 mph33.2 kmh 30.37 in1028.4 mb 0.00 in0.0 mm 0.00 in0.0 mm 0.00 in0.0 mm
11:53 AM 33.1°F0.6°C 25.1°F-3.8°C 72% 10.0 mph E16.1 kmh E 20.6 mph33.2 kmh 30.38 in1028.8 mb 0.00 in0.0 mm 0.00 in0.0 mm 0.00 in0.0 mm
11:52 AM 33.1°F0.6°C 25.1°F-3.8°C 72% 9.8 mph E15.8 kmh E 20.6 mph33.2 kmh 30.38 in1028.8 mb 0.00 in0.0 mm 0.00 in0.0 mm 0.00 in0.0 mm
11:51 AM 32.9°F0.5°C 24.9°F-3.9°C 72% 9.6 mph E15.4 kmh E 20.6 mph33.2 kmh 30.37 in1028.4 mb 0.00 in0.0 mm 0.00 in0.0 mm 0.00 in0.0 mm
11:50 AM 32.9°F0.5°C 24.9°F-3.9°C 72% 9.3 mph E15.0 kmh E 20.6 mph33.2 kmh 30.37 in1028.4 mb 0.00 in0.0 mm 0.00 in0.0 mm 0.00 in0.0 mm
11:49 AM 32.9°F0.5°C 24.9°F-3.9°C 72% 9.0 mph E14.5 kmh E 20.6 mph33.2 kmh 30.38 in1028.8 mb 0.00 in0.0 mm 0.00 in0.0 mm 0.00 in0.0 mm
11:48 AM 32.9°F0.5°C 24.9°F-3.9°C 72% 9.1 mph E14.6 kmh E 20.6 mph33.2 kmh 30.38 in1028.8 mb 0.00 in0.0 mm 0.00 in0.0 mm 0.00 in0.0 mm
11:47 AM 32.9°F0.5°C 24.9°F-3.9°C 72% 9.0 mph E14.5 kmh E 20.6 mph33.2 kmh 30.38 in1028.8 mb 0.00 in0.0 mm 0.00 in0.0 mm 0.00 in0.0 mm
11:46 AM 32.9°F0.5°C 24.9°F-3.9°C 72% 8.7 mph E14.0 kmh E 20.6 mph33.2 kmh 30.38 in1028.8 mb 0.00 in0.0 mm 0.00 in0.0 mm 0.00 in0.0 mm
11:45 AM 32.9°F0.5°C 24.9°F-3.9°C 72% 8.1 mph ESE13.0 kmh ESE 15.2 mph24.5 kmh 30.38 in1028.8 mb 0.00 in0.0 mm 0.00 in0.0 mm 0.00 in0.0 mm
11:44 AM 32.9°F0.5°C 24.9°F-3.9°C 72% 7.9 mph E12.7 kmh E 14.5 mph23.3 kmh 30.38 in1028.8 mb 0.00 in0.0 mm 0.00 in0.0 mm 0.00 in0.0 mm
11:43 AM 32.9°F0.5°C 25.2°F-3.8°C 73% 8.1 mph E13.0 kmh E 14.5 mph23.3 kmh 30.38 in1028.8 mb 0.00 in0.0 mm 0.00 in0.0 mm 0.00 in0.0 mm
11:42 AM 32.9°F0.5°C 25.2°F-3.8°C 73% 7.9 mph ESE12.7 kmh ESE 14.5 mph23.3 kmh 30.38 in1028.8 mb 0.00 in0.0 mm 0.00 in0.0 mm 0.00 in0.0 mm
11:41 AM 32.9°F0.5°C 25.2°F-3.8°C 73% 7.7 mph ESE12.4 kmh ESE 14.5 mph23.3 kmh 30.38 in1028.8 mb 0.00 in0.0 mm 0.00 in0.0 mm 0.00 in0.0 mm
11:40 AM 32.9°F0.5°C 25.2°F-3.8°C 73% 7.7 mph ESE12.4 kmh ESE 14.5 mph23.3 kmh 30.38 in1028.8 mb 0.00 in0.0 mm 0.00 in0.0 mm 0.00 in0.0 mm
11:39 AM 32.9°F0.5°C 25.2°F-3.8°C 73% 7.6 mph ESE12.2 kmh ESE 14.5 mph23.3 kmh 30.38 in1028.8 mb 0.00 in0.0 mm 0.00 in0.0 mm 0.00 in0.0 mm
11:38 AM 32.9°F0.5°C 25.2°F-3.8°C 73% 7.6 mph ESE12.2 kmh ESE 13.6 mph21.9 kmh 30.38 in1028.8 mb 0.00 in0.0 mm 0.00 in0.0 mm 0.00 in0.0 mm
11:37 AM 32.9°F0.5°C 25.2°F-3.8°C 73% 7.9 mph ESE12.7 kmh ESE 15.9 mph25.6 kmh 30.38 in1028.8 mb 0.00 in0.0 mm 0.00 in0.0 mm 0.00 in0.0 mm
11:36 AM 32.9°F0.5°C 25.2°F-3.8°C 73% 8.0 mph E12.9 kmh E 15.9 mph25.6 kmh 30.38 in1028.8 mb 0.00 in0.0 mm 0.00 in0.0 mm 0.00 in0.0 mm
11:35 AM 32.9°F0.5°C 25.2°F-3.8°C 73% 7.8 mph E12.6 kmh E 15.9 mph25.6 kmh 30.38 in1028.8 mb 0.00 in0.0 mm 0.00 in0.0 mm 0.00 in0.0 mm
11:34 AM 32.9°F0.5°C 25.2°F-3.8°C 73% 7.7 mph E12.4 kmh E 15.9 mph25.6 kmh 30.38 in1028.8 mb 0.00 in0.0 mm 0.00 in0.0 mm 0.00 in0.0 mm
11:33 AM 32.7°F0.4°C 25.0°F-3.9°C 73% 7.7 mph E12.4 kmh E 15.9 mph25.6 kmh 30.38 in1028.8 mb 0.00 in0.0 mm 0.00 in0.0 mm 0.00 in0.0 mm
11:32 AM 32.7°F0.4°C 25.0°F-3.9°C 73% 8.0 mph E12.9 kmh E 15.9 mph25.6 kmh 30.38 in1028.8 mb 0.00 in0.0 mm 0.00 in0.0 mm 0.00 in0.0 mm
11:31 AM 32.7°F0.4°C 25.0°F-3.9°C 73% 8.2 mph E13.2 kmh E 15.9 mph25.6 kmh 30.38 in1028.8 mb 0.00 in0.0 mm 0.00 in0.0 mm 0.00 in0.0 mm
11:30 AM 32.7°F0.4°C 25.0°F-3.9°C 73% 8.6 mph E13.8 kmh E 16.8 mph27.0 kmh 30.38 in1028.8 mb 0.00 in0.0 mm 0.00 in0.0 mm 0.00 in0.0 mm
11:29 AM 32.7°F0.4°C 25.0°F-3.9°C 73% 8.8 mph E14.2 kmh E 16.8 mph27.0 kmh 30.38 in1028.8 mb 0.00 in0.0 mm 0.00 in0.0 mm 0.00 in0.0 mm
11:28 AM 32.7°F0.4°C 25.0°F-3.9°C 73% 9.0 mph E14.5 kmh E 16.8 mph27.0 kmh 30.38 in1028.8 mb 0.00 in0.0 mm 0.00 in0.0 mm 0.00 in0.0 mm
11:27 AM 32.7°F0.4°C 25.0°F-3.9°C 73% 8.4 mph E13.5 kmh E 16.8 mph27.0 kmh 30.38 in1028.8 mb 0.00 in0.0 mm 0.00 in0.0 mm 0.00 in0.0 mm
11:26 AM 32.7°F0.4°C 25.0°F-3.9°C 73% 8.3 mph E13.4 kmh E 16.8 mph27.0 kmh 30.38 in1028.8 mb 0.00 in0.0 mm 0.00 in0.0 mm 0.00 in0.0 mm
11:25 AM 32.7°F0.4°C 25.0°F-3.9°C 73% 8.9 mph E14.3 kmh E 16.8 mph27.0 kmh 30.38 in1028.8 mb 0.00 in0.0 mm 0.00 in0.0 mm 0.00 in0.0 mm
11:24 AM 32.7°F0.4°C 24.7°F-4.1°C 72% 9.1 mph E14.6 kmh E 16.8 mph27.0 kmh 30.38 in1028.8 mb 0.00 in0.0 mm 0.00 in0.0 mm 0.00 in0.0 mm
11:23 AM 32.7°F0.4°C 24.7°F-4.1°C 72% 8.8 mph E14.2 kmh E 16.8 mph27.0 kmh 30.37 in1028.4 mb 0.00 in0.0 mm 0.00 in0.0 mm 0.00 in0.0 mm
11:22 AM 32.7°F0.4°C 25.0°F-3.9°C 73% 9.1 mph E14.6 kmh E 16.8 mph27.0 kmh 30.38 in1028.8 mb 0.00 in0.0 mm 0.00 in0.0 mm 0.00 in0.0 mm
11:21 AM 32.7°F0.4°C 25.0°F-3.9°C 73% 9.3 mph E15.0 kmh E 16.8 mph27.0 kmh 30.38 in1028.8 mb 0.00 in0.0 mm 0.00 in0.0 mm 0.00 in0.0 mm
11:20 AM 32.7°F0.4°C 25.0°F-3.9°C 73% 9.0 mph E14.5 kmh E 16.8 mph27.0 kmh 30.38 in1028.8 mb 0.00 in0.0 mm 0.00 in0.0 mm 0.00 in0.0 mm
11:19 AM 32.7°F0.4°C 25.0°F-3.9°C 73% 8.9 mph E14.3 kmh E 16.8 mph27.0 kmh 30.38 in1028.8 mb 0.00 in0.0 mm 0.00 in0.0 mm 0.00 in0.0 mm
11:18 AM 32.7°F0.4°C 25.0°F-3.9°C 73% 8.8 mph E14.2 kmh E 16.8 mph27.0 kmh 30.38 in1028.8 mb 0.00 in0.0 mm 0.00 in0.0 mm 0.00 in0.0 mm
11:17 AM 32.7°F0.4°C 25.0°F-3.9°C 73% 9.0 mph E14.5 kmh E 16.8 mph27.0 kmh 30.38 in1028.8 mb 0.00 in0.0 mm 0.00 in0.0 mm 0.00 in0.0 mm
11:16 AM 32.7°F0.4°C 25.0°F-3.9°C 73% 8.7 mph E14.0 kmh E 16.8 mph27.0 kmh 30.38 in1028.8 mb 0.00 in0.0 mm 0.00 in0.0 mm 0.00 in0.0 mm
11:15 AM 32.7°F0.4°C 25.0°F-3.9°C 73% 8.2 mph E13.2 kmh E 16.8 mph27.0 kmh 30.38 in1028.8 mb 0.00 in0.0 mm 0.00 in0.0 mm 0.00 in0.0 mm
11:14 AM 32.7°F0.4°C 25.0°F-3.9°C 73% 8.1 mph E13.0 kmh E 14.5 mph23.3 kmh 30.38 in1028.8 mb 0.00 in0.0 mm 0.00 in0.0 mm 0.00 in0.0 mm
11:13 AM 32.7°F0.4°C 25.0°F-3.9°C 73% 8.0 mph E12.9 kmh E 14.5 mph23.3 kmh 30.38 in1028.8 mb 0.00 in0.0 mm 0.00 in0.0 mm 0.00 in0.0 mm
11:12 AM 32.7°F0.4°C 25.0°F-3.9°C 73% 7.7 mph E12.4 kmh E 14.5 mph23.3 kmh 30.38 in1028.8 mb 0.00 in0.0 mm 0.00 in0.0 mm 0.00 in0.0 mm
11:11 AM 32.7°F0.4°C 25.0°F-3.9°C 73% 7.4 mph E11.9 kmh E 14.5 mph23.3 kmh 30.38 in1028.8 mb 0.00 in0.0 mm 0.00 in0.0 mm 0.00 in0.0 mm
11:10 AM 32.7°F0.4°C 25.0°F-3.9°C 73% 7.3 mph E11.7 kmh E 14.5 mph23.3 kmh 30.38 in1028.8 mb 0.00 in0.0 mm 0.00 in0.0 mm 0.00 in0.0 mm
11:09 AM 32.7°F0.4°C 25.0°F-3.9°C 73% 7.2 mph ESE11.6 kmh ESE 14.5 mph23.3 kmh 30.38 in1028.8 mb 0.00 in0.0 mm 0.00 in0.0 mm 0.00 in0.0 mm
11:08 AM 32.7°F0.4°C 25.0°F-3.9°C 73% 7.1 mph E11.4 kmh E 14.5 mph23.3 kmh 30.38 in1028.8 mb 0.00 in0.0 mm 0.00 in0.0 mm 0.00 in0.0 mm
11:07 AM 32.7°F0.4°C 25.0°F-3.9°C 73% 7.1 mph E11.4 kmh E 14.5 mph23.3 kmh 30.38 in1028.8 mb 0.00 in0.0 mm 0.00 in0.0 mm 0.00 in0.0 mm
11:06 AM 32.7°F0.4°C 25.0°F-3.9°C 73% 7.1 mph E11.4 kmh E 12.1 mph19.5 kmh 30.38 in1028.8 mb 0.00 in0.0 mm 0.00 in0.0 mm 0.00 in0.0 mm
11:05 AM 32.7°F0.4°C 25.0°F-3.9°C 73% 7.1 mph E11.4 kmh E 12.1 mph19.5 kmh 30.38 in1028.8 mb 0.00 in0.0 mm 0.00 in0.0 mm 0.00 in0.0 mm
11:04 AM 32.7°F0.4°C 25.0°F-3.9°C 73% 7.0 mph E11.3 kmh E 12.1 mph19.5 kmh 30.38 in1028.8 mb 0.00 in0.0 mm 0.00 in0.0 mm 0.00 in0.0 mm
11:03 AM 32.7°F0.4°C 25.0°F-3.9°C 73% 7.5 mph ESE12.1 kmh ESE 14.5 mph23.3 kmh 30.37 in1028.4 mb 0.00 in0.0 mm 0.00 in0.0 mm 0.00 in0.0 mm
11:02 AM 32.7°F0.4°C 25.0°F-3.9°C 73% 7.6 mph ESE12.2 kmh ESE 14.5 mph23.3 kmh 30.38 in1028.8 mb 0.00 in0.0 mm 0.00 in0.0 mm 0.00 in0.0 mm
11:01 AM 32.7°F0.4°C 25.0°F-3.9°C 73% 7.8 mph ESE12.6 kmh ESE 14.5 mph23.3 kmh 30.38 in1028.8 mb 0.00 in0.0 mm 0.00 in0.0 mm 0.00 in0.0 mm
11:00 AM 32.7°F0.4°C 25.0°F-3.9°C 73% 8.0 mph ESE12.9 kmh ESE 16.8 mph27.0 kmh 30.38 in1028.8 mb 0.00 in0.0 mm 0.00 in0.0 mm 0.00 in0.0 mm
10:59 AM 32.7°F0.4°C 25.0°F-3.9°C 73% 8.4 mph ESE13.5 kmh ESE 16.8 mph27.0 kmh 30.38 in1028.8 mb 0.00 in0.0 mm 0.00 in0.0 mm 0.00 in0.0 mm
10:58 AM 32.7°F0.4°C 25.0°F-3.9°C 73% 8.4 mph SE13.5 kmh SE 16.8 mph27.0 kmh 30.38 in1028.8 mb 0.00 in0.0 mm 0.00 in0.0 mm 0.00 in0.0 mm
10:57 AM 32.7°F0.4°C 25.0°F-3.9°C 73% 8.2 mph SE13.2 kmh SE 16.8 mph27.0 kmh 30.38 in1028.8 mb 0.00 in0.0 mm 0.00 in0.0 mm 0.00 in0.0 mm
10:56 AM 32.7°F0.4°C 25.0°F-3.9°C 73% 8.4 mph SE13.5 kmh SE 16.8 mph27.0 kmh 30.38 in1028.8 mb 0.00 in0.0 mm 0.00 in0.0 mm 0.00 in0.0 mm
10:55 AM 32.7°F0.4°C 25.0°F-3.9°C 73% 8.7 mph ESE14.0 kmh ESE 16.8 mph27.0 kmh 30.38 in1028.8 mb 0.00 in0.0 mm 0.00 in0.0 mm 0.00 in0.0 mm
10:54 AM 32.7°F0.4°C 25.0°F-3.9°C 73% 8.7 mph ESE14.0 kmh ESE 16.8 mph27.0 kmh 30.38 in1028.8 mb 0.00 in0.0 mm 0.00 in0.0 mm 0.00 in0.0 mm
10:53 AM 32.7°F0.4°C 25.0°F-3.9°C 73% 8.3 mph ESE13.4 kmh ESE 16.8 mph27.0 kmh 30.38 in1028.8 mb 0.00 in0.0 mm 0.00 in0.0 mm 0.00 in0.0 mm
10:52 AM 32.7°F0.4°C 25.0°F-3.9°C 73% 8.0 mph ESE12.9 kmh ESE 16.8 mph27.0 kmh 30.38 in1028.8 mb 0.00 in0.0 mm 0.00 in0.0 mm 0.00 in0.0 mm
10:51 AM 32.7°F0.4°C 25.0°F-3.9°C 73% 8.0 mph E12.9 kmh E 16.8 mph27.0 kmh 30.37 in1028.4 mb 0.00 in0.0 mm 0.00 in0.0 mm 0.00 in0.0 mm
10:50 AM 32.7°F0.4°C 25.0°F-3.9°C 73% 7.6 mph E12.2 kmh E 16.8 mph27.0 kmh 30.38 in1028.8 mb 0.00 in0.0 mm 0.00 in0.0 mm 0.00 in0.0 mm
10:49 AM 32.7°F0.4°C 25.0°F-3.9°C 73% 7.2 mph E11.6 kmh E 14.5 mph23.3 kmh 30.37 in1028.4 mb 0.00 in0.0 mm 0.00 in0.0 mm 0.00 in0.0 mm
10:48 AM 32.7°F0.4°C 25.0°F-3.9°C 73% 7.3 mph E11.7 kmh E 14.5 mph23.3 kmh 30.38 in1028.8 mb 0.00 in0.0 mm 0.00 in0.0 mm 0.00 in0.0 mm
10:47 AM 32.7°F0.4°C 25.0°F-3.9°C 73% 7.5 mph E12.1 kmh E 14.5 mph23.3 kmh 30.38 in1028.8 mb 0.00 in0.0 mm 0.00 in0.0 mm 0.00 in0.0 mm
10:46 AM 32.7°F0.4°C 25.0°F-3.9°C 73% 7.3 mph E11.7 kmh E 14.5 mph23.3 kmh 30.38 in1028.8 mb 0.00 in0.0 mm 0.00 in0.0 mm 0.00 in0.0 mm
10:45 AM 32.7°F0.4°C 25.0°F-3.9°C 73% 7.4 mph E11.9 kmh E 15.2 mph24.5 kmh 30.38 in1028.8 mb 0.00 in0.0 mm 0.00 in0.0 mm 0.00 in0.0 mm
10:44 AM 32.7°F0.4°C 25.0°F-3.9°C 73% 7.3 mph E11.7 kmh E 15.2 mph24.5 kmh 30.38 in1028.8 mb 0.00 in0.0 mm 0.00 in0.0 mm 0.00 in0.0 mm
10:43 AM 32.7°F0.4°C 25.0°F-3.9°C 73% 7.1 mph E11.4 kmh E 15.2 mph24.5 kmh 30.38 in1028.8 mb 0.00 in0.0 mm 0.00 in0.0 mm 0.00 in0.0 mm
10:42 AM 32.7°F0.4°C 25.0°F-3.9°C 73% 7.3 mph E11.7 kmh E 15.2 mph24.5 kmh 30.38 in1028.8 mb 0.00 in0.0 mm 0.00 in0.0 mm 0.00 in0.0 mm
10:41 AM 32.7°F0.4°C 25.0°F-3.9°C 73% 7.4 mph E11.9 kmh E 15.2 mph24.5 kmh 30.38 in1028.8 mb 0.00 in0.0 mm 0.00 in0.0 mm 0.00 in0.0 mm
10:40 AM 32.7°F0.4°C 25.0°F-3.9°C 73% 7.5 mph E12.1 kmh E 15.2 mph24.5 kmh 30.38 in1028.8 mb 0.00 in0.0 mm 0.00 in0.0 mm 0.00 in0.0 mm
10:39 AM 32.7°F0.4°C 25.0°F-3.9°C 73% 7.4 mph E11.9 kmh E 15.2 mph24.5 kmh 30.38 in1028.8 mb 0.00 in0.0 mm 0.00 in0.0 mm 0.00 in0.0 mm
10:38 AM 32.7°F0.4°C 25.0°F-3.9°C 73% 7.9 mph E12.7 kmh E 15.9 mph25.6 kmh 30.38 in1028.8 mb 0.00 in0.0 mm 0.00 in0.0 mm 0.00 in0.0 mm
10:37 AM 32.7°F0.4°C 25.0°F-3.9°C 73% 8.0 mph E12.9 kmh E 16.8 mph27.0 kmh 30.38 in1028.8 mb 0.00 in0.0 mm 0.00 in0.0 mm 0.00 in0.0 mm
10:36 AM 32.7°F0.4°C 25.0°F-3.9°C 73% 8.8 mph E14.2 kmh E 17.4 mph28.0 kmh 30.38 in1028.8 mb 0.00 in0.0 mm 0.00 in0.0 mm 0.00 in0.0 mm
10:35 AM 32.7°F0.4°C 25.0°F-3.9°C 73% 9.3 mph E15.0 kmh E 17.4 mph28.0 kmh 30.37 in1028.4 mb 0.00 in0.0 mm 0.00 in0.0 mm 0.00 in0.0 mm
10:34 AM 32.7°F0.4°C 25.0°F-3.9°C 73% 9.1 mph E14.6 kmh E 17.4 mph28.0 kmh 30.38 in1028.8 mb 0.00 in0.0 mm 0.00 in0.0 mm 0.00 in0.0 mm
10:33 AM 32.7°F0.4°C 25.0°F-3.9°C 73% 9.4 mph E15.1 kmh E 17.4 mph28.0 kmh 30.38 in1028.8 mb 0.00 in0.0 mm 0.00 in0.0 mm 0.00 in0.0 mm
10:32 AM 32.7°F0.4°C 25.0°F-3.9°C 73% 9.4 mph E15.1 kmh E 17.4 mph28.0 kmh 30.37 in1028.4 mb 0.00 in0.0 mm 0.00 in0.0 mm 0.00 in0.0 mm
10:31 AM 32.7°F0.4°C 25.0°F-3.9°C 73% 9.0 mph E14.5 kmh E 17.4 mph28.0 kmh 30.38 in1028.8 mb 0.00 in0.0 mm 0.00 in0.0 mm 0.00 in0.0 mm
10:30 AM 32.7°F0.4°C 25.0°F-3.9°C 73% 8.8 mph ESE14.2 kmh ESE 17.4 mph28.0 kmh 30.38 in1028.8 mb 0.00 in0.0 mm 0.00 in0.0 mm 0.00 in0.0 mm
10:29 AM 32.7°F0.4°C 25.0°F-3.9°C 73% 8.7 mph ESE14.0 kmh ESE 17.4 mph28.0 kmh 30.37 in1028.4 mb 0.00 in0.0 mm 0.00 in0.0 mm 0.00 in0.0 mm
10:28 AM 32.7°F0.4°C 25.0°F-3.9°C 73% 8.0 mph ESE12.9 kmh ESE 17.4 mph28.0 kmh 30.37 in1028.4 mb 0.00 in0.0 mm 0.00 in0.0 mm 0.00 in0.0 mm
10:27 AM 32.7°F0.4°C 25.0°F-3.9°C 73% 7.6 mph ESE12.2 kmh ESE 17.4 mph28.0 kmh 30.38 in1028.8 mb 0.00 in0.0 mm 0.00 in0.0 mm 0.00 in0.0 mm
10:26 AM 32.7°F0.4°C 25.0°F-3.9°C 73% 6.8 mph ESE10.9 kmh ESE 17.4 mph28.0 kmh 30.37 in1028.4 mb 0.00 in0.0 mm 0.00 in0.0 mm 0.00 in0.0 mm
10:25 AM 32.7°F0.4°C 25.0°F-3.9°C 73% 5.8 mph ESE9.3 kmh ESE 13.0 mph20.9 kmh 30.38 in1028.8 mb 0.00 in0.0 mm 0.00 in0.0 mm 0.00 in0.0 mm
10:24 AM 32.7°F0.4°C 25.0°F-3.9°C 73% 5.8 mph ESE9.3 kmh ESE 13.0 mph20.9 kmh 30.38 in1028.8 mb 0.00 in0.0 mm 0.00 in0.0 mm 0.00 in0.0 mm
10:23 AM 32.7°F0.4°C 25.0°F-3.9°C 73% 5.8 mph ESE9.3 kmh ESE 13.0 mph20.9 kmh 30.37 in1028.4 mb 0.00 in0.0 mm 0.00 in0.0 mm 0.00 in0.0 mm
10:22 AM 32.7°F0.4°C 25.0°F-3.9°C 73% 5.8 mph ESE9.3 kmh ESE 13.0 mph20.9 kmh 30.38 in1028.8 mb 0.00 in0.0 mm 0.00 in0.0 mm 0.00 in0.0 mm
10:21 AM 32.7°F0.4°C 25.0°F-3.9°C 73% 6.2 mph SE10.0 kmh SE 15.9 mph25.6 kmh 30.38 in1028.8 mb 0.00 in0.0 mm 0.00 in0.0 mm 0.00 in0.0 mm
10:20 AM 32.7°F0.4°C 25.0°F-3.9°C 73% 6.5 mph ESE10.5 kmh ESE 15.9 mph25.6 kmh 30.38 in1028.8 mb 0.00 in0.0 mm 0.00 in0.0 mm 0.00 in0.0 mm
10:19 AM 32.7°F0.4°C 25.0°F-3.9°C 73% 6.8 mph ESE10.9 kmh ESE 15.9 mph25.6 kmh 30.38 in1028.8 mb 0.00 in0.0 mm 0.00 in0.0 mm 0.00 in0.0 mm
10:18 AM 32.7°F0.4°C 25.0°F-3.9°C 73% 7.4 mph ESE11.9 kmh ESE 15.9 mph25.6 kmh 30.38 in1028.8 mb 0.00 in0.0 mm 0.00 in0.0 mm 0.00 in0.0 mm
10:17 AM 32.7°F0.4°C 25.0°F-3.9°C 73% 7.7 mph ESE12.4 kmh ESE 15.9 mph25.6 kmh 30.38 in1028.8 mb 0.00 in0.0 mm 0.00 in0.0 mm 0.00 in0.0 mm
10:16 AM 32.7°F0.4°C 25.0°F-3.9°C 73% 7.8 mph ESE12.6 kmh ESE 15.9 mph25.6 kmh 30.38 in1028.8 mb 0.00 in0.0 mm 0.00 in0.0 mm 0.00 in0.0 mm
10:15 AM 32.7°F0.4°C 25.0°F-3.9°C 73% 7.7 mph ESE12.4 kmh ESE 15.9 mph25.6 kmh 30.38 in1028.8 mb 0.00 in0.0 mm 0.00 in0.0 mm 0.00 in0.0 mm
10:14 AM 32.7°F0.4°C 25.0°F-3.9°C 73% 7.8 mph ESE12.6 kmh ESE 15.9 mph25.6 kmh 30.38 in1028.8 mb 0.00 in0.0 mm 0.00 in0.0 mm 0.00 in0.0 mm
10:13 AM 32.7°F0.4°C 25.0°F-3.9°C 73% 8.0 mph ESE12.9 kmh ESE 15.9 mph25.6 kmh 30.37 in1028.4 mb 0.00 in0.0 mm 0.00 in0.0 mm 0.00 in0.0 mm
10:12 AM 32.7°F0.4°C 25.0°F-3.9°C 73% 8.1 mph ESE13.0 kmh ESE 15.9 mph25.6 kmh 30.37 in1028.4 mb 0.00 in0.0 mm 0.00 in0.0 mm 0.00 in0.0 mm
10:11 AM 32.7°F0.4°C 25.0°F-3.9°C 73% 7.9 mph ESE12.7 kmh ESE 15.9 mph25.6 kmh 30.38 in1028.8 mb 0.00 in0.0 mm 0.00 in0.0 mm 0.00 in0.0 mm
10:10 AM 32.7°F0.4°C 25.0°F-3.9°C 73% 7.6 mph ESE12.2 kmh ESE 15.2 mph24.5 kmh 30.38 in1028.8 mb 0.00 in0.0 mm 0.00 in0.0 mm 0.00 in0.0 mm
10:09 AM 32.7°F0.4°C 25.0°F-3.9°C 73% 7.5 mph E12.1 kmh E 15.2 mph24.5 kmh 30.38 in1028.8 mb 0.00 in0.0 mm 0.00 in0.0 mm 0.00 in0.0 mm
10:08 AM 32.7°F0.4°C 25.0°F-3.9°C 73% 7.2 mph ESE11.6 kmh ESE 15.2 mph24.5 kmh 30.38 in1028.8 mb 0.00 in0.0 mm 0.00 in0.0 mm 0.00 in0.0 mm
10:07 AM 32.7°F0.4°C 25.0°F-3.9°C 73% 7.4 mph ESE11.9 kmh ESE 15.2 mph24.5 kmh 30.38 in1028.8 mb 0.00 in0.0 mm 0.00 in0.0 mm 0.00 in0.0 mm
10:06 AM 32.7°F0.4°C 25.0°F-3.9°C 73% 7.4 mph ESE11.9 kmh ESE 15.2 mph24.5 kmh 30.38 in1028.8 mb 0.00 in0.0 mm 0.00 in0.0 mm 0.00 in0.0 mm
10:05 AM 32.7°F0.4°C 25.0°F-3.9°C 73% 8.0 mph ESE12.9 kmh ESE 16.8 mph27.0 kmh 30.37 in1028.4 mb 0.00 in0.0 mm 0.00 in0.0 mm 0.00 in0.0 mm
10:04 AM 32.7°F0.4°C 25.0°F-3.9°C 73% 8.0 mph ESE12.9 kmh ESE 17.4 mph28.0 kmh 30.38 in1028.8 mb 0.00 in0.0 mm 0.00 in0.0 mm 0.00 in0.0 mm
10:03 AM 32.7°F0.4°C 25.0°F-3.9°C 73% 7.9 mph ESE12.7 kmh ESE 17.4 mph28.0 kmh 30.38 in1028.8 mb 0.00 in0.0 mm 0.00 in0.0 mm 0.00 in0.0 mm
10:02 AM 32.7°F0.4°C 25.0°F-3.9°C 73% 7.8 mph ESE12.6 kmh ESE 17.4 mph28.0 kmh 30.37 in1028.4 mb 0.00 in0.0 mm 0.00 in0.0 mm 0.00 in0.0 mm
10:01 AM 32.7°F0.4°C 25.0°F-3.9°C 73% 7.9 mph ESE12.7 kmh ESE 17.4 mph28.0 kmh 30.38 in1028.8 mb 0.00 in0.0 mm 0.00 in0.0 mm 0.00 in0.0 mm
10:00 AM 32.7°F0.4°C 25.0°F-3.9°C 73% 8.0 mph ESE12.9 kmh ESE 17.4 mph28.0 kmh 30.37 in1028.4 mb 0.00 in0.0 mm 0.00 in0.0 mm 0.00 in0.0 mm
09:59 AM 32.7°F0.4°C 25.0°F-3.9°C 73% 7.9 mph E12.7 kmh E 17.4 mph28.0 kmh 30.38 in1028.8 mb 0.00 in0.0 mm 0.00 in0.0 mm 0.00 in0.0 mm
09:58 AM 32.7°F0.4°C 25.0°F-3.9°C 73% 7.6 mph E12.2 kmh E 17.4 mph28.0 kmh 30.37 in1028.4 mb 0.00 in0.0 mm 0.00 in0.0 mm 0.00 in0.0 mm
09:57 AM 32.7°F0.4°C 25.0°F-3.9°C 73% 7.6 mph E12.2 kmh E 17.4 mph28.0 kmh 30.37 in1028.4 mb 0.00 in0.0 mm 0.00 in0.0 mm 0.00 in0.0 mm
09:56 AM 32.7°F0.4°C 25.0°F-3.9°C 73% 8.1 mph E13.0 kmh E 17.4 mph28.0 kmh 30.37 in1028.4 mb 0.00 in0.0 mm 0.00 in0.0 mm 0.00 in0.0 mm
09:55 AM 32.7°F0.4°C 25.0°F-3.9°C 73% 8.3 mph E13.4 kmh E 17.4 mph28.0 kmh 30.37 in1028.4 mb 0.00 in0.0 mm 0.00 in0.0 mm 0.00 in0.0 mm
09:54 AM 32.7°F0.4°C 25.0°F-3.9°C 73% 8.4 mph E13.5 kmh E 17.4 mph28.0 kmh 30.38 in1028.8 mb 0.00 in0.0 mm 0.00 in0.0 mm 0.00 in0.0 mm
09:53 AM 32.7°F0.4°C 25.0°F-3.9°C 73% 8.6 mph E13.8 kmh E 17.4 mph28.0 kmh 30.37 in1028.4 mb 0.00 in0.0 mm 0.00 in0.0 mm 0.00 in0.0 mm
09:52 AM 32.7°F0.4°C 25.0°F-3.9°C 73% 8.7 mph E14.0 kmh E 17.4 mph28.0 kmh 30.37 in1028.4 mb 0.00 in0.0 mm 0.00 in0.0 mm 0.00 in0.0 mm
09:51 AM 32.7°F0.4°C 25.0°F-3.9°C 73% 8.8 mph E14.2 kmh E 17.4 mph28.0 kmh 30.37 in1028.4 mb 0.00 in0.0 mm 0.00 in0.0 mm 0.00 in0.0 mm
09:50 AM 32.7°F0.4°C 25.0°F-3.9°C 73% 8.9 mph E14.3 kmh E 17.4 mph28.0 kmh 30.37 in1028.4 mb 0.00 in0.0 mm 0.00 in0.0 mm 0.00 in0.0 mm
09:49 AM 32.7°F0.4°C 25.0°F-3.9°C 73% 9.1 mph ESE14.6 kmh ESE 17.4 mph28.0 kmh 30.37 in1028.4 mb 0.00 in0.0 mm 0.00 in0.0 mm 0.00 in0.0 mm
09:48 AM 32.7°F0.4°C 25.0°F-3.9°C 73% 9.9 mph ESE15.9 kmh ESE 19.0 mph30.6 kmh 30.37 in1028.4 mb 0.00 in0.0 mm 0.00 in0.0 mm 0.00 in0.0 mm
09:47 AM 32.7°F0.4°C 25.0°F-3.9°C 73% 10.0 mph ESE16.1 kmh ESE 19.0 mph30.6 kmh 30.37 in1028.4 mb 0.00 in0.0 mm 0.00 in0.0 mm 0.00 in0.0 mm
09:46 AM 32.7°F0.4°C 25.0°F-3.9°C 73% 9.6 mph ESE15.4 kmh ESE 19.0 mph30.6 kmh 30.36 in1028.1 mb 0.00 in0.0 mm 0.00 in0.0 mm 0.00 in0.0 mm
09:45 AM 32.7°F0.4°C 25.0°F-3.9°C 73% 9.6 mph E15.4 kmh E 19.0 mph30.6 kmh 30.36 in1028.1 mb 0.00 in0.0 mm 0.00 in0.0 mm 0.00 in0.0 mm
09:44 AM 32.7°F0.4°C 25.0°F-3.9°C 73% 9.4 mph E15.1 kmh E 19.0 mph30.6 kmh 30.36 in1028.1 mb 0.00 in0.0 mm 0.00 in0.0 mm 0.00 in0.0 mm
09:43 AM 32.7°F0.4°C 25.0°F-3.9°C 73% 9.3 mph E15.0 kmh E 19.0 mph30.6 kmh 30.36 in1028.1 mb 0.00 in0.0 mm 0.00 in0.0 mm 0.00 in0.0 mm
09:42 AM 32.7°F0.4°C 25.0°F-3.9°C 73% 9.4 mph E15.1 kmh E 19.0 mph30.6 kmh 30.36 in1028.1 mb 0.00 in0.0 mm 0.00 in0.0 mm 0.00 in0.0 mm
09:41 AM 32.7°F0.4°C 25.0°F-3.9°C 73% 9.4 mph E15.1 kmh E 19.0 mph30.6 kmh 30.36 in1028.1 mb 0.00 in0.0 mm 0.00 in0.0 mm 0.00 in0.0 mm
09:40 AM 32.7°F0.4°C 25.0°F-3.9°C 73% 9.2 mph E14.8 kmh E 19.0 mph30.6 kmh 30.36 in1028.1 mb 0.00 in0.0 mm 0.00 in0.0 mm 0.00 in0.0 mm
09:39 AM 32.7°F0.4°C 25.0°F-3.9°C 73% 9.0 mph E14.5 kmh E 19.0 mph30.6 kmh 30.36 in1028.1 mb 0.00 in0.0 mm 0.00 in0.0 mm 0.00 in0.0 mm
09:38 AM 32.7°F0.4°C 25.0°F-3.9°C 73% 8.7 mph E14.0 kmh E 19.0 mph30.6 kmh 30.36 in1028.1 mb 0.00 in0.0 mm 0.00 in0.0 mm 0.00 in0.0 mm
09:37 AM 32.7°F0.4°C 25.0°F-3.9°C 73% 8.3 mph E13.4 kmh E 16.8 mph27.0 kmh 30.36 in1028.1 mb 0.00 in0.0 mm 0.00 in0.0 mm 0.00 in0.0 mm
09:36 AM 32.7°F0.4°C 25.0°F-3.9°C 73% 8.3 mph E13.4 kmh E 16.8 mph27.0 kmh 30.36 in1028.1 mb 0.00 in0.0 mm 0.00 in0.0 mm 0.00 in0.0 mm
09:35 AM 32.7°F0.4°C 25.0°F-3.9°C 73% 8.7 mph E14.0 kmh E 24.4 mph39.3 kmh 30.36 in1028.1 mb 0.00 in0.0 mm 0.00 in0.0 mm 0.00 in0.0 mm
09:34 AM 32.7°F0.4°C 25.0°F-3.9°C 73% 8.8 mph E14.2 kmh E 24.4 mph39.3 kmh 30.37 in1028.4 mb 0.00 in0.0 mm 0.00 in0.0 mm 0.00 in0.0 mm
09:33 AM 32.7°F0.4°C 25.0°F-3.9°C 73% 8.8 mph E14.2 kmh E 24.4 mph39.3 kmh 30.37 in1028.4 mb 0.00 in0.0 mm 0.00 in0.0 mm 0.00 in0.0 mm
09:32 AM 32.7°F0.4°C 25.0°F-3.9°C 73% 8.6 mph E13.8 kmh E 24.4 mph39.3 kmh 30.36 in1028.1 mb 0.00 in0.0 mm 0.00 in0.0 mm 0.00 in0.0 mm
09:31 AM 32.7°F0.4°C 25.0°F-3.9°C 73% 8.5 mph E13.7 kmh E 24.4 mph39.3 kmh 30.36 in1028.1 mb 0.00 in0.0 mm 0.00 in0.0 mm 0.00 in0.0 mm
09:30 AM 32.7°F0.4°C 25.0°F-3.9°C 73% 8.6 mph ENE13.8 kmh ENE 24.4 mph39.3 kmh 30.36 in1028.1 mb 0.00 in0.0 mm 0.00 in0.0 mm 0.00 in0.0 mm
09:29 AM 32.7°F0.4°C 25.0°F-3.9°C 73% 8.6 mph ENE13.8 kmh ENE 24.4 mph39.3 kmh 30.36 in1028.1 mb 0.00 in0.0 mm 0.00 in0.0 mm 0.00 in0.0 mm
09:28 AM 32.7°F0.4°C 25.0°F-3.9°C 73% 8.2 mph ENE13.2 kmh ENE 24.4 mph39.3 kmh 30.36 in1028.1 mb 0.00 in0.0 mm 0.00 in0.0 mm 0.00 in0.0 mm
09:27 AM 32.7°F0.4°C 25.0°F-3.9°C 73% 8.7 mph E14.0 kmh E 24.4 mph39.3 kmh 30.36 in1028.1 mb 0.00 in0.0 mm 0.00 in0.0 mm 0.00 in0.0 mm
09:26 AM 32.7°F0.4°C 25.0°F-3.9°C 73% 8.8 mph E14.2 kmh E 24.4 mph39.3 kmh 30.36 in1028.1 mb 0.00 in0.0 mm 0.00 in0.0 mm 0.00 in0.0 mm
09:25 AM 32.7°F0.4°C 25.0°F-3.9°C 73% 8.2 mph E13.2 kmh E 19.0 mph30.6 kmh 30.36 in1028.1 mb 0.00 in0.0 mm 0.00 in0.0 mm 0.00 in0.0 mm
09:24 AM 32.7°F0.4°C 25.0°F-3.9°C 73% 8.2 mph E13.2 kmh E 19.0 mph30.6 kmh 30.36 in1028.1 mb 0.00 in0.0 mm 0.00 in0.0 mm 0.00 in0.0 mm
09:23 AM 32.7°F0.4°C 25.0°F-3.9°C 73% 7.9 mph E12.7 kmh E 19.0 mph30.6 kmh 30.36 in1028.1 mb 0.00 in0.0 mm 0.00 in0.0 mm 0.00 in0.0 mm
09:22 AM 32.7°F0.4°C 25.0°F-3.9°C 73% 7.8 mph E12.6 kmh E 19.0 mph30.6 kmh 30.36 in1028.1 mb 0.00 in0.0 mm 0.00 in0.0 mm 0.00 in0.0 mm
09:21 AM 32.7°F0.4°C 25.0°F-3.9°C 73% 7.4 mph E11.9 kmh E 19.0 mph30.6 kmh 30.36 in1028.1 mb 0.00 in0.0 mm 0.00 in0.0 mm 0.00 in0.0 mm
09:20 AM 32.7°F0.4°C 25.0°F-3.9°C 73% 7.0 mph ESE11.3 kmh ESE 19.0 mph30.6 kmh 30.36 in1028.1 mb 0.00 in0.0 mm 0.00 in0.0 mm 0.00 in0.0 mm
09:19 AM 32.7°F0.4°C 25.0°F-3.9°C 73% 6.8 mph ESE10.9 kmh ESE 19.0 mph30.6 kmh 30.35 in1027.8 mb 0.00 in0.0 mm 0.00 in0.0 mm 0.00 in0.0 mm
09:18 AM 32.7°F0.4°C 25.0°F-3.9°C 73% 6.6 mph ESE10.6 kmh ESE 19.0 mph30.6 kmh 30.36 in1028.1 mb 0.00 in0.0 mm 0.00 in0.0 mm 0.00 in0.0 mm
09:17 AM 32.7°F0.4°C 25.0°F-3.9°C 73% 5.9 mph ESE9.5 kmh ESE 19.0 mph30.6 kmh 30.36 in1028.1 mb 0.00 in0.0 mm 0.00 in0.0 mm 0.00 in0.0 mm
09:16 AM 32.7°F0.4°C 25.0°F-3.9°C 73% 5.7 mph E9.2 kmh E 10.7 mph17.2 kmh 30.36 in1028.1 mb 0.00 in0.0 mm 0.00 in0.0 mm 0.00 in0.0 mm
09:15 AM 32.7°F0.4°C 25.0°F-3.9°C 73% 5.5 mph E8.9 kmh E 10.7 mph17.2 kmh 30.35 in1027.8 mb 0.00 in0.0 mm 0.00 in0.0 mm 0.00 in0.0 mm
09:14 AM 32.7°F0.4°C 25.0°F-3.9°C 73% 5.4 mph E8.7 kmh E 10.7 mph17.2 kmh 30.36 in1028.1 mb 0.00 in0.0 mm 0.00 in0.0 mm 0.00 in0.0 mm
09:13 AM 32.7°F0.4°C 25.0°F-3.9°C 73% 5.4 mph E8.7 kmh E 10.7 mph17.2 kmh 30.36 in1028.1 mb 0.00 in0.0 mm 0.00 in0.0 mm 0.00 in0.0 mm
09:12 AM 32.7°F0.4°C 25.0°F-3.9°C 73% 5.6 mph E9.0 kmh E 10.7 mph17.2 kmh 30.36 in1028.1 mb 0.00 in0.0 mm 0.00 in0.0 mm 0.00 in0.0 mm
09:11 AM 32.7°F0.4°C 25.0°F-3.9°C 73% 6.0 mph E9.7 kmh E 10.7 mph17.2 kmh 30.36 in1028.1 mb 0.00 in0.0 mm 0.00 in0.0 mm 0.00 in0.0 mm
09:10 AM 32.7°F0.4°C 25.0°F-3.9°C 73% 6.5 mph E10.5 kmh E 16.8 mph27.0 kmh 30.35 in1027.8 mb 0.00 in0.0 mm 0.00 in0.0 mm 0.00 in0.0 mm
09:09 AM 32.7°F0.4°C 25.0°F-3.9°C 73% 7.0 mph E11.3 kmh E 16.8 mph27.0 kmh 30.36 in1028.1 mb 0.00 in0.0 mm 0.00 in0.0 mm 0.00 in0.0 mm
09:08 AM 32.7°F0.4°C 25.0°F-3.9°C 73% 7.5 mph E12.1 kmh E 16.8 mph27.0 kmh 30.36 in1028.1 mb 0.00 in0.0 mm 0.00 in0.0 mm 0.00 in0.0 mm
09:07 AM 32.7°F0.4°C 25.0°F-3.9°C 73% 7.8 mph E12.6 kmh E 16.8 mph27.0 kmh 30.35 in1027.8 mb 0.00 in0.0 mm 0.00 in0.0 mm 0.00 in0.0 mm
09:06 AM 32.7°F0.4°C 25.0°F-3.9°C 73% 7.8 mph E12.6 kmh E 16.8 mph27.0 kmh 30.36 in1028.1 mb 0.00 in0.0 mm 0.00 in0.0 mm 0.00 in0.0 mm
09:05 AM 32.7°F0.4°C 25.0°F-3.9°C 73% 7.9 mph E12.7 kmh E 16.8 mph27.0 kmh 30.35 in1027.8 mb 0.00 in0.0 mm 0.00 in0.0 mm 0.00 in0.0 mm
09:04 AM 32.7°F0.4°C 25.0°F-3.9°C 73% 8.1 mph E13.0 kmh E 16.8 mph27.0 kmh 30.35 in1027.8 mb 0.00 in0.0 mm 0.00 in0.0 mm 0.00 in0.0 mm
09:03 AM 32.7°F0.4°C 25.0°F-3.9°C 73% 8.5 mph ESE13.7 kmh ESE 16.8 mph27.0 kmh 30.35 in1027.8 mb 0.00 in0.0 mm 0.00 in0.0 mm 0.00 in0.0 mm
09:02 AM 32.7°F0.4°C 25.0°F-3.9°C 73% 8.8 mph E14.2 kmh E 16.8 mph27.0 kmh 30.35 in1027.8 mb 0.00 in0.0 mm 0.00 in0.0 mm 0.00 in0.0 mm
09:01 AM 32.7°F0.4°C 25.0°F-3.9°C 73% 8.7 mph ESE14.0 kmh ESE 16.8 mph27.0 kmh 30.35 in1027.8 mb 0.00 in0.0 mm 0.00 in0.0 mm 0.00 in0.0 mm
09:00 AM 32.7°F0.4°C 25.0°F-3.9°C 73% 8.5 mph E13.7 kmh E 16.8 mph27.0 kmh 30.35 in1027.8 mb 0.00 in0.0 mm 0.00 in0.0 mm 0.00 in0.0 mm
08:59 AM 32.7°F0.4°C 25.0°F-3.9°C 73% 8.1 mph ESE13.0 kmh ESE 14.5 mph23.3 kmh 30.35 in1027.8 mb 0.00 in0.0 mm 0.00 in0.0 mm 0.00 in0.0 mm
08:58 AM 32.7°F0.4°C 25.0°F-3.9°C 73% 7.9 mph ESE12.7 kmh ESE 14.5 mph23.3 kmh 30.35 in1027.8 mb 0.00 in0.0 mm 0.00 in0.0 mm 0.00 in0.0 mm
08:57 AM 32.7°F0.4°C 25.0°F-3.9°C 73% 7.9 mph ESE12.7 kmh ESE 14.5 mph23.3 kmh 30.35 in1027.8 mb 0.00 in0.0 mm 0.00 in0.0 mm 0.00 in0.0 mm
08:56 AM 32.7°F0.4°C 25.0°F-3.9°C 73% 8.0 mph ESE12.9 kmh ESE 14.5 mph23.3 kmh 30.35 in1027.8 mb 0.00 in0.0 mm 0.00 in0.0 mm 0.00 in0.0 mm
08:55 AM 32.7°F0.4°C 25.0°F-3.9°C 73% 8.3 mph ESE13.4 kmh ESE 14.5 mph23.3 kmh 30.36 in1028.1 mb 0.00 in0.0 mm 0.00 in0.0 mm 0.00 in0.0 mm
08:54 AM 32.7°F0.4°C 25.0°F-3.9°C 73% 8.3 mph ESE13.4 kmh ESE 15.2 mph24.5 kmh 30.35 in1027.8 mb 0.00 in0.0 mm 0.00 in0.0 mm 0.00 in0.0 mm
08:53 AM 32.7°F0.4°C 25.0°F-3.9°C 73% 7.9 mph ESE12.7 kmh ESE 15.2 mph24.5 kmh 30.35 in1027.8 mb 0.00 in0.0 mm 0.00 in0.0 mm 0.00 in0.0 mm
08:52 AM 32.7°F0.4°C 25.0°F-3.9°C 73% 7.3 mph ESE11.7 kmh ESE 15.2 mph24.5 kmh 30.35 in1027.8 mb 0.00 in0.0 mm 0.00 in0.0 mm 0.00 in0.0 mm
08:51 AM 32.7°F0.4°C 25.0°F-3.9°C 73% 7.3 mph ESE11.7 kmh ESE 15.2 mph24.5 kmh 30.35 in1027.8 mb 0.00 in0.0 mm 0.00 in0.0 mm 0.00 in0.0 mm
08:50 AM 32.7°F0.4°C 25.0°F-3.9°C 73% 7.4 mph ESE11.9 kmh ESE 15.2 mph24.5 kmh 30.35 in1027.8 mb 0.00 in0.0 mm 0.00 in0.0 mm 0.00 in0.0 mm
08:49 AM 32.7°F0.4°C 25.0°F-3.9°C 73% 7.5 mph ESE12.1 kmh ESE 15.2 mph24.5 kmh 30.36 in1028.1 mb 0.00 in0.0 mm 0.00 in0.0 mm 0.00 in0.0 mm
08:48 AM 32.7°F0.4°C 25.0°F-3.9°C 73% 7.4 mph ESE11.9 kmh ESE 15.2 mph24.5 kmh 30.35 in1027.8 mb 0.00 in0.0 mm 0.00 in0.0 mm 0.00 in0.0 mm
08:47 AM 32.7°F0.4°C 25.0°F-3.9°C 73% 7.2 mph ESE11.6 kmh ESE 15.2 mph24.5 kmh 30.35 in1027.8 mb 0.00 in0.0 mm 0.00 in0.0 mm 0.00 in0.0 mm
08:46 AM 32.2°F0.1°C 24.5°F-4.2°C 73% 7.3 mph E11.7 kmh E 15.2 mph24.5 kmh 30.35 in1027.8 mb 0.00 in0.0 mm 0.00 in0.0 mm 0.00 in0.0 mm
08:45 AM 32.2°F0.1°C 24.5°F-4.2°C 73% 7.0 mph ESE11.3 kmh ESE 15.2 mph24.5 kmh 30.36 in1028.1 mb 0.00 in0.0 mm 0.00 in0.0 mm 0.00 in0.0 mm
08:44 AM 32.2°F0.1°C 24.5°F-4.2°C 73% 6.8 mph E10.9 kmh E 13.6 mph21.9 kmh 30.35 in1027.8 mb 0.00 in0.0 mm 0.00 in0.0 mm 0.00 in0.0 mm
08:43 AM 32.2°F0.1°C 24.5°F-4.2°C 73% 6.8 mph E10.9 kmh E 13.6 mph21.9 kmh 30.35 in1027.8 mb 0.00 in0.0 mm 0.00 in0.0 mm 0.00 in0.0 mm
08:42 AM 32.2°F0.1°C 24.5°F-4.2°C 73% 6.9 mph E11.1 kmh E 13.6 mph21.9 kmh 30.35 in1027.8 mb 0.00 in0.0 mm 0.00 in0.0 mm 0.00 in0.0 mm
08:41 AM 32.2°F0.1°C 24.5°F-4.2°C 73% 7.0 mph E11.3 kmh E 13.6 mph21.9 kmh 30.35 in1027.8 mb 0.00 in0.0 mm 0.00 in0.0 mm 0.00 in0.0 mm
08:40 AM 32.2°F0.1°C 24.5°F-4.2°C 73% 7.0 mph ESE11.3 kmh ESE 13.6 mph21.9 kmh 30.35 in1027.8 mb 0.00 in0.0 mm 0.00 in0.0 mm 0.00 in0.0 mm
08:39 AM 32.2°F0.1°C 24.5°F-4.2°C 73% 7.1 mph ESE11.4 kmh ESE 13.6 mph21.9 kmh 30.35 in1027.8 mb 0.00 in0.0 mm 0.00 in0.0 mm 0.00 in0.0 mm
08:38 AM 32.2°F0.1°C 24.5°F-4.2°C 73% 7.3 mph ESE11.7 kmh ESE 15.9 mph25.6 kmh 30.35 in1027.8 mb 0.00 in0.0 mm 0.00 in0.0 mm 0.00 in0.0 mm
08:37 AM 32.2°F0.1°C 24.5°F-4.2°C 73% 7.4 mph ESE11.9 kmh ESE 15.9 mph25.6 kmh 30.35 in1027.8 mb 0.00 in0.0 mm 0.00 in0.0 mm 0.00 in0.0 mm
08:36 AM 32.2°F0.1°C 24.5°F-4.2°C 73% 7.0 mph ESE11.3 kmh ESE 15.9 mph25.6 kmh 30.35 in1027.8 mb 0.00 in0.0 mm 0.00 in0.0 mm 0.00 in0.0 mm
08:35 AM 32.2°F0.1°C 24.5°F-4.2°C 73% 7.2 mph ESE11.6 kmh ESE 15.9 mph25.6 kmh 30.35 in1027.8 mb 0.00 in0.0 mm 0.00 in0.0 mm 0.00 in0.0 mm
08:34 AM 32.2°F0.1°C 24.5°F-4.2°C 73% 7.2 mph ESE11.6 kmh ESE 15.9 mph25.6 kmh 30.35 in1027.8 mb 0.00 in0.0 mm 0.00 in0.0 mm 0.00 in0.0 mm
08:33 AM 32.2°F0.1°C 24.5°F-4.2°C 73% 7.1 mph ESE11.4 kmh ESE 15.9 mph25.6 kmh 30.35 in1027.8 mb 0.00 in0.0 mm 0.00 in0.0 mm 0.00 in0.0 mm
08:32 AM 32.2°F0.1°C 24.5°F-4.2°C 73% 6.9 mph SE11.1 kmh SE 15.9 mph25.6 kmh 30.35 in1027.8 mb 0.00 in0.0 mm 0.00 in0.0 mm 0.00 in0.0 mm
08:31 AM 32.2°F0.1°C 24.5°F-4.2°C 73% 7.1 mph SE11.4 kmh SE 16.8 mph27.0 kmh 30.35 in1027.8 mb 0.00 in0.0 mm 0.00 in0.0 mm 0.00 in0.0 mm
08:30 AM 32.2°F0.1°C 24.5°F-4.2°C 73% 7.2 mph ESE11.6 kmh ESE 16.8 mph27.0 kmh 30.35 in1027.8 mb 0.00 in0.0 mm 0.00 in0.0 mm 0.00 in0.0 mm
08:29 AM 32.2°F0.1°C 24.5°F-4.2°C 73% 7.2 mph ESE11.6 kmh ESE 16.8 mph27.0 kmh 30.35 in1027.8 mb 0.00 in0.0 mm 0.00 in0.0 mm 0.00 in0.0 mm
08:28 AM 32.2°F0.1°C 24.5°F-4.2°C 73% 7.3 mph ESE11.7 kmh ESE 16.8 mph27.0 kmh 30.35 in1027.8 mb 0.00 in0.0 mm 0.00 in0.0 mm 0.00 in0.0 mm
08:27 AM 32.2°F0.1°C 24.5°F-4.2°C 73% 6.8 mph ESE10.9 kmh ESE 16.8 mph27.0 kmh 30.35 in1027.8 mb 0.00 in0.0 mm 0.00 in0.0 mm 0.00 in0.0 mm
08:26 AM 32.2°F0.1°C 24.5°F-4.2°C 73% 6.7 mph ESE10.8 kmh ESE 16.8 mph27.0 kmh 30.35 in1027.8 mb 0.00 in0.0 mm 0.00 in0.0 mm 0.00 in0.0 mm
08:25 AM 32.2°F0.1°C 24.5°F-4.2°C 73% 6.5 mph ESE10.5 kmh ESE 16.8 mph27.0 kmh 30.35 in1027.8 mb 0.00 in0.0 mm 0.00 in0.0 mm 0.00 in0.0 mm
08:24 AM 32.2°F0.1°C 24.5°F-4.2°C 73% 6.3 mph ESE10.1 kmh ESE 16.8 mph27.0 kmh 30.35 in1027.8 mb 0.00 in0.0 mm 0.00 in0.0 mm 0.00 in0.0 mm
08:23 AM 32.2°F0.1°C 24.5°F-4.2°C 73% 6.1 mph E9.8 kmh E 16.8 mph27.0 kmh 30.35 in1027.8 mb 0.00 in0.0 mm 0.00 in0.0 mm 0.00 in0.0 mm
08:22 AM 32.2°F0.1°C 24.5°F-4.2°C 73% 6.1 mph E9.8 kmh E 16.8 mph27.0 kmh 30.35 in1027.8 mb 0.00 in0.0 mm 0.00 in0.0 mm 0.00 in0.0 mm
08:21 AM 32.2°F0.1°C 24.5°F-4.2°C 73% 5.6 mph E9.0 kmh E 14.5 mph23.3 kmh 30.35 in1027.8 mb 0.00 in0.0 mm 0.00 in0.0 mm 0.00 in0.0 mm
08:20 AM 32.2°F0.1°C 24.5°F-4.2°C 73% 5.0 mph E8.0 kmh E 14.5 mph23.3 kmh 30.35 in1027.8 mb 0.00 in0.0 mm 0.00 in0.0 mm 0.00 in0.0 mm
08:19 AM 32.2°F0.1°C 24.5°F-4.2°C 73% 4.6 mph E7.4 kmh E 14.5 mph23.3 kmh 30.34 in1027.4 mb 0.00 in0.0 mm 0.00 in0.0 mm 0.00 in0.0 mm
08:18 AM 32.2°F0.1°C 24.5°F-4.2°C 73% 4.2 mph E6.8 kmh E 13.0 mph20.9 kmh 30.35 in1027.8 mb 0.00 in0.0 mm 0.00 in0.0 mm 0.00 in0.0 mm
08:17 AM 32.2°F0.1°C 24.5°F-4.2°C 73% 4.4 mph E7.1 kmh E 10.7 mph17.2 kmh 30.35 in1027.8 mb 0.00 in0.0 mm 0.00 in0.0 mm 0.00 in0.0 mm
08:16 AM 32.2°F0.1°C 24.2°F-4.3°C 72% 4.8 mph E7.7 kmh E 11.4 mph18.3 kmh 30.34 in1027.4 mb 0.00 in0.0 mm 0.00 in0.0 mm 0.00 in0.0 mm
08:15 AM 32.2°F0.1°C 24.2°F-4.3°C 72% 4.9 mph E7.9 kmh E 11.4 mph18.3 kmh 30.34 in1027.4 mb 0.00 in0.0 mm 0.00 in0.0 mm 0.00 in0.0 mm
08:14 AM 32.2°F0.1°C 24.2°F-4.3°C 72% 5.0 mph E8.0 kmh E 11.4 mph18.3 kmh 30.35 in1027.8 mb 0.00 in0.0 mm 0.00 in0.0 mm 0.00 in0.0 mm
08:13 AM 32.2°F0.1°C 24.2°F-4.3°C 72% 5.2 mph E8.4 kmh E 11.4 mph18.3 kmh 30.34 in1027.4 mb 0.00 in0.0 mm 0.00 in0.0 mm 0.00 in0.0 mm
08:12 AM 32.2°F0.1°C 24.2°F-4.3°C 72% 5.2 mph E8.4 kmh E 11.4 mph18.3 kmh 30.34 in1027.4 mb 0.00 in0.0 mm 0.00 in0.0 mm 0.00 in0.0 mm
08:11 AM 32.2°F0.1°C 24.2°F-4.3°C 72% 5.3 mph E8.5 kmh E 11.4 mph18.3 kmh 30.35 in1027.8 mb 0.00 in0.0 mm 0.00 in0.0 mm 0.00 in0.0 mm
08:10 AM 32.2°F0.1°C 24.2°F-4.3°C 72% 5.6 mph E9.0 kmh E 11.4 mph18.3 kmh 30.34 in1027.4 mb 0.00 in0.0 mm 0.00 in0.0 mm 0.00 in0.0 mm
08:09 AM 32.2°F0.1°C 24.2°F-4.3°C 72% 5.8 mph E9.3 kmh E 11.4 mph18.3 kmh 30.35 in1027.8 mb 0.00 in0.0 mm 0.00 in0.0 mm 0.00 in0.0 mm
08:08 AM 32.2°F0.1°C 24.2°F-4.3°C 72% 6.0 mph E9.7 kmh E 11.4 mph18.3 kmh 30.35 in1027.8 mb 0.00 in0.0 mm 0.00 in0.0 mm 0.00 in0.0 mm
08:07 AM 32.2°F0.1°C 24.2°F-4.3°C 72% 5.9 mph E9.5 kmh E 11.4 mph18.3 kmh 30.34 in1027.4 mb 0.00 in0.0 mm 0.00 in0.0 mm 0.00 in0.0 mm
08:06 AM 32.2°F0.1°C 24.5°F-4.2°C 73% 5.6 mph E9.0 kmh E 11.4 mph18.3 kmh 30.34 in1027.4 mb 0.00 in0.0 mm 0.00 in0.0 mm 0.00 in0.0 mm
08:05 AM 32.2°F0.1°C 24.2°F-4.3°C 72% 5.3 mph E8.5 kmh E 9.2 mph14.8 kmh 30.34 in1027.4 mb 0.00 in0.0 mm 0.00 in0.0 mm 0.00 in0.0 mm
08:04 AM 32.2°F0.1°C 24.2°F-4.3°C 72% 5.4 mph E8.7 kmh E 9.2 mph14.8 kmh 30.34 in1027.4 mb 0.00 in0.0 mm 0.00 in0.0 mm 0.00 in0.0 mm
08:03 AM 32.2°F0.1°C 24.2°F-4.3°C 72% 5.8 mph E9.3 kmh E 13.0 mph20.9 kmh 30.34 in1027.4 mb 0.00 in0.0 mm 0.00 in0.0 mm 0.00 in0.0 mm
08:02 AM 32.2°F0.1°C 24.2°F-4.3°C 72% 5.7 mph E9.2 kmh E 13.0 mph20.9 kmh 30.34 in1027.4 mb 0.00 in0.0 mm 0.00 in0.0 mm 0.00 in0.0 mm
08:01 AM 32.2°F0.1°C 24.2°F-4.3°C 72% 5.7 mph E9.2 kmh E 13.0 mph20.9 kmh 30.34 in1027.4 mb 0.00 in0.0 mm 0.00 in0.0 mm 0.00 in0.0 mm
08:00 AM 32.2°F0.1°C 24.2°F-4.3°C 72% 5.8 mph E9.3 kmh E 13.0 mph20.9 kmh 30.34 in1027.4 mb 0.00 in0.0 mm 0.00 in0.0 mm 0.00 in0.0 mm
07:59 AM 32.2°F0.1°C 24.2°F-4.3°C 72% 5.6 mph E9.0 kmh E 13.0 mph20.9 kmh 30.34 in1027.4 mb 0.00 in0.0 mm 0.00 in0.0 mm 0.00 in0.0 mm
07:58 AM 32.2°F0.1°C 24.2°F-4.3°C 72% 5.5 mph E8.9 kmh E 13.0 mph20.9 kmh 30.33 in1027.1 mb 0.00 in0.0 mm 0.00 in0.0 mm 0.00 in0.0 mm
07:57 AM 32.2°F0.1°C 24.2°F-4.3°C 72% 5.6 mph E9.0 kmh E 13.0 mph20.9 kmh 30.34 in1027.4 mb 0.00 in0.0 mm 0.00 in0.0 mm 0.00 in0.0 mm
07:56 AM 32.2°F0.1°C 24.2°F-4.3°C 72% 6.1 mph E9.8 kmh E 13.0 mph20.9 kmh 30.33 in1027.1 mb 0.00 in0.0 mm 0.00 in0.0 mm 0.00 in0.0 mm
07:55 AM 32.2°F0.1°C 24.2°F-4.3°C 72% 6.3 mph E10.1 kmh E 13.0 mph20.9 kmh 30.34 in1027.4 mb 0.00 in0.0 mm 0.00 in0.0 mm 0.00 in0.0 mm
07:54 AM 32.2°F0.1°C 24.2°F-4.3°C 72% 6.1 mph E9.8 kmh E 13.0 mph20.9 kmh 30.33 in1027.1 mb 0.00 in0.0 mm 0.00 in0.0 mm 0.00 in0.0 mm
07:53 AM 32.2°F0.1°C 24.2°F-4.3°C 72% 5.7 mph ESE9.2 kmh ESE 12.1 mph19.5 kmh 30.34 in1027.4 mb 0.00 in0.0 mm 0.00 in0.0 mm 0.00 in0.0 mm
07:52 AM 32.2°F0.1°C 24.2°F-4.3°C 72% 5.9 mph ESE9.5 kmh ESE 12.1 mph19.5 kmh 30.33 in1027.1 mb 0.00 in0.0 mm 0.00 in0.0 mm 0.00 in0.0 mm
07:51 AM 32.2°F0.1°C 24.2°F-4.3°C 72% 6.4 mph E10.3 kmh E 12.1 mph19.5 kmh 30.33 in1027.1 mb 0.00 in0.0 mm 0.00 in0.0 mm 0.00 in0.0 mm
07:50 AM 32.2°F0.1°C 24.2°F-4.3°C 72% 6.4 mph E10.3 kmh E 12.1 mph19.5 kmh 30.33 in1027.1 mb 0.00 in0.0 mm 0.00 in0.0 mm 0.00 in0.0 mm
07:49 AM 32.2°F0.1°C 24.2°F-4.3°C 72% 6.4 mph E10.3 kmh E 12.1 mph19.5 kmh 30.33 in1027.1 mb 0.00 in0.0 mm 0.00 in0.0 mm 0.00 in0.0 mm
07:48 AM 32.2°F0.1°C 24.2°F-4.3°C 72% 6.5 mph E10.5 kmh E 12.1 mph19.5 kmh 30.33 in1027.1 mb 0.00 in0.0 mm 0.00 in0.0 mm 0.00 in0.0 mm
07:47 AM 32.2°F0.1°C 24.2°F-4.3°C 72% 6.5 mph E10.5 kmh E 12.1 mph19.5 kmh 30.33 in1027.1 mb 0.00 in0.0 mm 0.00 in0.0 mm 0.00 in0.0 mm
07:46 AM 32.2°F0.1°C 24.2°F-4.3°C 72% 6.1 mph E9.8 kmh E 12.1 mph19.5 kmh 30.33 in1027.1 mb 0.00 in0.0 mm 0.00 in0.0 mm 0.00 in0.0 mm
07:45 AM 32.2°F0.1°C 24.2°F-4.3°C 72% 5.9 mph E9.5 kmh E 12.1 mph19.5 kmh 30.33 in1027.1 mb 0.00 in0.0 mm 0.00 in0.0 mm 0.00 in0.0 mm
07:44 AM 32.2°F0.1°C 24.2°F-4.3°C 72% 5.9 mph E9.5 kmh E 12.1 mph19.5 kmh 30.33 in1027.1 mb 0.00 in0.0 mm 0.00 in0.0 mm 0.00 in0.0 mm
07:43 AM 32.2°F0.1°C 24.2°F-4.3°C 72% 6.1 mph E9.8 kmh E 12.1 mph19.5 kmh 30.33 in1027.1 mb 0.00 in0.0 mm 0.00 in0.0 mm 0.00 in0.0 mm
07:42 AM 32.2°F0.1°C 24.2°F-4.3°C 72% 5.8 mph E9.3 kmh E 12.1 mph19.5 kmh 30.33 in1027.1 mb 0.00 in0.0 mm 0.00 in0.0 mm 0.00 in0.0 mm
07:41 AM 32.2°F0.1°C 24.2°F-4.3°C 72% 5.5 mph E8.9 kmh E 10.7 mph17.2 kmh 30.33 in1027.1 mb 0.00 in0.0 mm 0.00 in0.0 mm 0.00 in0.0 mm
07:40 AM 32.2°F0.1°C 24.2°F-4.3°C 72% 5.6 mph E9.0 kmh E 10.7 mph17.2 kmh 30.33 in1027.1 mb 0.00 in0.0 mm 0.00 in0.0 mm 0.00 in0.0 mm
07:39 AM 32.2°F0.1°C 24.2°F-4.3°C 72% 5.8 mph E9.3 kmh E 9.8 mph15.8 kmh 30.33 in1027.1 mb 0.00 in0.0 mm 0.00 in0.0 mm 0.00 in0.0 mm
07:38 AM 32.2°F0.1°C 24.2°F-4.3°C 72% 5.8 mph E9.3 kmh E 9.8 mph15.8 kmh 30.33 in1027.1 mb 0.00 in0.0 mm 0.00 in0.0 mm 0.00 in0.0 mm
07:37 AM 32.2°F0.1°C 24.2°F-4.3°C 72% 5.7 mph E9.2 kmh E 8.3 mph13.4 kmh 30.33 in1027.1 mb 0.00 in0.0 mm 0.00 in0.0 mm 0.00 in0.0 mm
07:36 AM 32.2°F0.1°C 24.2°F-4.3°C 72% 6.0 mph E9.7 kmh E 11.4 mph18.3 kmh 30.33 in1027.1 mb 0.00 in0.0 mm 0.00 in0.0 mm 0.00 in0.0 mm
07:35 AM 32.2°F0.1°C 24.2°F-4.3°C 72% 6.1 mph E9.8 kmh E 11.4 mph18.3 kmh 30.32 in1026.8 mb 0.00 in0.0 mm 0.00 in0.0 mm 0.00 in0.0 mm
07:34 AM 32.2°F0.1°C 24.2°F-4.3°C 72% 6.1 mph E9.8 kmh E 11.4 mph18.3 kmh 30.32 in1026.8 mb 0.00 in0.0 mm 0.00 in0.0 mm 0.00 in0.0 mm
07:33 AM 32.2°F0.1°C 24.2°F-4.3°C 72% 6.1 mph ESE9.8 kmh ESE 11.4 mph18.3 kmh 30.33 in1027.1 mb 0.00 in0.0 mm 0.00 in0.0 mm 0.00 in0.0 mm
07:32 AM 32.2°F0.1°C 24.2°F-4.3°C 72% 6.5 mph E10.5 kmh E 13.0 mph20.9 kmh 30.32 in1026.8 mb 0.00 in0.0 mm 0.00 in0.0 mm 0.00 in0.0 mm
07:31 AM 32.2°F0.1°C 24.2°F-4.3°C 72% 6.7 mph E10.8 kmh E 13.0 mph20.9 kmh 30.32 in1026.8 mb 0.00 in0.0 mm 0.00 in0.0 mm 0.00 in0.0 mm
07:30 AM 32.2°F0.1°C 24.2°F-4.3°C 72% 6.8 mph ESE10.9 kmh ESE 13.0 mph20.9 kmh 30.32 in1026.8 mb 0.00 in0.0 mm 0.00 in0.0 mm 0.00 in0.0 mm
07:29 AM 32.2°F0.1°C 24.2°F-4.3°C 72% 6.7 mph ESE10.8 kmh ESE 13.0 mph20.9 kmh 30.33 in1027.1 mb 0.00 in0.0 mm 0.00 in0.0 mm 0.00 in0.0 mm
07:28 AM 32.2°F0.1°C 24.2°F-4.3°C 72% 6.7 mph ESE10.8 kmh ESE 13.0 mph20.9 kmh 30.33 in1027.1 mb 0.00 in0.0 mm 0.00 in0.0 mm 0.00 in0.0 mm
07:27 AM 32.2°F0.1°C 24.2°F-4.3°C 72% 6.6 mph ESE10.6 kmh ESE 13.0 mph20.9 kmh 30.32 in1026.8 mb 0.00 in0.0 mm 0.00 in0.0 mm 0.00 in0.0 mm
07:26 AM 32.2°F0.1°C 24.2°F-4.3°C 72% 6.5 mph ESE10.5 kmh ESE 13.0 mph20.9 kmh 30.32 in1026.8 mb 0.00 in0.0 mm 0.00 in0.0 mm 0.00 in0.0 mm
07:25 AM 32.2°F0.1°C 24.2°F-4.3°C 72% 6.6 mph E10.6 kmh E 13.0 mph20.9 kmh 30.33 in1027.1 mb 0.00 in0.0 mm 0.00 in0.0 mm 0.00 in0.0 mm
07:24 AM 32.2°F0.1°C 24.2°F-4.3°C 72% 7.0 mph E11.3 kmh E 13.0 mph20.9 kmh 30.32 in1026.8 mb 0.00 in0.0 mm 0.00 in0.0 mm 0.00 in0.0 mm
07:23 AM 32.2°F0.1°C 24.2°F-4.3°C 72% 7.4 mph E11.9 kmh E 13.0 mph20.9 kmh 30.32 in1026.8 mb 0.00 in0.0 mm 0.00 in0.0 mm 0.00 in0.0 mm
07:22 AM 32.2°F0.1°C 24.2°F-4.3°C 72% 7.3 mph E11.7 kmh E 13.0 mph20.9 kmh 30.32 in1026.8 mb 0.00 in0.0 mm 0.00 in0.0 mm 0.00 in0.0 mm
07:21 AM 32.2°F0.1°C 24.2°F-4.3°C 72% 7.2 mph E11.6 kmh E 13.0 mph20.9 kmh 30.32 in1026.8 mb 0.00 in0.0 mm 0.00 in0.0 mm 0.00 in0.0 mm
07:20 AM 32.2°F0.1°C 24.2°F-4.3°C 72% 7.4 mph E11.9 kmh E 13.6 mph21.9 kmh 30.32 in1026.8 mb 0.00 in0.0 mm 0.00 in0.0 mm 0.00 in0.0 mm
07:19 AM 32.2°F0.1°C 24.2°F-4.3°C 72% 7.5 mph E12.1 kmh E 13.6 mph21.9 kmh 30.32 in1026.8 mb 0.00 in0.0 mm 0.00 in0.0 mm 0.00 in0.0 mm
07:18 AM 32.2°F0.1°C 24.2°F-4.3°C 72% 7.7 mph E12.4 kmh E 13.6 mph21.9 kmh 30.32 in1026.8 mb 0.00 in0.0 mm 0.00 in0.0 mm 0.00 in0.0 mm
07:17 AM 32.2°F0.1°C 24.2°F-4.3°C 72% 8.0 mph E12.9 kmh E 15.2 mph24.5 kmh 30.32 in1026.8 mb 0.00 in0.0 mm 0.00 in0.0 mm 0.00 in0.0 mm
07:16 AM 32.2°F0.1°C 24.2°F-4.3°C 72% 8.3 mph ESE13.4 kmh ESE 15.2 mph24.5 kmh 30.32 in1026.8 mb 0.00 in0.0 mm 0.00 in0.0 mm 0.00 in0.0 mm
07:15 AM 32.2°F0.1°C 24.2°F-4.3°C 72% 8.4 mph ESE13.5 kmh ESE 15.2 mph24.5 kmh 30.32 in1026.8 mb 0.00 in0.0 mm 0.00 in0.0 mm 0.00 in0.0 mm
07:14 AM 32.2°F0.1°C 24.2°F-4.3°C 72% 8.1 mph ESE13.0 kmh ESE 15.2 mph24.5 kmh 30.32 in1026.8 mb 0.00 in0.0 mm 0.00 in0.0 mm 0.00 in0.0 mm
07:13 AM 32.2°F0.1°C 24.2°F-4.3°C 72% 7.8 mph ESE12.6 kmh ESE 15.2 mph24.5 kmh 30.32 in1026.8 mb 0.00 in0.0 mm 0.00 in0.0 mm 0.00 in0.0 mm
07:12 AM 32.2°F0.1°C 24.2°F-4.3°C 72% 7.8 mph ESE12.6 kmh ESE 15.2 mph24.5 kmh 30.32 in1026.8 mb 0.00 in0.0 mm 0.00 in0.0 mm 0.00 in0.0 mm
07:11 AM 32.2°F0.1°C 24.2°F-4.3°C 72% 7.7 mph ESE12.4 kmh ESE 15.2 mph24.5 kmh 30.32 in1026.8 mb 0.00 in0.0 mm 0.00 in0.0 mm 0.00 in0.0 mm
07:10 AM 32.2°F0.1°C 24.2°F-4.3°C 72% 7.4 mph ESE11.9 kmh ESE 15.2 mph24.5 kmh 30.32 in1026.8 mb 0.00 in0.0 mm 0.00 in0.0 mm 0.00 in0.0 mm
07:09 AM 32.2°F0.1°C 24.2°F-4.3°C 72% 7.5 mph ESE12.1 kmh ESE 15.2 mph24.5 kmh 30.32 in1026.8 mb 0.00 in0.0 mm 0.00 in0.0 mm 0.00 in0.0 mm
07:08 AM 32.2°F0.1°C 24.2°F-4.3°C 72% 7.8 mph ESE12.6 kmh ESE 15.2 mph24.5 kmh 30.32 in1026.8 mb 0.00 in0.0 mm 0.00 in0.0 mm 0.00 in0.0 mm
07:07 AM 32.2°F0.1°C 24.2°F-4.3°C 72% 7.8 mph ESE12.6 kmh ESE 15.2 mph24.5 kmh 30.32 in1026.8 mb 0.00 in0.0 mm 0.00 in0.0 mm 0.00 in0.0 mm
07:06 AM 32.2°F0.1°C 24.2°F-4.3°C 72% 7.8 mph E12.6 kmh E 13.6 mph21.9 kmh 30.32 in1026.8 mb 0.00 in0.0 mm 0.00 in0.0 mm 0.00 in0.0 mm
07:05 AM 32.2°F0.1°C 24.2°F-4.3°C 72% 7.4 mph E11.9 kmh E 13.6 mph21.9 kmh 30.32 in1026.8 mb 0.00 in0.0 mm 0.00 in0.0 mm 0.00 in0.0 mm
07:04 AM 32.2°F0.1°C 24.2°F-4.3°C 72% 7.4 mph E11.9 kmh E 13.6 mph21.9 kmh 30.32 in1026.8 mb 0.00 in0.0 mm 0.00 in0.0 mm 0.00 in0.0 mm
07:03 AM 32.2°F0.1°C 24.2°F-4.3°C 72% 7.4 mph E11.9 kmh E 13.6 mph21.9 kmh 30.32 in1026.8 mb 0.00 in0.0 mm 0.00 in0.0 mm 0.00 in0.0 mm
07:02 AM 32.2°F0.1°C 24.2°F-4.3°C 72% 7.5 mph E12.1 kmh E 13.6 mph21.9 kmh 30.32 in1026.8 mb 0.00 in0.0 mm 0.00 in0.0 mm 0.00 in0.0 mm
07:01 AM 32.2°F0.1°C 24.2°F-4.3°C 72% 7.5 mph E12.1 kmh E 13.6 mph21.9 kmh 30.32 in1026.8 mb 0.00 in0.0 mm 0.00 in0.0 mm 0.00 in0.0 mm
07:00 AM 32.2°F0.1°C 24.2°F-4.3°C 72% 7.6 mph E12.2 kmh E 13.6 mph21.9 kmh 30.32 in1026.8 mb 0.00 in0.0 mm 0.00 in0.0 mm 0.00 in0.0 mm
06:59 AM 32.2°F0.1°C 24.2°F-4.3°C 72% 7.2 mph E11.6 kmh E 13.6 mph21.9 kmh 30.32 in1026.8 mb 0.00 in0.0 mm 0.00 in0.0 mm 0.00 in0.0 mm
06:58 AM 32.2°F0.1°C 24.2°F-4.3°C 72% 7.1 mph E11.4 kmh E 13.6 mph21.9 kmh 30.32 in1026.8 mb 0.00 in0.0 mm 0.00 in0.0 mm 0.00 in0.0 mm
06:57 AM 32.2°F0.1°C 24.2°F-4.3°C 72% 6.6 mph E10.6 kmh E 13.6 mph21.9 kmh 30.32 in1026.8 mb 0.00 in0.0 mm 0.00 in0.0 mm 0.00 in0.0 mm
06:56 AM 32.2°F0.1°C 24.2°F-4.3°C 72% 6.4 mph E10.3 kmh E 13.6 mph21.9 kmh 30.32 in1026.8 mb 0.00 in0.0 mm 0.00 in0.0 mm 0.00 in0.0 mm
06:55 AM 32.2°F0.1°C 24.2°F-4.3°C 72% 6.7 mph ESE10.8 kmh ESE 13.6 mph21.9 kmh 30.32 in1026.8 mb 0.00 in0.0 mm 0.00 in0.0 mm 0.00 in0.0 mm
06:54 AM 32.2°F0.1°C 24.2°F-4.3°C 72% 6.9 mph ESE11.1 kmh ESE 13.6 mph21.9 kmh 30.33 in1027.1 mb 0.00 in0.0 mm 0.00 in0.0 mm 0.00 in0.0 mm
06:53 AM 32.2°F0.1°C 24.2°F-4.3°C 72% 6.8 mph ESE10.9 kmh ESE 13.6 mph21.9 kmh 30.32 in1026.8 mb 0.00 in0.0 mm 0.00 in0.0 mm 0.00 in0.0 mm
06:52 AM 32.2°F0.1°C 24.2°F-4.3°C 72% 6.7 mph ESE10.8 kmh ESE 13.6 mph21.9 kmh 30.32 in1026.8 mb 0.00 in0.0 mm 0.00 in0.0 mm 0.00 in0.0 mm
06:51 AM 32.2°F0.1°C 24.2°F-4.3°C 72% 6.7 mph ESE10.8 kmh ESE 13.6 mph21.9 kmh 30.32 in1026.8 mb 0.00 in0.0 mm 0.00 in0.0 mm 0.00 in0.0 mm
06:50 AM 32.2°F0.1°C 24.2°F-4.3°C 72% 6.7 mph E10.8 kmh E 13.6 mph21.9 kmh 30.32 in1026.8 mb 0.00 in0.0 mm 0.00 in0.0 mm 0.00 in0.0 mm
06:49 AM 32.2°F0.1°C 24.2°F-4.3°C 72% 6.9 mph E11.1 kmh E 13.6 mph21.9 kmh 30.32 in1026.8 mb 0.00 in0.0 mm 0.00 in0.0 mm 0.00 in0.0 mm
06:48 AM 32.2°F0.1°C 24.2°F-4.3°C 72% 6.6 mph E10.6 kmh E 13.6 mph21.9 kmh 30.31 in1026.4 mb 0.00 in0.0 mm 0.00 in0.0 mm 0.00 in0.0 mm
06:47 AM 32.2°F0.1°C 24.2°F-4.3°C 72% 7.0 mph E11.3 kmh E 16.8 mph27.0 kmh 30.32 in1026.8 mb 0.00 in0.0 mm 0.00 in0.0 mm 0.00 in0.0 mm
06:46 AM 32.2°F0.1°C 24.2°F-4.3°C 72% 7.0 mph ESE11.3 kmh ESE 16.8 mph27.0 kmh 30.32 in1026.8 mb 0.00 in0.0 mm 0.00 in0.0 mm 0.00 in0.0 mm
06:45 AM 32.2°F0.1°C 24.2°F-4.3°C 72% 6.8 mph ESE10.9 kmh ESE 16.8 mph27.0 kmh 30.32 in1026.8 mb 0.00 in0.0 mm 0.00 in0.0 mm 0.00 in0.0 mm
06:44 AM 32.2°F0.1°C 24.2°F-4.3°C 72% 6.6 mph ESE10.6 kmh ESE 16.8 mph27.0 kmh 30.32 in1026.8 mb 0.00 in0.0 mm 0.00 in0.0 mm 0.00 in0.0 mm
06:43 AM 32.2°F0.1°C 24.2°F-4.3°C 72% 6.9 mph ESE11.1 kmh ESE 16.8 mph27.0 kmh 30.32 in1026.8 mb 0.00 in0.0 mm 0.00 in0.0 mm 0.00 in0.0 mm
06:42 AM 32.2°F0.1°C 24.2°F-4.3°C 72% 7.0 mph ESE11.3 kmh ESE 16.8 mph27.0 kmh 30.31 in1026.4 mb 0.00 in0.0 mm 0.00 in0.0 mm 0.00 in0.0 mm
06:41 AM 32.2°F0.1°C 24.2°F-4.3°C 72% 7.0 mph SE11.3 kmh SE 16.8 mph27.0 kmh 30.32 in1026.8 mb 0.00 in0.0 mm 0.00 in0.0 mm 0.00 in0.0 mm
06:40 AM 32.2°F0.1°C 24.2°F-4.3°C 72% 7.0 mph SE11.3 kmh SE 16.8 mph27.0 kmh 30.31 in1026.4 mb 0.00 in0.0 mm 0.00 in0.0 mm 0.00 in0.0 mm
06:39 AM 32.2°F0.1°C 24.2°F-4.3°C 72% 6.9 mph SE11.1 kmh SE 16.8 mph27.0 kmh 30.32 in1026.8 mb 0.00 in0.0 mm 0.00 in0.0 mm 0.00 in0.0 mm
06:38 AM 32.2°F0.1°C 24.2°F-4.3°C 72% 7.0 mph SE11.3 kmh SE 16.8 mph27.0 kmh 30.32 in1026.8 mb 0.00 in0.0 mm 0.00 in0.0 mm 0.00 in0.0 mm
06:37 AM 32.2°F0.1°C 24.2°F-4.3°C 72% 6.6 mph SE10.6 kmh SE 13.0 mph20.9 kmh 30.31 in1026.4 mb 0.00 in0.0 mm 0.00 in0.0 mm 0.00 in0.0 mm
06:36 AM 32.2°F0.1°C 24.2°F-4.3°C 72% 6.5 mph ESE10.5 kmh ESE 13.0 mph20.9 kmh 30.31 in1026.4 mb 0.00 in0.0 mm 0.00 in0.0 mm 0.00 in0.0 mm
06:35 AM 32.2°F0.1°C 24.2°F-4.3°C 72% 6.7 mph ESE10.8 kmh ESE 13.0 mph20.9 kmh 30.31 in1026.4 mb 0.00 in0.0 mm 0.00 in0.0 mm 0.00 in0.0 mm
06:34 AM 32.2°F0.1°C 24.2°F-4.3°C 72% 6.7 mph ESE10.8 kmh ESE 13.0 mph20.9 kmh 30.31 in1026.4 mb 0.00 in0.0 mm 0.00 in0.0 mm 0.00 in0.0 mm
06:33 AM 32.2°F0.1°C 24.2°F-4.3°C 72% 6.4 mph ESE10.3 kmh ESE 13.0 mph20.9 kmh 30.31 in1026.4 mb 0.00 in0.0 mm 0.00 in0.0 mm 0.00 in0.0 mm
06:32 AM 32.2°F0.1°C 24.2°F-4.3°C 72% 6.3 mph ESE10.1 kmh ESE 13.0 mph20.9 kmh 30.31 in1026.4 mb 0.00 in0.0 mm 0.00 in0.0 mm 0.00 in0.0 mm
06:31 AM 32.2°F0.1°C 24.2°F-4.3°C 72% 6.5 mph ESE10.5 kmh ESE 15.2 mph24.5 kmh 30.31 in1026.4 mb 0.00 in0.0 mm 0.00 in0.0 mm 0.00 in0.0 mm
06:30 AM 32.2°F0.1°C 24.2°F-4.3°C 72% 6.7 mph ESE10.8 kmh ESE 15.2 mph24.5 kmh 30.32 in1026.8 mb 0.00 in0.0 mm 0.00 in0.0 mm 0.00 in0.0 mm
06:29 AM 32.2°F0.1°C 24.2°F-4.3°C 72% 6.9 mph ESE11.1 kmh ESE 15.2 mph24.5 kmh 30.31 in1026.4 mb 0.00 in0.0 mm 0.00 in0.0 mm 0.00 in0.0 mm
06:28 AM 32.2°F0.1°C 24.2°F-4.3°C 72% 7.3 mph ESE11.7 kmh ESE 15.2 mph24.5 kmh 30.31 in1026.4 mb 0.00 in0.0 mm 0.00 in0.0 mm 0.00 in0.0 mm
06:27 AM 32.2°F0.1°C 24.2°F-4.3°C 72% 7.2 mph ESE11.6 kmh ESE 15.2 mph24.5 kmh 30.31 in1026.4 mb 0.00 in0.0 mm 0.00 in0.0 mm 0.00 in0.0 mm
06:26 AM 32.2°F0.1°C 24.2°F-4.3°C 72% 7.6 mph ESE12.2 kmh ESE 15.2 mph24.5 kmh 30.31 in1026.4 mb 0.00 in0.0 mm 0.00 in0.0 mm 0.00 in0.0 mm
06:25 AM 32.2°F0.1°C 24.2°F-4.3°C 72% 7.7 mph ESE12.4 kmh ESE 15.2 mph24.5 kmh 30.31 in1026.4 mb 0.00 in0.0 mm 0.00 in0.0 mm 0.00 in0.0 mm
06:24 AM 32.2°F0.1°C 24.2°F-4.3°C 72% 7.8 mph ESE12.6 kmh ESE 15.2 mph24.5 kmh 30.31 in1026.4 mb 0.00 in0.0 mm 0.00 in0.0 mm 0.00 in0.0 mm
06:23 AM 32.2°F0.1°C 24.2°F-4.3°C 72% 7.7 mph ESE12.4 kmh ESE 15.2 mph24.5 kmh 30.31 in1026.4 mb 0.00 in0.0 mm 0.00 in0.0 mm 0.00 in0.0 mm
06:22 AM 32.2°F0.1°C 24.2°F-4.3°C 72% 7.7 mph E12.4 kmh E 15.2 mph24.5 kmh 30.31 in1026.4 mb 0.00 in0.0 mm 0.00 in0.0 mm 0.00 in0.0 mm
06:21 AM 32.2°F0.1°C 24.2°F-4.3°C 72% 7.3 mph E11.7 kmh E 15.2 mph24.5 kmh 30.31 in1026.4 mb 0.00 in0.0 mm 0.00 in0.0 mm 0.00 in0.0 mm
06:20 AM 32.2°F0.1°C 24.2°F-4.3°C 72% 6.9 mph E11.1 kmh E 14.5 mph23.3 kmh 30.31 in1026.4 mb 0.00 in0.0 mm 0.00 in0.0 mm 0.00 in0.0 mm
06:19 AM 32.2°F0.1°C 24.2°F-4.3°C 72% 7.0 mph E11.3 kmh E 14.5 mph23.3 kmh 30.31 in1026.4 mb 0.00 in0.0 mm 0.00 in0.0 mm 0.00 in0.0 mm
06:18 AM 32.2°F0.1°C 24.2°F-4.3°C 72% 6.8 mph E10.9 kmh E 12.1 mph19.5 kmh 30.31 in1026.4 mb 0.00 in0.0 mm 0.00 in0.0 mm 0.00 in0.0 mm
06:17 AM 32.2°F0.1°C 24.2°F-4.3°C 72% 7.0 mph E11.3 kmh E 12.1 mph19.5 kmh 30.32 in1026.8 mb 0.00 in0.0 mm 0.00 in0.0 mm 0.00 in0.0 mm
06:16 AM 32.2°F0.1°C 24.2°F-4.3°C 72% 6.8 mph E10.9 kmh E 12.1 mph19.5 kmh 30.31 in1026.4 mb 0.00 in0.0 mm 0.00 in0.0 mm 0.00 in0.0 mm
06:15 AM 32.2°F0.1°C 24.2°F-4.3°C 72% 6.9 mph ESE11.1 kmh ESE 12.1 mph19.5 kmh 30.31 in1026.4 mb 0.00 in0.0 mm 0.00 in0.0 mm 0.00 in0.0 mm
06:14 AM 32.2°F0.1°C 24.2°F-4.3°C 72% 7.0 mph ESE11.3 kmh ESE 12.1 mph19.5 kmh 30.32 in1026.8 mb 0.00 in0.0 mm 0.00 in0.0 mm 0.00 in0.0 mm
06:13 AM 32.2°F0.1°C 24.2°F-4.3°C 72% 7.3 mph ESE11.7 kmh ESE 12.1 mph19.5 kmh 30.31 in1026.4 mb 0.00 in0.0 mm 0.00 in0.0 mm 0.00 in0.0 mm
06:12 AM 32.2°F0.1°C 24.2°F-4.3°C 72% 7.6 mph SE12.2 kmh SE 12.1 mph19.5 kmh 30.31 in1026.4 mb 0.00 in0.0 mm 0.00 in0.0 mm 0.00 in0.0 mm
06:11 AM 32.2°F0.1°C 24.2°F-4.3°C 72% 8.0 mph SE12.9 kmh SE 12.1 mph19.5 kmh 30.31 in1026.4 mb 0.00 in0.0 mm 0.00 in0.0 mm 0.00 in0.0 mm
06:10 AM 32.2°F0.1°C 24.2°F-4.3°C 72% 8.1 mph SE13.0 kmh SE 12.1 mph19.5 kmh 30.31 in1026.4 mb 0.00 in0.0 mm 0.00 in0.0 mm 0.00 in0.0 mm
06:09 AM 32.2°F0.1°C 24.2°F-4.3°C 72% 8.1 mph SE13.0 kmh SE 12.1 mph19.5 kmh 30.31 in1026.4 mb 0.00 in0.0 mm 0.00 in0.0 mm 0.00 in0.0 mm
06:08 AM 32.2°F0.1°C 24.2°F-4.3°C 72% 8.0 mph SE12.9 kmh SE 13.0 mph20.9 kmh 30.31 in1026.4 mb 0.00 in0.0 mm 0.00 in0.0 mm 0.00 in0.0 mm
06:07 AM 32.2°F0.1°C 24.2°F-4.3°C 72% 8.0 mph SE12.9 kmh SE 13.0 mph20.9 kmh 30.31 in1026.4 mb 0.00 in0.0 mm 0.00 in0.0 mm 0.00 in0.0 mm
06:06 AM 32.2°F0.1°C 24.2°F-4.3°C 72% 8.1 mph SE13.0 kmh SE 13.0 mph20.9 kmh 30.31 in1026.4 mb 0.00 in0.0 mm 0.00 in0.0 mm 0.00 in0.0 mm
06:05 AM 32.2°F0.1°C 24.2°F-4.3°C 72% 8.1 mph SE13.0 kmh SE 13.0 mph20.9 kmh 30.31 in1026.4 mb 0.00 in0.0 mm 0.00 in0.0 mm 0.00 in0.0 mm
06:04 AM 32.2°F0.1°C 24.2°F-4.3°C 72% 8.1 mph ESE13.0 kmh ESE 13.0 mph20.9 kmh 30.31 in1026.4 mb 0.00 in0.0 mm 0.00 in0.0 mm 0.00 in0.0 mm
06:03 AM 32.2°F0.1°C 24.2°F-4.3°C 72% 8.1 mph ESE13.0 kmh ESE 13.0 mph20.9 kmh 30.31 in1026.4 mb 0.00 in0.0 mm 0.00 in0.0 mm 0.00 in0.0 mm
06:02 AM 32.2°F0.1°C 24.2°F-4.3°C 72% 8.3 mph ESE13.4 kmh ESE 15.2 mph24.5 kmh 30.31 in1026.4 mb 0.00 in0.0 mm 0.00 in0.0 mm 0.00 in0.0 mm
06:01 AM 32.2°F0.1°C 24.2°F-4.3°C 72% 8.3 mph ESE13.4 kmh ESE 15.2 mph24.5 kmh 30.31 in1026.4 mb 0.00 in0.0 mm 0.00 in0.0 mm 0.00 in0.0 mm
06:00 AM 32.2°F0.1°C 24.2°F-4.3°C 72% 8.1 mph ESE13.0 kmh ESE 15.2 mph24.5 kmh 30.31 in1026.4 mb 0.00 in0.0 mm 0.00 in0.0 mm 0.00 in0.0 mm
05:59 AM 32.2°F0.1°C 24.2°F-4.3°C 72% 7.8 mph E12.6 kmh E 15.2 mph24.5 kmh 30.31 in1026.4 mb 0.00 in0.0 mm 0.00 in0.0 mm 0.00 in0.0 mm
05:58 AM 32.2°F0.1°C 24.2°F-4.3°C 72% 7.5 mph E12.1 kmh E 15.2 mph24.5 kmh 30.31 in1026.4 mb 0.00 in0.0 mm 0.00 in0.0 mm 0.00 in0.0 mm
05:57 AM 32.2°F0.1°C 24.2°F-4.3°C 72% 7.2 mph ESE11.6 kmh ESE 15.2 mph24.5 kmh 30.31 in1026.4 mb 0.00 in0.0 mm 0.00 in0.0 mm 0.00 in0.0 mm
05:56 AM 32.2°F0.1°C 24.2°F-4.3°C 72% 6.7 mph E10.8 kmh E 15.2 mph24.5 kmh 30.31 in1026.4 mb 0.00 in0.0 mm 0.00 in0.0 mm 0.00 in0.0 mm
05:55 AM 32.2°F0.1°C 24.2°F-4.3°C 72% 6.2 mph E10.0 kmh E 15.2 mph24.5 kmh 30.31 in1026.4 mb 0.00 in0.0 mm 0.00 in0.0 mm 0.00 in0.0 mm
05:54 AM 32.2°F0.1°C 24.2°F-4.3°C 72% 5.8 mph E9.3 kmh E 15.2 mph24.5 kmh 30.31 in1026.4 mb 0.00 in0.0 mm 0.00 in0.0 mm 0.00 in0.0 mm
05:53 AM 32.2°F0.1°C 24.5°F-4.2°C 73% 5.7 mph E9.2 kmh E 15.2 mph24.5 kmh 30.31 in1026.4 mb 0.00 in0.0 mm 0.00 in0.0 mm 0.00 in0.0 mm
05:52 AM 32.2°F0.1°C 24.5°F-4.2°C 73% 5.5 mph E8.9 kmh E 15.2 mph24.5 kmh 30.31 in1026.4 mb 0.00 in0.0 mm 0.00 in0.0 mm 0.00 in0.0 mm
05:51 AM 32.2°F0.1°C 24.5°F-4.2°C 73% 5.3 mph E8.5 kmh E 13.6 mph21.9 kmh 30.31 in1026.4 mb 0.00 in0.0 mm 0.00 in0.0 mm 0.00 in0.0 mm
05:50 AM 32.2°F0.1°C 24.5°F-4.2°C 73% 5.1 mph E8.2 kmh E 13.0 mph20.9 kmh 30.31 in1026.4 mb 0.00 in0.0 mm 0.00 in0.0 mm 0.00 in0.0 mm
05:49 AM 32.2°F0.1°C 24.5°F-4.2°C 73% 5.0 mph E8.0 kmh E 13.0 mph20.9 kmh 30.30 in1026.1 mb 0.00 in0.0 mm 0.00 in0.0 mm 0.00 in0.0 mm
05:48 AM 32.2°F0.1°C 24.5°F-4.2°C 73% 5.0 mph E8.0 kmh E 13.0 mph20.9 kmh 30.30 in1026.1 mb 0.00 in0.0 mm 0.00 in0.0 mm 0.00 in0.0 mm
05:47 AM 32.2°F0.1°C 24.5°F-4.2°C 73% 5.0 mph E8.0 kmh E 13.0 mph20.9 kmh 30.31 in1026.4 mb 0.00 in0.0 mm 0.00 in0.0 mm 0.00 in0.0 mm
05:46 AM 32.2°F0.1°C 24.2°F-4.3°C 72% 5.3 mph E8.5 kmh E 13.0 mph20.9 kmh 30.30 in1026.1 mb 0.00 in0.0 mm 0.00 in0.0 mm 0.00 in0.0 mm
05:45 AM 32.2°F0.1°C 24.2°F-4.3°C 72% 5.7 mph E9.2 kmh E 13.6 mph21.9 kmh 30.31 in1026.4 mb 0.00 in0.0 mm 0.00 in0.0 mm 0.00 in0.0 mm
05:44 AM 32.2°F0.1°C 24.2°F-4.3°C 72% 6.0 mph E9.7 kmh E 13.6 mph21.9 kmh 30.30 in1026.1 mb 0.00 in0.0 mm 0.00 in0.0 mm 0.00 in0.0 mm
05:43 AM 32.2°F0.1°C 24.2°F-4.3°C 72% 6.1 mph E9.8 kmh E 13.6 mph21.9 kmh 30.31 in1026.4 mb 0.00 in0.0 mm 0.00 in0.0 mm 0.00 in0.0 mm
05:42 AM 32.2°F0.1°C 24.5°F-4.2°C 73% 6.2 mph E10.0 kmh E 13.6 mph21.9 kmh 30.30 in1026.1 mb 0.00 in0.0 mm 0.00 in0.0 mm 0.00 in0.0 mm
05:41 AM 32.2°F0.1°C 24.5°F-4.2°C 73% 6.3 mph E10.1 kmh E 13.6 mph21.9 kmh 30.31 in1026.4 mb 0.00 in0.0 mm 0.00 in0.0 mm 0.00 in0.0 mm
05:40 AM 32.2°F0.1°C 24.5°F-4.2°C 73% 6.4 mph E10.3 kmh E 13.6 mph21.9 kmh 30.31 in1026.4 mb 0.00 in0.0 mm 0.00 in0.0 mm 0.00 in0.0 mm
05:39 AM 32.2°F0.1°C 24.5°F-4.2°C 73% 6.3 mph E10.1 kmh E 13.6 mph21.9 kmh 30.30 in1026.1 mb 0.00 in0.0 mm 0.00 in0.0 mm 0.00 in0.0 mm
05:38 AM 32.2°F0.1°C 24.5°F-4.2°C 73% 6.6 mph E10.6 kmh E 13.6 mph21.9 kmh 30.31 in1026.4 mb 0.00 in0.0 mm 0.00 in0.0 mm 0.00 in0.0 mm
05:37 AM 32.2°F0.1°C 24.5°F-4.2°C 73% 6.8 mph E10.9 kmh E 13.6 mph21.9 kmh 30.30 in1026.1 mb 0.00 in0.0 mm 0.00 in0.0 mm 0.00 in0.0 mm
05:36 AM 32.2°F0.1°C 24.5°F-4.2°C 73% 6.7 mph ESE10.8 kmh ESE 13.6 mph21.9 kmh 30.31 in1026.4 mb 0.00 in0.0 mm 0.00 in0.0 mm 0.00 in0.0 mm
05:35 AM 32.2°F0.1°C 24.5°F-4.2°C 73% 6.8 mph ESE10.9 kmh ESE 13.6 mph21.9 kmh 30.30 in1026.1 mb 0.00 in0.0 mm 0.00 in0.0 mm 0.00 in0.0 mm
05:34 AM 32.2°F0.1°C 24.5°F-4.2°C 73% 6.5 mph ESE10.5 kmh ESE 13.0 mph20.9 kmh 30.30 in1026.1 mb 0.00 in0.0 mm 0.00 in0.0 mm 0.00 in0.0 mm
05:33 AM 32.2°F0.1°C 24.5°F-4.2°C 73% 6.6 mph ESE10.6 kmh ESE 13.0 mph20.9 kmh 30.30 in1026.1 mb 0.00 in0.0 mm 0.00 in0.0 mm 0.00 in0.0 mm
05:32 AM 32.2°F0.1°C 24.5°F-4.2°C 73% 6.4 mph ESE10.3 kmh ESE 13.0 mph20.9 kmh 30.30 in1026.1 mb 0.00 in0.0 mm 0.00 in0.0 mm 0.00 in0.0 mm
05:31 AM 32.2°F0.1°C 24.5°F-4.2°C 73% 6.4 mph ESE10.3 kmh ESE 13.0 mph20.9 kmh 30.30 in1026.1 mb 0.00 in0.0 mm 0.00 in0.0 mm 0.00 in0.0 mm
05:30 AM 32.2°F0.1°C 24.5°F-4.2°C 73% 6.4 mph ESE10.3 kmh ESE 13.0 mph20.9 kmh 30.30 in1026.1 mb 0.00 in0.0 mm 0.00 in0.0 mm 0.00 in0.0 mm
05:29 AM 32.2°F0.1°C 24.5°F-4.2°C 73% 6.8 mph ESE10.9 kmh ESE 13.0 mph20.9 kmh 30.30 in1026.1 mb 0.00 in0.0 mm 0.00 in0.0 mm 0.00 in0.0 mm
05:28 AM 32.2°F0.1°C 24.5°F-4.2°C 73% 7.0 mph ESE11.3 kmh ESE 13.6 mph21.9 kmh 30.30 in1026.1 mb 0.00 in0.0 mm 0.00 in0.0 mm 0.00 in0.0 mm
05:27 AM 32.2°F0.1°C 24.5°F-4.2°C 73% 6.9 mph ESE11.1 kmh ESE 13.6 mph21.9 kmh 30.30 in1026.1 mb 0.00 in0.0 mm 0.00 in0.0 mm 0.00 in0.0 mm
05:26 AM 32.2°F0.1°C 24.5°F-4.2°C 73% 6.9 mph E11.1 kmh E 13.6 mph21.9 kmh 30.30 in1026.1 mb 0.00 in0.0 mm 0.00 in0.0 mm 0.00 in0.0 mm
05:25 AM 32.2°F0.1°C 24.5°F-4.2°C 73% 6.6 mph ESE10.6 kmh ESE 13.6 mph21.9 kmh 30.30 in1026.1 mb 0.00 in0.0 mm 0.00 in0.0 mm 0.00 in0.0 mm
05:24 AM 32.2°F0.1°C 24.5°F-4.2°C 73% 6.8 mph ESE10.9 kmh ESE 13.6 mph21.9 kmh 30.30 in1026.1 mb 0.00 in0.0 mm 0.00 in0.0 mm 0.00 in0.0 mm
05:23 AM 32.2°F0.1°C 24.5°F-4.2°C 73% 6.5 mph ESE10.5 kmh ESE 13.6 mph21.9 kmh 30.30 in1026.1 mb 0.00 in0.0 mm 0.00 in0.0 mm 0.00 in0.0 mm
05:22 AM 32.2°F0.1°C 24.5°F-4.2°C 73% 6.5 mph ESE10.5 kmh ESE 13.6 mph21.9 kmh 30.30 in1026.1 mb 0.00 in0.0 mm 0.00 in0.0 mm 0.00 in0.0 mm
05:21 AM 32.2°F0.1°C 24.5°F-4.2°C 73% 6.5 mph ESE10.5 kmh ESE 13.6 mph21.9 kmh 30.29 in1025.7 mb 0.00 in0.0 mm 0.00 in0.0 mm 0.00 in0.0 mm
05:20 AM 32.2°F0.1°C 24.5°F-4.2°C 73% 6.9 mph ESE11.1 kmh ESE 13.6 mph21.9 kmh 30.29 in1025.7 mb 0.00 in0.0 mm 0.00 in0.0 mm 0.00 in0.0 mm
05:19 AM 32.2°F0.1°C 24.5°F-4.2°C 73% 7.1 mph ESE11.4 kmh ESE 13.6 mph21.9 kmh 30.30 in1026.1 mb 0.00 in0.0 mm 0.00 in0.0 mm 0.00 in0.0 mm
05:18 AM 32.2°F0.1°C 24.5°F-4.2°C 73% 6.8 mph ESE10.9 kmh ESE 13.6 mph21.9 kmh 30.30 in1026.1 mb 0.00 in0.0 mm 0.00 in0.0 mm 0.00 in0.0 mm
05:17 AM 32.2°F0.1°C 24.5°F-4.2°C 73% 6.7 mph ESE10.8 kmh ESE 13.6 mph21.9 kmh 30.29 in1025.7 mb 0.00 in0.0 mm 0.00 in0.0 mm 0.00 in0.0 mm
05:16 AM 32.2°F0.1°C 24.5°F-4.2°C 73% 6.7 mph ESE10.8 kmh ESE 13.6 mph21.9 kmh 30.29 in1025.7 mb 0.00 in0.0 mm 0.00 in0.0 mm 0.00 in0.0 mm
05:15 AM 32.2°F0.1°C 24.5°F-4.2°C 73% 6.9 mph ESE11.1 kmh ESE 13.6 mph21.9 kmh 30.29 in1025.7 mb 0.00 in0.0 mm 0.00 in0.0 mm 0.00 in0.0 mm
05:14 AM 32.2°F0.1°C 24.5°F-4.2°C 73% 7.1 mph E11.4 kmh E 13.6 mph21.9 kmh 30.30 in1026.1 mb 0.00 in0.0 mm 0.00 in0.0 mm 0.00 in0.0 mm
05:13 AM 32.2°F0.1°C 24.5°F-4.2°C 73% 7.5 mph E12.1 kmh E 13.6 mph21.9 kmh 30.30 in1026.1 mb 0.00 in0.0 mm 0.00 in0.0 mm 0.00 in0.0 mm
05:12 AM 32.2°F0.1°C 24.5°F-4.2°C 73% 7.4 mph E11.9 kmh E 13.6 mph21.9 kmh 30.30 in1026.1 mb 0.00 in0.0 mm 0.00 in0.0 mm 0.00 in0.0 mm
05:11 AM 32.2°F0.1°C 24.5°F-4.2°C 73% 7.3 mph E11.7 kmh E 13.6 mph21.9 kmh 30.29 in1025.7 mb 0.00 in0.0 mm 0.00 in0.0 mm 0.00 in0.0 mm
05:10 AM 32.2°F0.1°C 24.5°F-4.2°C 73% 6.8 mph E10.9 kmh E 13.6 mph21.9 kmh 30.29 in1025.7 mb 0.00 in0.0 mm 0.00 in0.0 mm 0.00 in0.0 mm
05:09 AM 32.2°F0.1°C 24.5°F-4.2°C 73% 6.3 mph E10.1 kmh E 13.0 mph20.9 kmh 30.29 in1025.7 mb 0.00 in0.0 mm 0.00 in0.0 mm 0.00 in0.0 mm
05:08 AM 32.2°F0.1°C 24.5°F-4.2°C 73% 6.3 mph E10.1 kmh E 13.0 mph20.9 kmh 30.29 in1025.7 mb 0.00 in0.0 mm 0.00 in0.0 mm 0.00 in0.0 mm
05:07 AM 32.2°F0.1°C 24.5°F-4.2°C 73% 6.3 mph E10.1 kmh E 13.0 mph20.9 kmh 30.29 in1025.7 mb 0.00 in0.0 mm 0.00 in0.0 mm 0.00 in0.0 mm
05:06 AM 32.2°F0.1°C 24.5°F-4.2°C 73% 6.3 mph E10.1 kmh E 13.0 mph20.9 kmh 30.30 in1026.1 mb 0.00 in0.0 mm 0.00 in0.0 mm 0.00 in0.0 mm
05:05 AM 32.2°F0.1°C 24.5°F-4.2°C 73% 6.3 mph E10.1 kmh E 13.0 mph20.9 kmh 30.29 in1025.7 mb 0.00 in0.0 mm 0.00 in0.0 mm 0.00 in0.0 mm
05:04 AM 32.2°F0.1°C 24.5°F-4.2°C 73% 6.2 mph E10.0 kmh E 13.0 mph20.9 kmh 30.30 in1026.1 mb 0.00 in0.0 mm 0.00 in0.0 mm 0.00 in0.0 mm
05:03 AM 32.2°F0.1°C 24.5°F-4.2°C 73% 6.0 mph E9.7 kmh E 13.0 mph20.9 kmh 30.30 in1026.1 mb 0.00 in0.0 mm 0.00 in0.0 mm 0.00 in0.0 mm
05:02 AM 32.2°F0.1°C 24.5°F-4.2°C 73% 5.9 mph E9.5 kmh E 13.0 mph20.9 kmh 30.30 in1026.1 mb 0.00 in0.0 mm 0.00 in0.0 mm 0.00 in0.0 mm
05:01 AM 32.2°F0.1°C 24.5°F-4.2°C 73% 5.9 mph E9.5 kmh E 13.0 mph20.9 kmh 30.29 in1025.7 mb 0.00 in0.0 mm 0.00 in0.0 mm 0.00 in0.0 mm
05:00 AM 32.2°F0.1°C 24.5°F-4.2°C 73% 6.0 mph E9.7 kmh E 13.0 mph20.9 kmh 30.29 in1025.7 mb 0.00 in0.0 mm 0.00 in0.0 mm 0.00 in0.0 mm
04:59 AM 32.2°F0.1°C 24.5°F-4.2°C 73% 6.4 mph E10.3 kmh E 15.2 mph24.5 kmh 30.30 in1026.1 mb 0.00 in0.0 mm 0.00 in0.0 mm 0.00 in0.0 mm
04:58 AM 32.2°F0.1°C 24.5°F-4.2°C 73% 7.0 mph E11.3 kmh E 15.9 mph25.6 kmh 30.29 in1025.7 mb 0.00 in0.0 mm 0.00 in0.0 mm 0.00 in0.0 mm
04:57 AM 32.2°F0.1°C 24.5°F-4.2°C 73% 7.3 mph E11.7 kmh E 15.9 mph25.6 kmh 30.29 in1025.7 mb 0.00 in0.0 mm 0.00 in0.0 mm 0.00 in0.0 mm
04:56 AM 32.2°F0.1°C 24.5°F-4.2°C 73% 7.5 mph E12.1 kmh E 15.9 mph25.6 kmh 30.29 in1025.7 mb 0.00 in0.0 mm 0.00 in0.0 mm 0.00 in0.0 mm
04:55 AM 32.2°F0.1°C 24.5°F-4.2°C 73% 7.7 mph E12.4 kmh E 15.9 mph25.6 kmh 30.29 in1025.7 mb 0.00 in0.0 mm 0.00 in0.0 mm 0.00 in0.0 mm
04:54 AM 32.2°F0.1°C 24.8°F-4.0°C 74% 8.0 mph E12.9 kmh E 15.9 mph25.6 kmh 30.29 in1025.7 mb 0.00 in0.0 mm 0.00 in0.0 mm 0.00 in0.0 mm
04:53 AM 32.2°F0.1°C 24.8°F-4.0°C 74% 8.4 mph E13.5 kmh E 15.9 mph25.6 kmh 30.30 in1026.1 mb 0.00 in0.0 mm 0.00 in0.0 mm 0.00 in0.0 mm
04:52 AM 32.2°F0.1°C 24.8°F-4.0°C 74% 8.9 mph E14.3 kmh E 15.9 mph25.6 kmh 30.29 in1025.7 mb 0.00 in0.0 mm 0.00 in0.0 mm 0.00 in0.0 mm
04:51 AM 32.2°F0.1°C 24.8°F-4.0°C 74% 9.2 mph E14.8 kmh E 15.9 mph25.6 kmh 30.29 in1025.7 mb 0.00 in0.0 mm 0.00 in0.0 mm 0.00 in0.0 mm
04:50 AM 32.2°F0.1°C 24.8°F-4.0°C 74% 9.2 mph E14.8 kmh E 15.9 mph25.6 kmh 30.29 in1025.7 mb 0.00 in0.0 mm 0.00 in0.0 mm 0.00 in0.0 mm
04:49 AM 32.2°F0.1°C 24.8°F-4.0°C 74% 8.8 mph E14.2 kmh E 15.9 mph25.6 kmh 30.29 in1025.7 mb 0.00 in0.0 mm 0.00 in0.0 mm 0.00 in0.0 mm
04:48 AM 32.2°F0.1°C 24.8°F-4.0°C 74% 8.3 mph E13.4 kmh E 15.2 mph24.5 kmh 30.30 in1026.1 mb 0.00 in0.0 mm 0.00 in0.0 mm 0.00 in0.0 mm
04:47 AM 32.2°F0.1°C 24.8°F-4.0°C 74% 8.3 mph E13.4 kmh E 15.2 mph24.5 kmh 30.30 in1026.1 mb 0.00 in0.0 mm 0.00 in0.0 mm 0.00 in0.0 mm
04:46 AM 32.2°F0.1°C 24.8°F-4.0°C 74% 8.3 mph E13.4 kmh E 15.2 mph24.5 kmh 30.29 in1025.7 mb 0.00 in0.0 mm 0.00 in0.0 mm 0.00 in0.0 mm
04:45 AM 32.2°F0.1°C 24.8°F-4.0°C 74% 8.3 mph ESE13.4 kmh ESE 15.2 mph24.5 kmh 30.30 in1026.1 mb 0.00 in0.0 mm 0.00 in0.0 mm 0.00 in0.0 mm
04:44 AM 32.2°F0.1°C 24.8°F-4.0°C 74% 8.1 mph ESE13.0 kmh ESE 15.2 mph24.5 kmh 30.29 in1025.7 mb 0.00 in0.0 mm 0.00 in0.0 mm 0.00 in0.0 mm
04:43 AM 32.2°F0.1°C 24.8°F-4.0°C 74% 8.0 mph E12.9 kmh E 15.2 mph24.5 kmh 30.30 in1026.1 mb 0.00 in0.0 mm 0.00 in0.0 mm 0.00 in0.0 mm
04:42 AM 32.2°F0.1°C 24.8°F-4.0°C 74% 7.8 mph ESE12.6 kmh ESE 14.5 mph23.3 kmh 30.30 in1026.1 mb 0.00 in0.0 mm 0.00 in0.0 mm 0.00 in0.0 mm
04:41 AM 32.2°F0.1°C 24.8°F-4.0°C 74% 7.6 mph ESE12.2 kmh ESE 14.5 mph23.3 kmh 30.30 in1026.1 mb 0.00 in0.0 mm 0.00 in0.0 mm 0.00 in0.0 mm
04:40 AM 32.2°F0.1°C 25.2°F-3.8°C 75% 7.5 mph ESE12.1 kmh ESE 14.5 mph23.3 kmh 30.29 in1025.7 mb 0.00 in0.0 mm 0.00 in0.0 mm 0.00 in0.0 mm
04:39 AM 32.2°F0.1°C 25.2°F-3.8°C 75% 7.7 mph ESE12.4 kmh ESE 14.5 mph23.3 kmh 30.29 in1025.7 mb 0.00 in0.0 mm 0.00 in0.0 mm 0.00 in0.0 mm
04:38 AM 32.2°F0.1°C 25.2°F-3.8°C 75% 7.6 mph ESE12.2 kmh ESE 14.5 mph23.3 kmh 30.30 in1026.1 mb 0.00 in0.0 mm 0.00 in0.0 mm 0.00 in0.0 mm
04:37 AM 32.2°F0.1°C 25.2°F-3.8°C 75% 7.4 mph ESE11.9 kmh ESE 14.5 mph23.3 kmh 30.29 in1025.7 mb 0.00 in0.0 mm 0.00 in0.0 mm 0.00 in0.0 mm
04:36 AM 32.2°F0.1°C 25.2°F-3.8°C 75% 7.2 mph E11.6 kmh E 13.6 mph21.9 kmh 30.29 in1025.7 mb 0.00 in0.0 mm 0.00 in0.0 mm 0.00 in0.0 mm
04:35 AM 32.2°F0.1°C 25.2°F-3.8°C 75% 6.6 mph ESE10.6 kmh ESE 13.6 mph21.9 kmh 30.29 in1025.7 mb 0.00 in0.0 mm 0.00 in0.0 mm 0.00 in0.0 mm
04:34 AM 32.2°F0.1°C 25.2°F-3.8°C 75% 6.0 mph ESE9.7 kmh ESE 13.6 mph21.9 kmh 30.29 in1025.7 mb 0.00 in0.0 mm 0.00 in0.0 mm 0.00 in0.0 mm
04:33 AM 32.2°F0.1°C 25.2°F-3.8°C 75% 5.6 mph ESE9.0 kmh ESE 12.1 mph19.5 kmh 30.29 in1025.7 mb 0.00 in0.0 mm 0.00 in0.0 mm 0.00 in0.0 mm
04:32 AM 32.2°F0.1°C 25.2°F-3.8°C 75% 5.5 mph E8.9 kmh E 12.1 mph19.5 kmh 30.30 in1026.1 mb 0.00 in0.0 mm 0.00 in0.0 mm 0.00 in0.0 mm
04:31 AM 32.2°F0.1°C 25.2°F-3.8°C 75% 5.5 mph E8.9 kmh E 13.6 mph21.9 kmh 30.29 in1025.7 mb 0.00 in0.0 mm 0.00 in0.0 mm 0.00 in0.0 mm
04:30 AM 32.0°F0.0°C 25.0°F-3.9°C 75% 5.8 mph E9.3 kmh E 13.6 mph21.9 kmh 30.29 in1025.7 mb 0.00 in0.0 mm 0.00 in0.0 mm 0.00 in0.0 mm
04:29 AM 32.0°F0.0°C 25.0°F-3.9°C 75% 5.7 mph ESE9.2 kmh ESE 13.6 mph21.9 kmh 30.29 in1025.7 mb 0.00 in0.0 mm 0.00 in0.0 mm 0.00 in0.0 mm
04:28 AM 32.0°F0.0°C 25.0°F-3.9°C 75% 5.8 mph ESE9.3 kmh ESE 13.6 mph21.9 kmh 30.30 in1026.1 mb 0.00 in0.0 mm 0.00 in0.0 mm 0.00 in0.0 mm
04:27 AM 32.0°F0.0°C 25.3°F-3.7°C 76% 5.7 mph ESE9.2 kmh ESE 13.6 mph21.9 kmh 30.30 in1026.1 mb 0.00 in0.0 mm 0.00 in0.0 mm 0.00 in0.0 mm
04:26 AM 32.0°F0.0°C 25.3°F-3.7°C 76% 5.5 mph ESE8.9 kmh ESE 13.6 mph21.9 kmh 30.29 in1025.7 mb 0.00 in0.0 mm 0.00 in0.0 mm 0.00 in0.0 mm
04:25 AM 32.0°F0.0°C 25.3°F-3.7°C 76% 6.0 mph ESE9.7 kmh ESE 13.6 mph21.9 kmh 30.29 in1025.7 mb 0.00 in0.0 mm 0.00 in0.0 mm 0.00 in0.0 mm
04:24 AM 32.0°F0.0°C 25.3°F-3.7°C 76% 6.4 mph ESE10.3 kmh ESE 13.6 mph21.9 kmh 30.29 in1025.7 mb 0.00 in0.0 mm 0.00 in0.0 mm 0.00 in0.0 mm
04:23 AM 32.0°F0.0°C 25.3°F-3.7°C 76% 7.0 mph ESE11.3 kmh ESE 13.6 mph21.9 kmh 30.30 in1026.1 mb 0.00 in0.0 mm 0.00 in0.0 mm 0.00 in0.0 mm
04:22 AM 32.0°F0.0°C 25.3°F-3.7°C 76% 7.1 mph SE11.4 kmh SE 13.6 mph21.9 kmh 30.29 in1025.7 mb 0.00 in0.0 mm 0.00 in0.0 mm 0.00 in0.0 mm
04:21 AM 32.0°F0.0°C 25.3°F-3.7°C 76% 6.8 mph ESE10.9 kmh ESE 13.6 mph21.9 kmh 30.29 in1025.7 mb 0.00 in0.0 mm 0.00 in0.0 mm 0.00 in0.0 mm
04:20 AM 32.0°F0.0°C 25.3°F-3.7°C 76% 6.5 mph ESE10.5 kmh ESE 13.6 mph21.9 kmh 30.29 in1025.7 mb 0.00 in0.0 mm 0.00 in0.0 mm 0.00 in0.0 mm
04:19 AM 32.0°F0.0°C 25.3°F-3.7°C 76% 6.6 mph E10.6 kmh E 13.6 mph21.9 kmh 30.29 in1025.7 mb 0.00 in0.0 mm 0.00 in0.0 mm 0.00 in0.0 mm
04:18 AM 32.0°F0.0°C 25.3°F-3.7°C 76% 6.7 mph E10.8 kmh E 13.6 mph21.9 kmh 30.29 in1025.7 mb 0.00 in0.0 mm 0.00 in0.0 mm 0.00 in0.0 mm
04:17 AM 32.0°F0.0°C 25.3°F-3.7°C 76% 6.6 mph E10.6 kmh E 13.6 mph21.9 kmh 30.28 in1025.4 mb 0.00 in0.0 mm 0.00 in0.0 mm 0.00 in0.0 mm
04:16 AM 32.0°F0.0°C 25.3°F-3.7°C 76% 6.7 mph E10.8 kmh E 13.6 mph21.9 kmh 30.29 in1025.7 mb 0.00 in0.0 mm 0.00 in0.0 mm 0.00 in0.0 mm
04:15 AM 32.0°F0.0°C 25.3°F-3.7°C 76% 6.5 mph E10.5 kmh E 13.6 mph21.9 kmh 30.29 in1025.7 mb 0.00 in0.0 mm 0.00 in0.0 mm 0.00 in0.0 mm
04:14 AM 31.8°F-0.1°C 25.5°F-3.6°C 77% 6.2 mph E10.0 kmh E 13.6 mph21.9 kmh 30.29 in1025.7 mb 0.00 in0.0 mm 0.00 in0.0 mm 0.00 in0.0 mm
04:13 AM 31.8°F-0.1°C 25.5°F-3.6°C 77% 5.7 mph ENE9.2 kmh ENE 10.7 mph17.2 kmh 30.29 in1025.7 mb 0.00 in0.0 mm 0.00 in0.0 mm 0.00 in0.0 mm
04:12 AM 31.8°F-0.1°C 25.5°F-3.6°C 77% 5.4 mph ENE8.7 kmh ENE 9.2 mph14.8 kmh 30.29 in1025.7 mb 0.00 in0.0 mm 0.00 in0.0 mm 0.00 in0.0 mm
04:11 AM 31.8°F-0.1°C 25.5°F-3.6°C 77% 5.5 mph NE8.9 kmh NE 9.2 mph14.8 kmh 30.29 in1025.7 mb 0.00 in0.0 mm 0.00 in0.0 mm 0.00 in0.0 mm
04:10 AM 31.8°F-0.1°C 25.5°F-3.6°C 77% 5.5 mph NE8.9 kmh NE 9.2 mph14.8 kmh 30.29 in1025.7 mb 0.00 in0.0 mm 0.00 in0.0 mm 0.00 in0.0 mm
04:09 AM 31.8°F-0.1°C 25.5°F-3.6°C 77% 5.4 mph NE8.7 kmh NE 9.8 mph15.8 kmh 30.29 in1025.7 mb 0.00 in0.0 mm 0.00 in0.0 mm 0.00 in0.0 mm
04:08 AM 31.8°F-0.1°C 25.5°F-3.6°C 77% 5.7 mph NE9.2 kmh NE 13.0 mph20.9 kmh 30.29 in1025.7 mb 0.00 in0.0 mm 0.00 in0.0 mm 0.00 in0.0 mm
04:07 AM 31.8°F-0.1°C 25.5°F-3.6°C 77% 6.1 mph ENE9.8 kmh ENE 16.8 mph27.0 kmh 30.29 in1025.7 mb 0.00 in0.0 mm 0.00 in0.0 mm 0.00 in0.0 mm
04:06 AM 31.8°F-0.1°C 25.5°F-3.6°C 77% 6.3 mph ENE10.1 kmh ENE 16.8 mph27.0 kmh 30.29 in1025.7 mb 0.00 in0.0 mm 0.00 in0.0 mm 0.00 in0.0 mm
04:05 AM 31.8°F-0.1°C 25.5°F-3.6°C 77% 6.6 mph ENE10.6 kmh ENE 16.8 mph27.0 kmh 30.29 in1025.7 mb 0.00 in0.0 mm 0.00 in0.0 mm 0.00 in0.0 mm
04:04 AM 31.8°F-0.1°C 25.5°F-3.6°C 77% 6.7 mph E10.8 kmh E 16.8 mph27.0 kmh 30.29 in1025.7 mb 0.00 in0.0 mm 0.00 in0.0 mm 0.00 in0.0 mm
04:03 AM 31.8°F-0.1°C 25.5°F-3.6°C 77% 6.8 mph E10.9 kmh E 16.8 mph27.0 kmh 30.29 in1025.7 mb 0.00 in0.0 mm 0.00 in0.0 mm 0.00 in0.0 mm
04:02 AM 31.8°F-0.1°C 25.5°F-3.6°C 77% 7.3 mph E11.7 kmh E 16.8 mph27.0 kmh 30.29 in1025.7 mb 0.00 in0.0 mm 0.00 in0.0 mm 0.00 in0.0 mm
04:01 AM 31.8°F-0.1°C 25.5°F-3.6°C 77% 7.5 mph E12.1 kmh E 16.8 mph27.0 kmh 30.28 in1025.4 mb 0.00 in0.0 mm 0.00 in0.0 mm 0.00 in0.0 mm
04:00 AM 31.8°F-0.1°C 25.5°F-3.6°C 77% 7.7 mph E12.4 kmh E 16.8 mph27.0 kmh 30.29 in1025.7 mb 0.00 in0.0 mm 0.00 in0.0 mm 0.00 in0.0 mm
03:59 AM 31.8°F-0.1°C 25.5°F-3.6°C 77% 7.9 mph E12.7 kmh E 16.8 mph27.0 kmh 30.29 in1025.7 mb 0.00 in0.0 mm 0.00 in0.0 mm 0.00 in0.0 mm
03:58 AM 31.8°F-0.1°C 25.5°F-3.6°C 77% 7.9 mph E12.7 kmh E 16.8 mph27.0 kmh 30.29 in1025.7 mb 0.00 in0.0 mm 0.00 in0.0 mm 0.00 in0.0 mm
03:57 AM 31.8°F-0.1°C 25.5°F-3.6°C 77% 7.4 mph E11.9 kmh E 15.2 mph24.5 kmh 30.29 in1025.7 mb 0.00 in0.0 mm 0.00 in0.0 mm 0.00 in0.0 mm
03:56 AM 31.8°F-0.1°C 25.5°F-3.6°C 77% 7.1 mph E11.4 kmh E 15.2 mph24.5 kmh 30.29 in1025.7 mb 0.00 in0.0 mm 0.00 in0.0 mm 0.00 in0.0 mm
03:55 AM 31.8°F-0.1°C 25.5°F-3.6°C 77% 7.1 mph ESE11.4 kmh ESE 13.6 mph21.9 kmh 30.29 in1025.7 mb 0.00 in0.0 mm 0.00 in0.0 mm 0.00 in0.0 mm
03:54 AM 31.8°F-0.1°C 25.5°F-3.6°C 77% 7.1 mph ESE11.4 kmh ESE 13.6 mph21.9 kmh 30.29 in1025.7 mb 0.00 in0.0 mm 0.00 in0.0 mm 0.00 in0.0 mm
03:53 AM 31.8°F-0.1°C 25.1°F-3.8°C 76% 7.2 mph ESE11.6 kmh ESE 13.6 mph21.9 kmh 30.30 in1026.1 mb 0.00 in0.0 mm 0.00 in0.0 mm 0.00 in0.0 mm
03:52 AM 31.8°F-0.1°C 25.1°F-3.8°C 76% 7.1 mph ESE11.4 kmh ESE 13.0 mph20.9 kmh 30.29 in1025.7 mb 0.00 in0.0 mm 0.00 in0.0 mm 0.00 in0.0 mm
03:51 AM 31.8°F-0.1°C 25.1°F-3.8°C 76% 6.9 mph ESE11.1 kmh ESE 13.0 mph20.9 kmh 30.29 in1025.7 mb 0.00 in0.0 mm 0.00 in0.0 mm 0.00 in0.0 mm
03:50 AM 31.8°F-0.1°C 25.1°F-3.8°C 76% 6.8 mph E10.9 kmh E 13.0 mph20.9 kmh 30.29 in1025.7 mb 0.00 in0.0 mm 0.00 in0.0 mm 0.00 in0.0 mm
03:49 AM 31.8°F-0.1°C 25.1°F-3.8°C 76% 6.8 mph ESE10.9 kmh ESE 13.0 mph20.9 kmh 30.29 in1025.7 mb 0.00 in0.0 mm 0.00 in0.0 mm 0.00 in0.0 mm
03:48 AM 31.8°F-0.1°C 25.1°F-3.8°C 76% 6.9 mph E11.1 kmh E 13.0 mph20.9 kmh 30.29 in1025.7 mb 0.00 in0.0 mm 0.00 in0.0 mm 0.00 in0.0 mm
03:47 AM 31.8°F-0.1°C 25.1°F-3.8°C 76% 7.4 mph E11.9 kmh E 14.5 mph23.3 kmh 30.29 in1025.7 mb 0.00 in0.0 mm 0.00 in0.0 mm 0.00 in0.0 mm
03:46 AM 31.8°F-0.1°C 25.1°F-3.8°C 76% 7.9 mph E12.7 kmh E 14.5 mph23.3 kmh 30.29 in1025.7 mb 0.00 in0.0 mm 0.00 in0.0 mm 0.00 in0.0 mm
03:45 AM 31.8°F-0.1°C 25.1°F-3.8°C 76% 7.9 mph E12.7 kmh E 14.5 mph23.3 kmh 30.30 in1026.1 mb 0.00 in0.0 mm 0.00 in0.0 mm 0.00 in0.0 mm
03:44 AM 31.8°F-0.1°C 25.1°F-3.8°C 76% 7.9 mph E12.7 kmh E 14.5 mph23.3 kmh 30.29 in1025.7 mb 0.00 in0.0 mm 0.00 in0.0 mm 0.00 in0.0 mm
03:43 AM 31.8°F-0.1°C 25.1°F-3.8°C 76% 8.0 mph E12.9 kmh E 14.5 mph23.3 kmh 30.29 in1025.7 mb 0.00 in0.0 mm 0.00 in0.0 mm 0.00 in0.0 mm
03:42 AM 31.8°F-0.1°C 25.1°F-3.8°C 76% 8.1 mph E13.0 kmh E 14.5 mph23.3 kmh 30.29 in1025.7 mb 0.00 in0.0 mm 0.00 in0.0 mm 0.00 in0.0 mm
03:41 AM 31.8°F-0.1°C 25.1°F-3.8°C 76% 8.3 mph E13.4 kmh E 14.5 mph23.3 kmh 30.29 in1025.7 mb 0.00 in0.0 mm 0.00 in0.0 mm 0.00 in0.0 mm
03:40 AM 31.8°F-0.1°C 25.1°F-3.8°C 76% 8.3 mph E13.4 kmh E 14.5 mph23.3 kmh 30.29 in1025.7 mb 0.00 in0.0 mm 0.00 in0.0 mm 0.00 in0.0 mm
03:39 AM 31.8°F-0.1°C 24.8°F-4.0°C 75% 8.0 mph E12.9 kmh E 14.5 mph23.3 kmh 30.29 in1025.7 mb 0.00 in0.0 mm 0.00 in0.0 mm 0.00 in0.0 mm
03:38 AM 31.8°F-0.1°C 24.8°F-4.0°C 75% 7.6 mph E12.2 kmh E 14.5 mph23.3 kmh 30.30 in1026.1 mb 0.00 in0.0 mm 0.00 in0.0 mm 0.00 in0.0 mm
03:37 AM 32.0°F0.0°C 24.7°F-4.1°C 74% 7.1 mph E11.4 kmh E 14.5 mph23.3 kmh 30.29 in1025.7 mb 0.00 in0.0 mm 0.00 in0.0 mm 0.00 in0.0 mm
03:36 AM 32.0°F0.0°C 24.7°F-4.1°C 74% 6.5 mph E10.5 kmh E 14.5 mph23.3 kmh 30.29 in1025.7 mb 0.00 in0.0 mm 0.00 in0.0 mm 0.00 in0.0 mm
03:35 AM 32.0°F0.0°C 24.7°F-4.1°C 74% 6.6 mph E10.6 kmh E 14.5 mph23.3 kmh 30.29 in1025.7 mb 0.00 in0.0 mm 0.00 in0.0 mm 0.00 in0.0 mm
03:34 AM 32.0°F0.0°C 24.7°F-4.1°C 74% 6.7 mph E10.8 kmh E 14.5 mph23.3 kmh 30.30 in1026.1 mb 0.00 in0.0 mm 0.00 in0.0 mm 0.00 in0.0 mm
03:33 AM 32.0°F0.0°C 24.7°F-4.1°C 74% 6.3 mph E10.1 kmh E 14.5 mph23.3 kmh 30.29 in1025.7 mb 0.00 in0.0 mm 0.00 in0.0 mm 0.00 in0.0 mm
03:32 AM 32.0°F0.0°C 24.7°F-4.1°C 74% 6.2 mph E10.0 kmh E 14.5 mph23.3 kmh 30.29 in1025.7 mb 0.00 in0.0 mm 0.00 in0.0 mm 0.00 in0.0 mm
03:31 AM 32.0°F0.0°C 24.7°F-4.1°C 74% 6.0 mph ESE9.7 kmh ESE 12.1 mph19.5 kmh 30.29 in1025.7 mb 0.00 in0.0 mm 0.00 in0.0 mm 0.00 in0.0 mm
03:30 AM 32.0°F0.0°C 24.7°F-4.1°C 74% 6.0 mph ESE9.7 kmh ESE 12.1 mph19.5 kmh 30.29 in1025.7 mb 0.00 in0.0 mm 0.00 in0.0 mm 0.00 in0.0 mm
03:29 AM 32.0°F0.0°C 24.7°F-4.1°C 74% 6.1 mph ESE9.8 kmh ESE 12.1 mph19.5 kmh 30.30 in1026.1 mb 0.00 in0.0 mm 0.00 in0.0 mm 0.00 in0.0 mm
03:28 AM 32.0°F0.0°C 24.7°F-4.1°C 74% 6.4 mph ESE10.3 kmh ESE 12.1 mph19.5 kmh 30.29 in1025.7 mb 0.00 in0.0 mm 0.00 in0.0 mm 0.00 in0.0 mm
03:27 AM 32.0°F0.0°C 24.7°F-4.1°C 74% 6.9 mph ESE11.1 kmh ESE 12.1 mph19.5 kmh 30.29 in1025.7 mb 0.00 in0.0 mm 0.00 in0.0 mm 0.00 in0.0 mm
03:26 AM 32.0°F0.0°C 24.4°F-4.2°C 73% 7.3 mph ESE11.7 kmh ESE 13.0 mph20.9 kmh 30.29 in1025.7 mb 0.00 in0.0 mm 0.00 in0.0 mm 0.00 in0.0 mm
03:25 AM 32.0°F0.0°C 24.4°F-4.2°C 73% 7.1 mph ESE11.4 kmh ESE 13.0 mph20.9 kmh 30.29 in1025.7 mb 0.00 in0.0 mm 0.00 in0.0 mm 0.00 in0.0 mm
03:24 AM 32.0°F0.0°C 24.4°F-4.2°C 73% 6.8 mph ESE10.9 kmh ESE 13.0 mph20.9 kmh 30.29 in1025.7 mb 0.00 in0.0 mm 0.00 in0.0 mm 0.00 in0.0 mm
03:23 AM 32.2°F0.1°C 24.5°F-4.2°C 73% 6.9 mph ESE11.1 kmh ESE 13.0 mph20.9 kmh 30.30 in1026.1 mb 0.00 in0.0 mm 0.00 in0.0 mm 0.00 in0.0 mm
03:22 AM 32.0°F0.0°C 24.4°F-4.2°C 73% 6.6 mph ESE10.6 kmh ESE 13.0 mph20.9 kmh 30.29 in1025.7 mb 0.00 in0.0 mm 0.00 in0.0 mm 0.00 in0.0 mm
03:21 AM 32.0°F0.0°C 24.4°F-4.2°C 73% 6.5 mph ESE10.5 kmh ESE 13.0 mph20.9 kmh 30.29 in1025.7 mb 0.00 in0.0 mm 0.00 in0.0 mm 0.00 in0.0 mm
03:20 AM 32.2°F0.1°C 24.5°F-4.2°C 73% 6.4 mph ESE10.3 kmh ESE 13.0 mph20.9 kmh 30.29 in1025.7 mb 0.00 in0.0 mm 0.00 in0.0 mm 0.00 in0.0 mm
03:19 AM 32.2°F0.1°C 24.5°F-4.2°C 73% 6.4 mph ESE10.3 kmh ESE 13.0 mph20.9 kmh 30.29 in1025.7 mb 0.00 in0.0 mm 0.00 in0.0 mm 0.00 in0.0 mm
03:18 AM 32.2°F0.1°C 24.5°F-4.2°C 73% 6.4 mph ESE10.3 kmh ESE 13.0 mph20.9 kmh 30.29 in1025.7 mb 0.00 in0.0 mm 0.00 in0.0 mm 0.00 in0.0 mm
03:17 AM 32.2°F0.1°C 24.5°F-4.2°C 73% 6.2 mph ESE10.0 kmh ESE 13.0 mph20.9 kmh 30.29 in1025.7 mb 0.00 in0.0 mm 0.00 in0.0 mm 0.00 in0.0 mm
03:16 AM 32.2°F0.1°C 24.5°F-4.2°C 73% 5.7 mph ESE9.2 kmh ESE 11.4 mph18.3 kmh 30.29 in1025.7 mb 0.00 in0.0 mm 0.00 in0.0 mm 0.00 in0.0 mm
03:15 AM 32.2°F0.1°C 24.5°F-4.2°C 73% 5.7 mph ESE9.2 kmh ESE 11.4 mph18.3 kmh 30.29 in1025.7 mb 0.00 in0.0 mm 0.00 in0.0 mm 0.00 in0.0 mm
03:14 AM 32.2°F0.1°C 24.5°F-4.2°C 73% 5.6 mph ESE9.0 kmh ESE 11.4 mph18.3 kmh 30.29 in1025.7 mb 0.00 in0.0 mm 0.00 in0.0 mm 0.00 in0.0 mm
03:13 AM 32.2°F0.1°C 24.5°F-4.2°C 73% 5.5 mph ESE8.9 kmh ESE 11.4 mph18.3 kmh 30.29 in1025.7 mb 0.00 in0.0 mm 0.00 in0.0 mm 0.00 in0.0 mm
03:12 AM 32.2°F0.1°C 24.5°F-4.2°C 73% 5.7 mph E9.2 kmh E 11.4 mph18.3 kmh 30.29 in1025.7 mb 0.00 in0.0 mm 0.00 in0.0 mm 0.00 in0.0 mm
03:11 AM 32.2°F0.1°C 24.5°F-4.2°C 73% 5.7 mph E9.2 kmh E 11.4 mph18.3 kmh 30.29 in1025.7 mb 0.00 in0.0 mm 0.00 in0.0 mm 0.00 in0.0 mm
03:10 AM 32.2°F0.1°C 24.5°F-4.2°C 73% 6.0 mph E9.7 kmh E 11.4 mph18.3 kmh 30.29 in1025.7 mb 0.00 in0.0 mm 0.00 in0.0 mm 0.00 in0.0 mm
03:09 AM 32.2°F0.1°C 24.2°F-4.3°C 72% 5.9 mph E9.5 kmh E 11.4 mph18.3 kmh 30.29 in1025.7 mb 0.00 in0.0 mm 0.00 in0.0 mm 0.00 in0.0 mm
03:08 AM 32.2°F0.1°C 24.2°F-4.3°C 72% 6.0 mph E9.7 kmh E 11.4 mph18.3 kmh 30.29 in1025.7 mb 0.00 in0.0 mm 0.00 in0.0 mm 0.00 in0.0 mm
03:07 AM 32.2°F0.1°C 24.2°F-4.3°C 72% 6.0 mph E9.7 kmh E 11.4 mph18.3 kmh 30.29 in1025.7 mb 0.00 in0.0 mm 0.00 in0.0 mm 0.00 in0.0 mm
03:06 AM 32.2°F0.1°C 24.2°F-4.3°C 72% 6.1 mph E9.8 kmh E 11.4 mph18.3 kmh 30.29 in1025.7 mb 0.00 in0.0 mm 0.00 in0.0 mm 0.00 in0.0 mm
03:05 AM 32.2°F0.1°C 24.2°F-4.3°C 72% 6.2 mph E10.0 kmh E 11.4 mph18.3 kmh 30.29 in1025.7 mb 0.00 in0.0 mm 0.00 in0.0 mm 0.00 in0.0 mm
03:04 AM 32.2°F0.1°C 24.2°F-4.3°C 72% 6.6 mph E10.6 kmh E 11.4 mph18.3 kmh 30.29 in1025.7 mb 0.00 in0.0 mm 0.00 in0.0 mm 0.00 in0.0 mm
03:03 AM 32.2°F0.1°C 24.2°F-4.3°C 72% 6.8 mph E10.9 kmh E 11.4 mph18.3 kmh 30.29 in1025.7 mb 0.00 in0.0 mm 0.00 in0.0 mm 0.00 in0.0 mm
03:02 AM 32.2°F0.1°C 24.2°F-4.3°C 72% 6.9 mph E11.1 kmh E 12.1 mph19.5 kmh 30.29 in1025.7 mb 0.00 in0.0 mm 0.00 in0.0 mm 0.00 in0.0 mm
03:01 AM 32.2°F0.1°C 24.2°F-4.3°C 72% 7.1 mph E11.4 kmh E 12.1 mph19.5 kmh 30.28 in1025.4 mb 0.00 in0.0 mm 0.00 in0.0 mm 0.00 in0.0 mm
03:00 AM 32.2°F0.1°C 24.2°F-4.3°C 72% 6.8 mph E10.9 kmh E 12.1 mph19.5 kmh 30.29 in1025.7 mb 0.00 in0.0 mm 0.00 in0.0 mm 0.00 in0.0 mm
02:59 AM 32.2°F0.1°C 24.2°F-4.3°C 72% 6.9 mph E11.1 kmh E 12.1 mph19.5 kmh 30.29 in1025.7 mb 0.00 in0.0 mm 0.00 in0.0 mm 0.00 in0.0 mm
02:58 AM 32.2°F0.1°C 24.2°F-4.3°C 72% 6.6 mph E10.6 kmh E 12.1 mph19.5 kmh 30.29 in1025.7 mb 0.00 in0.0 mm 0.00 in0.0 mm 0.00 in0.0 mm
02:57 AM 32.2°F0.1°C 24.2°F-4.3°C 72% 6.4 mph E10.3 kmh E 12.1 mph19.5 kmh 30.29 in1025.7 mb 0.00 in0.0 mm 0.00 in0.0 mm 0.00 in0.0 mm
02:56 AM 32.2°F0.1°C 24.2°F-4.3°C 72% 6.5 mph E10.5 kmh E 12.1 mph19.5 kmh 30.29 in1025.7 mb 0.00 in0.0 mm 0.00 in0.0 mm 0.00 in0.0 mm
02:55 AM 32.2°F0.1°C 24.2°F-4.3°C 72% 6.4 mph E10.3 kmh E 12.1 mph19.5 kmh 30.29 in1025.7 mb 0.00 in0.0 mm 0.00 in0.0 mm 0.00 in0.0 mm
02:54 AM 32.2°F0.1°C 23.9°F-4.5°C 71% 6.3 mph ESE10.1 kmh ESE 12.1 mph19.5 kmh 30.29 in1025.7 mb 0.00 in0.0 mm 0.00 in0.0 mm 0.00 in0.0 mm
02:53 AM 32.2°F0.1°C 23.9°F-4.5°C 71% 6.1 mph ESE9.8 kmh ESE 12.1 mph19.5 kmh 30.28 in1025.4 mb 0.00 in0.0 mm 0.00 in0.0 mm 0.00 in0.0 mm
02:52 AM 32.2°F0.1°C 23.9°F-4.5°C 71% 5.9 mph ESE9.5 kmh ESE 10.7 mph17.2 kmh 30.29 in1025.7 mb 0.00 in0.0 mm 0.00 in0.0 mm 0.00 in0.0 mm
02:51 AM 32.2°F0.1°C 23.9°F-4.5°C 71% 5.8 mph ESE9.3 kmh ESE 10.7 mph17.2 kmh 30.29 in1025.7 mb 0.00 in0.0 mm 0.00 in0.0 mm 0.00 in0.0 mm
02:50 AM 32.2°F0.1°C 23.9°F-4.5°C 71% 5.9 mph ESE9.5 kmh ESE 10.7 mph17.2 kmh 30.28 in1025.4 mb 0.00 in0.0 mm 0.00 in0.0 mm 0.00 in0.0 mm
02:49 AM 32.2°F0.1°C 23.9°F-4.5°C 71% 5.9 mph ESE9.5 kmh ESE 10.7 mph17.2 kmh 30.29 in1025.7 mb 0.00 in0.0 mm 0.00 in0.0 mm 0.00 in0.0 mm
02:48 AM 32.2°F0.1°C 23.9°F-4.5°C 71% 5.9 mph ESE9.5 kmh ESE 10.7 mph17.2 kmh 30.29 in1025.7 mb 0.00 in0.0 mm 0.00 in0.0 mm 0.00 in0.0 mm
02:47 AM 32.2°F0.1°C 23.9°F-4.5°C 71% 6.0 mph ESE9.7 kmh ESE 10.7 mph17.2 kmh 30.28 in1025.4 mb 0.00 in0.0 mm 0.00 in0.0 mm 0.00 in0.0 mm
02:46 AM 32.2°F0.1°C 23.9°F-4.5°C 71% 5.8 mph ESE9.3 kmh ESE 10.7 mph17.2 kmh 30.29 in1025.7 mb 0.00 in0.0 mm 0.00 in0.0 mm 0.00 in0.0 mm
02:45 AM 32.2°F0.1°C 23.9°F-4.5°C 71% 5.9 mph ESE9.5 kmh ESE 10.7 mph17.2 kmh 30.29 in1025.7 mb 0.00 in0.0 mm 0.00 in0.0 mm 0.00 in0.0 mm
02:44 AM 32.2°F0.1°C 23.9°F-4.5°C 71% 5.9 mph E9.5 kmh E 10.7 mph17.2 kmh 30.29 in1025.7 mb 0.00 in0.0 mm 0.00 in0.0 mm 0.00 in0.0 mm
02:43 AM 32.2°F0.1°C 23.9°F-4.5°C 71% 5.9 mph E9.5 kmh E 10.7 mph17.2 kmh 30.29 in1025.7 mb 0.00 in0.0 mm 0.00 in0.0 mm 0.00 in0.0 mm
02:42 AM 32.2°F0.1°C 23.9°F-4.5°C 71% 5.9 mph ESE9.5 kmh ESE 10.7 mph17.2 kmh 30.29 in1025.7 mb 0.00 in0.0 mm 0.00 in0.0 mm 0.00 in0.0 mm
02:41 AM 32.2°F0.1°C 23.9°F-4.5°C 71% 6.0 mph ESE9.7 kmh ESE 10.7 mph17.2 kmh 30.29 in1025.7 mb 0.00 in0.0 mm 0.00 in0.0 mm 0.00 in0.0 mm
02:40 AM 32.2°F0.1°C 23.9°F-4.5°C 71% 5.7 mph ESE9.2 kmh ESE 10.7 mph17.2 kmh 30.29 in1025.7 mb 0.00 in0.0 mm 0.00 in0.0 mm 0.00 in0.0 mm
02:39 AM 32.2°F0.1°C 23.5°F-4.7°C 70% 5.7 mph ESE9.2 kmh ESE 10.7 mph17.2 kmh 30.29 in1025.7 mb 0.00 in0.0 mm 0.00 in0.0 mm 0.00 in0.0 mm
02:38 AM 32.2°F0.1°C 23.5°F-4.7°C 70% 5.8 mph ESE9.3 kmh ESE 10.7 mph17.2 kmh 30.29 in1025.7 mb 0.00 in0.0 mm 0.00 in0.0 mm 0.00 in0.0 mm
02:37 AM 32.2°F0.1°C 23.5°F-4.7°C 70% 5.8 mph ESE9.3 kmh ESE 10.7 mph17.2 kmh 30.29 in1025.7 mb 0.00 in0.0 mm 0.00 in0.0 mm 0.00 in0.0 mm
02:36 AM 32.2°F0.1°C 23.5°F-4.7°C 70% 6.0 mph ESE9.7 kmh ESE 10.7 mph17.2 kmh 30.29 in1025.7 mb 0.00 in0.0 mm 0.00 in0.0 mm 0.00 in0.0 mm
02:35 AM 32.2°F0.1°C 23.5°F-4.7°C 70% 6.1 mph ESE9.8 kmh ESE 11.4 mph18.3 kmh 30.29 in1025.7 mb 0.00 in0.0 mm 0.00 in0.0 mm 0.00 in0.0 mm
02:34 AM 32.2°F0.1°C 23.5°F-4.7°C 70% 6.3 mph ESE10.1 kmh ESE 12.1 mph19.5 kmh 30.29 in1025.7 mb 0.00 in0.0 mm 0.00 in0.0 mm 0.00 in0.0 mm
02:33 AM 32.2°F0.1°C 23.5°F-4.7°C 70% 6.5 mph ESE10.5 kmh ESE 12.1 mph19.5 kmh 30.28 in1025.4 mb 0.00 in0.0 mm 0.00 in0.0 mm 0.00 in0.0 mm
02:32 AM 32.2°F0.1°C 23.5°F-4.7°C 70% 6.5 mph E10.5 kmh E 12.1 mph19.5 kmh 30.28 in1025.4 mb 0.00 in0.0 mm 0.00 in0.0 mm 0.00 in0.0 mm
02:31 AM 32.2°F0.1°C 23.5°F-4.7°C 70% 6.5 mph E10.5 kmh E 12.1 mph19.5 kmh 30.29 in1025.7 mb 0.00 in0.0 mm 0.00 in0.0 mm 0.00 in0.0 mm
02:30 AM 32.2°F0.1°C 23.5°F-4.7°C 70% 7.0 mph E11.3 kmh E 13.6 mph21.9 kmh 30.28 in1025.4 mb 0.00 in0.0 mm 0.00 in0.0 mm 0.00 in0.0 mm
02:29 AM 32.2°F0.1°C 23.5°F-4.7°C 70% 7.4 mph E11.9 kmh E 13.6 mph21.9 kmh 30.29 in1025.7 mb 0.00 in0.0 mm 0.00 in0.0 mm 0.00 in0.0 mm
02:28 AM 32.2°F0.1°C 23.5°F-4.7°C 70% 7.4 mph E11.9 kmh E 13.6 mph21.9 kmh 30.29 in1025.7 mb 0.00 in0.0 mm 0.00 in0.0 mm 0.00 in0.0 mm
02:27 AM 32.2°F0.1°C 23.5°F-4.7°C 70% 7.5 mph E12.1 kmh E 13.6 mph21.9 kmh 30.29 in1025.7 mb 0.00 in0.0 mm 0.00 in0.0 mm 0.00 in0.0 mm
02:26 AM 32.2°F0.1°C 23.5°F-4.7°C 70% 7.1 mph E11.4 kmh E 13.6 mph21.9 kmh 30.29 in1025.7 mb 0.00 in0.0 mm 0.00 in0.0 mm 0.00 in0.0 mm
02:25 AM 32.7°F0.4°C 24.0°F-4.4°C 70% 6.7 mph E10.8 kmh E 13.6 mph21.9 kmh 30.29 in1025.7 mb 0.00 in0.0 mm 0.00 in0.0 mm 0.00 in0.0 mm
02:24 AM 32.7°F0.4°C 24.0°F-4.4°C 70% 6.4 mph E10.3 kmh E 13.6 mph21.9 kmh 30.29 in1025.7 mb 0.00 in0.0 mm 0.00 in0.0 mm 0.00 in0.0 mm
02:23 AM 32.7°F0.4°C 24.0°F-4.4°C 70% 6.7 mph E10.8 kmh E 13.6 mph21.9 kmh 30.29 in1025.7 mb 0.00 in0.0 mm 0.00 in0.0 mm 0.00 in0.0 mm
02:22 AM 32.7°F0.4°C 24.0°F-4.4°C 70% 6.8 mph E10.9 kmh E 13.6 mph21.9 kmh 30.28 in1025.4 mb 0.00 in0.0 mm 0.00 in0.0 mm 0.00 in0.0 mm
02:21 AM 32.7°F0.4°C 23.7°F-4.6°C 69% 6.6 mph E10.6 kmh E 13.6 mph21.9 kmh 30.29 in1025.7 mb 0.00 in0.0 mm 0.00 in0.0 mm 0.00 in0.0 mm
02:20 AM 32.7°F0.4°C 23.7°F-4.6°C 69% 6.3 mph E10.1 kmh E 13.6 mph21.9 kmh 30.29 in1025.7 mb 0.00 in0.0 mm 0.00 in0.0 mm 0.00 in0.0 mm
02:19 AM 32.7°F0.4°C 23.7°F-4.6°C 69% 5.7 mph E9.2 kmh E 13.0 mph20.9 kmh 30.29 in1025.7 mb 0.00 in0.0 mm 0.00 in0.0 mm 0.00 in0.0 mm
02:18 AM 32.7°F0.4°C 23.7°F-4.6°C 69% 5.8 mph E9.3 kmh E 13.0 mph20.9 kmh 30.29 in1025.7 mb 0.00 in0.0 mm 0.00 in0.0 mm 0.00 in0.0 mm
02:17 AM 32.7°F0.4°C 23.7°F-4.6°C 69% 5.7 mph E9.2 kmh E 13.0 mph20.9 kmh 30.29 in1025.7 mb 0.00 in0.0 mm 0.00 in0.0 mm 0.00 in0.0 mm
02:16 AM 32.7°F0.4°C 23.7°F-4.6°C 69% 5.9 mph E9.5 kmh E 13.0 mph20.9 kmh 30.29 in1025.7 mb 0.00 in0.0 mm 0.00 in0.0 mm 0.00 in0.0 mm
02:15 AM 32.7°F0.4°C 23.7°F-4.6°C 69% 6.0 mph E9.7 kmh E 13.0 mph20.9 kmh 30.29 in1025.7 mb 0.00 in0.0 mm 0.00 in0.0 mm 0.00 in0.0 mm
02:14 AM 32.7°F0.4°C 23.7°F-4.6°C 69% 6.1 mph E9.8 kmh E 13.0 mph20.9 kmh 30.29 in1025.7 mb 0.00 in0.0 mm 0.00 in0.0 mm 0.00 in0.0 mm
02:13 AM 32.7°F0.4°C 23.7°F-4.6°C 69% 5.6 mph E9.0 kmh E 12.1 mph19.5 kmh 30.29 in1025.7 mb 0.00 in0.0 mm 0.00 in0.0 mm 0.00 in0.0 mm
02:12 AM 32.7°F0.4°C 23.7°F-4.6°C 69% 5.4 mph E8.7 kmh E 11.4 mph18.3 kmh 30.28 in1025.4 mb 0.00 in0.0 mm 0.00 in0.0 mm 0.00 in0.0 mm
02:11 AM 32.7°F0.4°C 23.7°F-4.6°C 69% 5.4 mph E8.7 kmh E 11.4 mph18.3 kmh 30.28 in1025.4 mb 0.00 in0.0 mm 0.00 in0.0 mm 0.00 in0.0 mm
02:10 AM 32.7°F0.4°C 23.7°F-4.6°C 69% 5.4 mph E8.7 kmh E 11.4 mph18.3 kmh 30.28 in1025.4 mb 0.00 in0.0 mm 0.00 in0.0 mm 0.00 in0.0 mm
02:09 AM 32.7°F0.4°C 23.3°F-4.8°C 68% 5.8 mph E9.3 kmh E 11.4 mph18.3 kmh 30.28 in1025.4 mb 0.00 in0.0 mm 0.00 in0.0 mm 0.00 in0.0 mm
02:08 AM 32.7°F0.4°C 23.3°F-4.8°C 68% 5.7 mph E9.2 kmh E 11.4 mph18.3 kmh 30.29 in1025.7 mb 0.00 in0.0 mm 0.00 in0.0 mm 0.00 in0.0 mm
02:07 AM 32.7°F0.4°C 23.3°F-4.8°C 68% 5.9 mph E9.5 kmh E 11.4 mph18.3 kmh 30.29 in1025.7 mb 0.00 in0.0 mm 0.00 in0.0 mm 0.00 in0.0 mm
02:06 AM 32.7°F0.4°C 23.3°F-4.8°C 68% 6.0 mph E9.7 kmh E 11.4 mph18.3 kmh 30.29 in1025.7 mb 0.00 in0.0 mm 0.00 in0.0 mm 0.00 in0.0 mm
02:05 AM 32.7°F0.4°C 23.3°F-4.8°C 68% 6.2 mph E10.0 kmh E 11.4 mph18.3 kmh 30.28 in1025.4 mb 0.00 in0.0 mm 0.00 in0.0 mm 0.00 in0.0 mm
02:04 AM 32.7°F0.4°C 23.3°F-4.8°C 68% 6.2 mph E10.0 kmh E 11.4 mph18.3 kmh 30.28 in1025.4 mb 0.00 in0.0 mm 0.00 in0.0 mm 0.00 in0.0 mm
02:03 AM 32.7°F0.4°C 23.3°F-4.8°C 68% 6.6 mph ESE10.6 kmh ESE 13.0 mph20.9 kmh 30.28 in1025.4 mb 0.00 in0.0 mm 0.00 in0.0 mm 0.00 in0.0 mm
02:02 AM 32.7°F0.4°C 23.3°F-4.8°C 68% 6.9 mph ESE11.1 kmh ESE 13.6 mph21.9 kmh 30.28 in1025.4 mb 0.00 in0.0 mm 0.00 in0.0 mm 0.00 in0.0 mm
02:01 AM 32.7°F0.4°C 23.3°F-4.8°C 68% 7.2 mph ESE11.6 kmh ESE 13.6 mph21.9 kmh 30.28 in1025.4 mb 0.00 in0.0 mm 0.00 in0.0 mm 0.00 in0.0 mm
02:00 AM 32.7°F0.4°C 23.3°F-4.8°C 68% 7.4 mph ESE11.9 kmh ESE 13.6 mph21.9 kmh 30.28 in1025.4 mb 0.00 in0.0 mm 0.00 in0.0 mm 0.00 in0.0 mm
01:59 AM 32.7°F0.4°C 23.3°F-4.8°C 68% 7.5 mph ESE12.1 kmh ESE 13.6 mph21.9 kmh 30.29 in1025.7 mb 0.00 in0.0 mm 0.00 in0.0 mm 0.00 in0.0 mm
01:58 AM 32.7°F0.4°C 23.3°F-4.8°C 68% 7.7 mph ESE12.4 kmh ESE 13.6 mph21.9 kmh 30.28 in1025.4 mb 0.00 in0.0 mm 0.00 in0.0 mm 0.00 in0.0 mm
01:57 AM 32.7°F0.4°C 23.0°F-5.0°C 67% 7.8 mph ESE12.6 kmh ESE 13.6 mph21.9 kmh 30.28 in1025.4 mb 0.00 in0.0 mm 0.00 in0.0 mm 0.00 in0.0 mm
01:56 AM 32.7°F0.4°C 23.0°F-5.0°C 67% 7.8 mph E12.6 kmh E 13.6 mph21.9 kmh 30.29 in1025.7 mb 0.00 in0.0 mm 0.00 in0.0 mm 0.00 in0.0 mm
01:55 AM 32.7°F0.4°C 23.0°F-5.0°C 67% 7.8 mph E12.6 kmh E 13.6 mph21.9 kmh 30.28 in1025.4 mb 0.00 in0.0 mm 0.00 in0.0 mm 0.00 in0.0 mm
01:54 AM 32.7°F0.4°C 23.0°F-5.0°C 67% 7.7 mph E12.4 kmh E 13.6 mph21.9 kmh 30.28 in1025.4 mb 0.00 in0.0 mm 0.00 in0.0 mm 0.00 in0.0 mm
01:53 AM 32.7°F0.4°C 23.0°F-5.0°C 67% 7.4 mph E11.9 kmh E 13.6 mph21.9 kmh 30.29 in1025.7 mb 0.00 in0.0 mm 0.00 in0.0 mm 0.00 in0.0 mm
01:52 AM 32.7°F0.4°C 23.0°F-5.0°C 67% 7.5 mph E12.1 kmh E 13.6 mph21.9 kmh 30.29 in1025.7 mb 0.00 in0.0 mm 0.00 in0.0 mm 0.00 in0.0 mm
01:51 AM 32.7°F0.4°C 23.0°F-5.0°C 67% 7.5 mph E12.1 kmh E 13.6 mph21.9 kmh 30.29 in1025.7 mb 0.00 in0.0 mm 0.00 in0.0 mm 0.00 in0.0 mm
01:50 AM 32.9°F0.5°C 23.2°F-4.9°C 67% 7.2 mph E11.6 kmh E 13.6 mph21.9 kmh 30.28 in1025.4 mb 0.00 in0.0 mm 0.00 in0.0 mm 0.00 in0.0 mm
01:49 AM 32.9°F0.5°C 23.2°F-4.9°C 67% 7.1 mph E11.4 kmh E 13.6 mph21.9 kmh 30.28 in1025.4 mb 0.00 in0.0 mm 0.00 in0.0 mm 0.00 in0.0 mm
01:48 AM 32.9°F0.5°C 23.2°F-4.9°C 67% 6.7 mph E10.8 kmh E 13.6 mph21.9 kmh 30.28 in1025.4 mb 0.00 in0.0 mm 0.00 in0.0 mm 0.00 in0.0 mm
01:47 AM 32.9°F0.5°C 23.2°F-4.9°C 67% 6.5 mph E10.5 kmh E 13.6 mph21.9 kmh 30.28 in1025.4 mb 0.00 in0.0 mm 0.00 in0.0 mm 0.00 in0.0 mm
01:46 AM 32.9°F0.5°C 23.2°F-4.9°C 67% 6.2 mph E10.0 kmh E 13.6 mph21.9 kmh 30.28 in1025.4 mb 0.00 in0.0 mm 0.00 in0.0 mm 0.00 in0.0 mm
01:45 AM 32.9°F0.5°C 22.8°F-5.1°C 66% 6.0 mph E9.7 kmh E 13.6 mph21.9 kmh 30.29 in1025.7 mb 0.00 in0.0 mm 0.00 in0.0 mm 0.00 in0.0 mm
01:44 AM 32.9°F0.5°C 22.8°F-5.1°C 66% 6.3 mph E10.1 kmh E 13.6 mph21.9 kmh 30.28 in1025.4 mb 0.00 in0.0 mm 0.00 in0.0 mm 0.00 in0.0 mm
01:43 AM 32.9°F0.5°C 22.8°F-5.1°C 66% 6.0 mph E9.7 kmh E 13.6 mph21.9 kmh 30.28 in1025.4 mb 0.00 in0.0 mm 0.00 in0.0 mm 0.00 in0.0 mm
01:42 AM 32.9°F0.5°C 22.8°F-5.1°C 66% 5.8 mph E9.3 kmh E 13.6 mph21.9 kmh 30.28 in1025.4 mb 0.00 in0.0 mm 0.00 in0.0 mm 0.00 in0.0 mm
01:41 AM 32.9°F0.5°C 22.8°F-5.1°C 66% 5.6 mph E9.0 kmh E 11.4 mph18.3 kmh 30.29 in1025.7 mb 0.00 in0.0 mm 0.00 in0.0 mm 0.00 in0.0 mm
01:40 AM 32.9°F0.5°C 22.8°F-5.1°C 66% 5.6 mph E9.0 kmh E 11.4 mph18.3 kmh 30.28 in1025.4 mb 0.00 in0.0 mm 0.00 in0.0 mm 0.00 in0.0 mm
01:39 AM 32.9°F0.5°C 22.8°F-5.1°C 66% 6.2 mph E10.0 kmh E 14.5 mph23.3 kmh 30.29 in1025.7 mb 0.00 in0.0 mm 0.00 in0.0 mm 0.00 in0.0 mm
01:38 AM 32.9°F0.5°C 22.8°F-5.1°C 66% 6.4 mph E10.3 kmh E 14.5 mph23.3 kmh 30.28 in1025.4 mb 0.00 in0.0 mm 0.00 in0.0 mm 0.00 in0.0 mm
01:37 AM 32.9°F0.5°C 22.8°F-5.1°C 66% 6.3 mph E10.1 kmh E 14.5 mph23.3 kmh 30.29 in1025.7 mb 0.00 in0.0 mm 0.00 in0.0 mm 0.00 in0.0 mm
01:36 AM 32.9°F0.5°C 22.8°F-5.1°C 66% 6.4 mph E10.3 kmh E 14.5 mph23.3 kmh 30.28 in1025.4 mb 0.00 in0.0 mm 0.00 in0.0 mm 0.00 in0.0 mm
01:35 AM 32.9°F0.5°C 22.8°F-5.1°C 66% 6.8 mph E10.9 kmh E 16.8 mph27.0 kmh 30.28 in1025.4 mb 0.00 in0.0 mm 0.00 in0.0 mm 0.00 in0.0 mm
01:34 AM 32.9°F0.5°C 22.8°F-5.1°C 66% 7.1 mph E11.4 kmh E 16.8 mph27.0 kmh 30.28 in1025.4 mb 0.00 in0.0 mm 0.00 in0.0 mm 0.00 in0.0 mm
01:33 AM 32.9°F0.5°C 22.8°F-5.1°C 66% 7.4 mph E11.9 kmh E 16.8 mph27.0 kmh 30.28 in1025.4 mb 0.00 in0.0 mm 0.00 in0.0 mm 0.00 in0.0 mm
01:32 AM 32.9°F0.5°C 22.8°F-5.1°C 66% 7.6 mph E12.2 kmh E 16.8 mph27.0 kmh 30.28 in1025.4 mb 0.00 in0.0 mm 0.00 in0.0 mm 0.00 in0.0 mm
01:31 AM 32.9°F0.5°C 22.8°F-5.1°C 66% 7.8 mph E12.6 kmh E 16.8 mph27.0 kmh 30.29 in1025.7 mb 0.00 in0.0 mm 0.00 in0.0 mm 0.00 in0.0 mm
01:30 AM 32.9°F0.5°C 22.8°F-5.1°C 66% 8.0 mph E12.9 kmh E 16.8 mph27.0 kmh 30.28 in1025.4 mb 0.00 in0.0 mm 0.00 in0.0 mm 0.00 in0.0 mm
01:29 AM 32.9°F0.5°C 22.8°F-5.1°C 66% 7.7 mph E12.4 kmh E 16.8 mph27.0 kmh 30.28 in1025.4 mb 0.00 in0.0 mm 0.00 in0.0 mm 0.00 in0.0 mm
01:28 AM 32.9°F0.5°C 22.8°F-5.1°C 66% 7.5 mph E12.1 kmh E 16.8 mph27.0 kmh 30.29 in1025.7 mb 0.00 in0.0 mm 0.00 in0.0 mm 0.00 in0.0 mm
01:27 AM 32.9°F0.5°C 22.5°F-5.3°C 65% 7.7 mph E12.4 kmh E 16.8 mph27.0 kmh 30.29 in1025.7 mb 0.00 in0.0 mm 0.00 in0.0 mm 0.00 in0.0 mm
01:26 AM 32.9°F0.5°C 22.5°F-5.3°C 65% 7.8 mph E12.6 kmh E 16.8 mph27.0 kmh 30.28 in1025.4 mb 0.00 in0.0 mm 0.00 in0.0 mm 0.00 in0.0 mm
01:25 AM 32.9°F0.5°C 22.5°F-5.3°C 65% 7.8 mph E12.6 kmh E 16.8 mph27.0 kmh 30.29 in1025.7 mb 0.00 in0.0 mm 0.00 in0.0 mm 0.00 in0.0 mm
01:24 AM 32.9°F0.5°C 22.5°F-5.3°C 65% 7.4 mph ESE11.9 kmh ESE 15.9 mph25.6 kmh 30.28 in1025.4 mb 0.00 in0.0 mm 0.00 in0.0 mm 0.00 in0.0 mm
01:23 AM 32.9°F0.5°C 22.5°F-5.3°C 65% 7.6 mph E12.2 kmh E 15.9 mph25.6 kmh 30.29 in1025.7 mb 0.00 in0.0 mm 0.00 in0.0 mm 0.00 in0.0 mm
01:22 AM 32.9°F0.5°C 22.5°F-5.3°C 65% 7.6 mph E12.2 kmh E 15.9 mph25.6 kmh 30.28 in1025.4 mb 0.00 in0.0 mm 0.00 in0.0 mm 0.00 in0.0 mm
01:21 AM 32.9°F0.5°C 22.5°F-5.3°C 65% 7.7 mph E12.4 kmh E 14.5 mph23.3 kmh 30.28 in1025.4 mb 0.00 in0.0 mm 0.00 in0.0 mm 0.00 in0.0 mm
01:20 AM 32.9°F0.5°C 22.5°F-5.3°C 65% 7.6 mph E12.2 kmh E 14.5 mph23.3 kmh 30.28 in1025.4 mb 0.00 in0.0 mm 0.00 in0.0 mm 0.00 in0.0 mm
01:19 AM 32.9°F0.5°C 22.5°F-5.3°C 65% 7.8 mph E12.6 kmh E 17.4 mph28.0 kmh 30.28 in1025.4 mb 0.00 in0.0 mm 0.00 in0.0 mm 0.00 in0.0 mm
01:18 AM 32.9°F0.5°C 22.5°F-5.3°C 65% 8.1 mph E13.0 kmh E 17.4 mph28.0 kmh 30.28 in1025.4 mb 0.00 in0.0 mm 0.00 in0.0 mm 0.00 in0.0 mm
01:17 AM 32.9°F0.5°C 22.5°F-5.3°C 65% 8.1 mph E13.0 kmh E 17.4 mph28.0 kmh 30.28 in1025.4 mb 0.00 in0.0 mm 0.00 in0.0 mm 0.00 in0.0 mm
01:16 AM 32.9°F0.5°C 22.5°F-5.3°C 65% 8.4 mph E13.5 kmh E 17.4 mph28.0 kmh 30.28 in1025.4 mb 0.00 in0.0 mm 0.00 in0.0 mm 0.00 in0.0 mm
01:15 AM 32.9°F0.5°C 22.5°F-5.3°C 65% 8.4 mph ESE13.5 kmh ESE 17.4 mph28.0 kmh 30.28 in1025.4 mb 0.00 in0.0 mm 0.00 in0.0 mm 0.00 in0.0 mm
01:14 AM 32.9°F0.5°C 22.5°F-5.3°C 65% 8.5 mph ESE13.7 kmh ESE 17.4 mph28.0 kmh 30.28 in1025.4 mb 0.00 in0.0 mm 0.00 in0.0 mm 0.00 in0.0 mm
01:13 AM 32.9°F0.5°C 22.5°F-5.3°C 65% 8.3 mph ESE13.4 kmh ESE 17.4 mph28.0 kmh 30.28 in1025.4 mb 0.00 in0.0 mm 0.00 in0.0 mm 0.00 in0.0 mm
01:12 AM 32.9°F0.5°C 22.5°F-5.3°C 65% 8.4 mph ESE13.5 kmh ESE 17.4 mph28.0 kmh 30.28 in1025.4 mb 0.00 in0.0 mm 0.00 in0.0 mm 0.00 in0.0 mm
01:11 AM 32.9°F0.5°C 22.5°F-5.3°C 65% 8.2 mph ESE13.2 kmh ESE 17.4 mph28.0 kmh 30.28 in1025.4 mb 0.00 in0.0 mm 0.00 in0.0 mm 0.00 in0.0 mm
01:10 AM 32.9°F0.5°C 22.5°F-5.3°C 65% 8.0 mph ESE12.9 kmh ESE 17.4 mph28.0 kmh 30.28 in1025.4 mb 0.00 in0.0 mm 0.00 in0.0 mm 0.00 in0.0 mm
01:09 AM 32.9°F0.5°C 22.5°F-5.3°C 65% 7.7 mph E12.4 kmh E 15.2 mph24.5 kmh 30.28 in1025.4 mb 0.00 in0.0 mm 0.00 in0.0 mm 0.00 in0.0 mm
01:08 AM 32.9°F0.5°C 22.5°F-5.3°C 65% 7.4 mph E11.9 kmh E 15.2 mph24.5 kmh 30.28 in1025.4 mb 0.00 in0.0 mm 0.00 in0.0 mm 0.00 in0.0 mm
01:07 AM 32.9°F0.5°C 22.5°F-5.3°C 65% 7.3 mph E11.7 kmh E 15.2 mph24.5 kmh 30.28 in1025.4 mb 0.00 in0.0 mm 0.00 in0.0 mm 0.00 in0.0 mm
01:06 AM 32.9°F0.5°C 22.5°F-5.3°C 65% 7.1 mph E11.4 kmh E 15.2 mph24.5 kmh 30.28 in1025.4 mb 0.00 in0.0 mm 0.00 in0.0 mm 0.00 in0.0 mm
01:05 AM 32.9°F0.5°C 22.5°F-5.3°C 65% 6.9 mph E11.1 kmh E 14.5 mph23.3 kmh 30.28 in1025.4 mb 0.00 in0.0 mm 0.00 in0.0 mm 0.00 in0.0 mm
01:04 AM 32.9°F0.5°C 22.5°F-5.3°C 65% 6.7 mph E10.8 kmh E 14.5 mph23.3 kmh 30.28 in1025.4 mb 0.00 in0.0 mm 0.00 in0.0 mm 0.00 in0.0 mm
01:03 AM 32.9°F0.5°C 22.5°F-5.3°C 65% 6.3 mph E10.1 kmh E 14.5 mph23.3 kmh 30.28 in1025.4 mb 0.00 in0.0 mm 0.00 in0.0 mm 0.00 in0.0 mm
01:02 AM 32.9°F0.5°C 22.5°F-5.3°C 65% 5.8 mph E9.3 kmh E 14.5 mph23.3 kmh 30.28 in1025.4 mb 0.00 in0.0 mm 0.00 in0.0 mm 0.00 in0.0 mm
01:01 AM 32.9°F0.5°C 22.5°F-5.3°C 65% 5.6 mph E9.0 kmh E 13.0 mph20.9 kmh 30.28 in1025.4 mb 0.00 in0.0 mm 0.00 in0.0 mm 0.00 in0.0 mm
01:00 AM 32.9°F0.5°C 22.5°F-5.3°C 65% 5.3 mph E8.5 kmh E 13.0 mph20.9 kmh 30.28 in1025.4 mb 0.00 in0.0 mm 0.00 in0.0 mm 0.00 in0.0 mm
12:59 AM 32.9°F0.5°C 22.5°F-5.3°C 65% 4.9 mph E7.9 kmh E 10.7 mph17.2 kmh 30.27 in1025.1 mb 0.00 in0.0 mm 0.00 in0.0 mm 0.00 in0.0 mm
12:58 AM 32.9°F0.5°C 22.5°F-5.3°C 65% 4.7 mph E7.6 kmh E 10.7 mph17.2 kmh 30.28 in1025.4 mb 0.00 in0.0 mm 0.00 in0.0 mm 0.00 in0.0 mm
12:57 AM 32.9°F0.5°C 22.5°F-5.3°C 65% 4.5 mph E7.2 kmh E 10.7 mph17.2 kmh 30.28 in1025.4 mb 0.00 in0.0 mm 0.00 in0.0 mm 0.00 in0.0 mm
12:56 AM 32.9°F0.5°C 22.5°F-5.3°C 65% 4.4 mph E7.1 kmh E 10.7 mph17.2 kmh 30.29 in1025.7 mb 0.00 in0.0 mm 0.00 in0.0 mm 0.00 in0.0 mm
12:55 AM 32.9°F0.5°C 22.5°F-5.3°C 65% 4.2 mph E6.8 kmh E 10.7 mph17.2 kmh 30.28 in1025.4 mb 0.00 in0.0 mm 0.00 in0.0 mm 0.00 in0.0 mm
12:54 AM 32.9°F0.5°C 22.5°F-5.3°C 65% 4.2 mph E6.8 kmh E 10.7 mph17.2 kmh 30.29 in1025.7 mb 0.00 in0.0 mm 0.00 in0.0 mm 0.00 in0.0 mm
12:53 AM 32.9°F0.5°C 22.5°F-5.3°C 65% 4.5 mph E7.2 kmh E 10.7 mph17.2 kmh 30.28 in1025.4 mb 0.00 in0.0 mm 0.00 in0.0 mm 0.00 in0.0 mm
12:52 AM 32.9°F0.5°C 22.5°F-5.3°C 65% 4.8 mph E7.7 kmh E 10.7 mph17.2 kmh 30.29 in1025.7 mb 0.00 in0.0 mm 0.00 in0.0 mm 0.00 in0.0 mm
12:51 AM 32.9°F0.5°C 22.5°F-5.3°C 65% 4.9 mph E7.9 kmh E 10.7 mph17.2 kmh 30.28 in1025.4 mb 0.00 in0.0 mm 0.00 in0.0 mm 0.00 in0.0 mm
12:50 AM 32.9°F0.5°C 22.5°F-5.3°C 65% 5.3 mph E8.5 kmh E 10.7 mph17.2 kmh 30.28 in1025.4 mb 0.00 in0.0 mm 0.00 in0.0 mm 0.00 in0.0 mm
12:49 AM 32.9°F0.5°C 22.5°F-5.3°C 65% 5.7 mph E9.2 kmh E 10.7 mph17.2 kmh 30.28 in1025.4 mb 0.00 in0.0 mm 0.00 in0.0 mm 0.00 in0.0 mm
12:48 AM 32.9°F0.5°C 22.5°F-5.3°C 65% 5.9 mph E9.5 kmh E 10.7 mph17.2 kmh 30.28 in1025.4 mb 0.00 in0.0 mm 0.00 in0.0 mm 0.00 in0.0 mm
12:47 AM 32.9°F0.5°C 22.5°F-5.3°C 65% 6.1 mph E9.8 kmh E 10.7 mph17.2 kmh 30.29 in1025.7 mb 0.00 in0.0 mm 0.00 in0.0 mm 0.00 in0.0 mm
12:46 AM 32.9°F0.5°C 22.5°F-5.3°C 65% 6.1 mph E9.8 kmh E 10.7 mph17.2 kmh 30.28 in1025.4 mb 0.00 in0.0 mm 0.00 in0.0 mm 0.00 in0.0 mm
12:45 AM 32.9°F0.5°C 22.1°F-5.5°C 64% 6.0 mph E9.7 kmh E 9.8 mph15.8 kmh 30.28 in1025.4 mb 0.00 in0.0 mm 0.00 in0.0 mm 0.00 in0.0 mm
12:44 AM 32.9°F0.5°C 22.1°F-5.5°C 64% 6.0 mph E9.7 kmh E 9.8 mph15.8 kmh 30.28 in1025.4 mb 0.00 in0.0 mm 0.00 in0.0 mm 0.00 in0.0 mm
12:43 AM 32.9°F0.5°C 22.1°F-5.5°C 64% 5.7 mph E9.2 kmh E 9.8 mph15.8 kmh 30.28 in1025.4 mb 0.00 in0.0 mm 0.00 in0.0 mm 0.00 in0.0 mm
12:42 AM 32.9°F0.5°C 22.1°F-5.5°C 64% 5.7 mph E9.2 kmh E 9.8 mph15.8 kmh 30.28 in1025.4 mb 0.00 in0.0 mm 0.00 in0.0 mm 0.00 in0.0 mm
12:41 AM 32.9°F0.5°C 22.1°F-5.5°C 64% 5.7 mph E9.2 kmh E 10.7 mph17.2 kmh 30.28 in1025.4 mb 0.00 in0.0 mm 0.00 in0.0 mm 0.00 in0.0 mm
12:40 AM 32.9°F0.5°C 22.1°F-5.5°C 64% 5.6 mph E9.0 kmh E 10.7 mph17.2 kmh 30.29 in1025.7 mb 0.00 in0.0 mm 0.00 in0.0 mm 0.00 in0.0 mm
12:39 AM 32.9°F0.5°C 22.1°F-5.5°C 64% 5.3 mph E8.5 kmh E 10.7 mph17.2 kmh 30.28 in1025.4 mb 0.00 in0.0 mm 0.00 in0.0 mm 0.00 in0.0 mm
12:38 AM 32.9°F0.5°C 22.1°F-5.5°C 64% 5.1 mph E8.2 kmh E 10.7 mph17.2 kmh 30.28 in1025.4 mb 0.00 in0.0 mm 0.00 in0.0 mm 0.00 in0.0 mm
12:37 AM 32.9°F0.5°C 22.1°F-5.5°C 64% 4.9 mph ESE7.9 kmh ESE 10.7 mph17.2 kmh 30.29 in1025.7 mb 0.00 in0.0 mm 0.00 in0.0 mm 0.00 in0.0 mm
12:36 AM 32.9°F0.5°C 22.1°F-5.5°C 64% 5.1 mph E8.2 kmh E 10.7 mph17.2 kmh 30.28 in1025.4 mb 0.00 in0.0 mm 0.00 in0.0 mm 0.00 in0.0 mm
12:35 AM 32.9°F0.5°C 22.1°F-5.5°C 64% 5.4 mph E8.7 kmh E 10.7 mph17.2 kmh 30.28 in1025.4 mb 0.00 in0.0 mm 0.00 in0.0 mm 0.00 in0.0 mm
12:34 AM 32.9°F0.5°C 22.1°F-5.5°C 64% 5.4 mph E8.7 kmh E 10.7 mph17.2 kmh 30.28 in1025.4 mb 0.00 in0.0 mm 0.00 in0.0 mm 0.00 in0.0 mm
12:33 AM 32.9°F0.5°C 22.1°F-5.5°C 64% 5.4 mph ESE8.7 kmh ESE 10.7 mph17.2 kmh 30.28 in1025.4 mb 0.00 in0.0 mm 0.00 in0.0 mm 0.00 in0.0 mm
12:32 AM 32.9°F0.5°C 22.1°F-5.5°C 64% 5.6 mph ESE9.0 kmh ESE 10.7 mph17.2 kmh 30.29 in1025.7 mb 0.00 in0.0 mm 0.00 in0.0 mm 0.00 in0.0 mm
12:31 AM 32.9°F0.5°C 22.1°F-5.5°C 64% 5.7 mph ESE9.2 kmh ESE 10.7 mph17.2 kmh 30.28 in1025.4 mb 0.00 in0.0 mm 0.00 in0.0 mm 0.00 in0.0 mm
12:30 AM 32.9°F0.5°C 22.1°F-5.5°C 64% 5.6 mph E9.0 kmh E 9.8 mph15.8 kmh 30.28 in1025.4 mb 0.00 in0.0 mm 0.00 in0.0 mm 0.00 in0.0 mm
12:29 AM 32.9°F0.5°C 22.1°F-5.5°C 64% 5.7 mph ESE9.2 kmh ESE 9.8 mph15.8 kmh 30.28 in1025.4 mb 0.00 in0.0 mm 0.00 in0.0 mm 0.00 in0.0 mm
12:28 AM 32.9°F0.5°C 22.1°F-5.5°C 64% 5.9 mph ESE9.5 kmh ESE 9.8 mph15.8 kmh 30.28 in1025.4 mb 0.00 in0.0 mm 0.00 in0.0 mm 0.00 in0.0 mm
12:27 AM 32.9°F0.5°C 22.1°F-5.5°C 64% 6.1 mph ESE9.8 kmh ESE 9.8 mph15.8 kmh 30.28 in1025.4 mb 0.00 in0.0 mm 0.00 in0.0 mm 0.00 in0.0 mm
12:26 AM 32.9°F0.5°C 22.1°F-5.5°C 64% 5.9 mph ESE9.5 kmh ESE 9.8 mph15.8 kmh 30.28 in1025.4 mb 0.00 in0.0 mm 0.00 in0.0 mm 0.00 in0.0 mm
12:25 AM 32.9°F0.5°C 22.1°F-5.5°C 64% 5.5 mph ESE8.9 kmh ESE 9.8 mph15.8 kmh 30.29 in1025.7 mb 0.00 in0.0 mm 0.00 in0.0 mm 0.00 in0.0 mm
12:24 AM 32.9°F0.5°C 22.1°F-5.5°C 64% 5.5 mph ESE8.9 kmh ESE 9.8 mph15.8 kmh 30.28 in1025.4 mb 0.00 in0.0 mm 0.00 in0.0 mm 0.00 in0.0 mm
12:23 AM 32.9°F0.5°C 22.1°F-5.5°C 64% 5.5 mph ESE8.9 kmh ESE 9.8 mph15.8 kmh 30.28 in1025.4 mb 0.00 in0.0 mm 0.00 in0.0 mm 0.00 in0.0 mm
12:22 AM 33.1°F0.6°C 22.3°F-5.4°C 64% 5.4 mph ESE8.7 kmh ESE 9.8 mph15.8 kmh 30.28 in1025.4 mb 0.00 in0.0 mm 0.00 in0.0 mm 0.00 in0.0 mm
12:21 AM 33.1°F0.6°C 22.3°F-5.4°C 64% 5.3 mph ESE8.5 kmh ESE 9.8 mph15.8 kmh 30.28 in1025.4 mb 0.00 in0.0 mm 0.00 in0.0 mm 0.00 in0.0 mm
12:20 AM 33.1°F0.6°C 22.3°F-5.4°C 64% 5.1 mph ESE8.2 kmh ESE 9.8 mph15.8 kmh 30.29 in1025.7 mb 0.00 in0.0 mm 0.00 in0.0 mm 0.00 in0.0 mm
12:19 AM 33.1°F0.6°C 22.3°F-5.4°C 64% 5.2 mph ESE8.4 kmh ESE 9.8 mph15.8 kmh 30.28 in1025.4 mb 0.00 in0.0 mm 0.00 in0.0 mm 0.00 in0.0 mm
12:18 AM 33.1°F0.6°C 22.3°F-5.4°C 64% 5.3 mph ESE8.5 kmh ESE 9.8 mph15.8 kmh 30.29 in1025.7 mb 0.00 in0.0 mm 0.00 in0.0 mm 0.00 in0.0 mm
12:17 AM 33.1°F0.6°C 22.3°F-5.4°C 64% 5.2 mph ESE8.4 kmh ESE 9.8 mph15.8 kmh 30.28 in1025.4 mb 0.00 in0.0 mm 0.00 in0.0 mm 0.00 in0.0 mm
12:16 AM 33.1°F0.6°C 22.3°F-5.4°C 64% 5.3 mph ESE8.5 kmh ESE 9.8 mph15.8 kmh 30.28 in1025.4 mb 0.00 in0.0 mm 0.00 in0.0 mm 0.00 in0.0 mm
12:15 AM 33.1°F0.6°C 22.3°F-5.4°C 64% 5.6 mph ESE9.0 kmh ESE 9.8 mph15.8 kmh 30.28 in1025.4 mb 0.00 in0.0 mm 0.00 in0.0 mm 0.00 in0.0 mm
12:14 AM 33.1°F0.6°C 22.3°F-5.4°C 64% 5.7 mph SE9.2 kmh SE 9.8 mph15.8 kmh 30.28 in1025.4 mb 0.00 in0.0 mm 0.00 in0.0 mm 0.00 in0.0 mm
12:13 AM 33.1°F0.6°C 22.3°F-5.4°C 64% 5.8 mph SE9.3 kmh SE 9.8 mph15.8 kmh 30.28 in1025.4 mb 0.00 in0.0 mm 0.00 in0.0 mm 0.00 in0.0 mm
12:12 AM 33.1°F0.6°C 22.3°F-5.4°C 64% 5.8 mph SE9.3 kmh SE 9.8 mph15.8 kmh 30.29 in1025.7 mb 0.00 in0.0 mm 0.00 in0.0 mm 0.00 in0.0 mm
12:11 AM 33.1°F0.6°C 22.3°F-5.4°C 64% 5.8 mph SE9.3 kmh SE 9.8 mph15.8 kmh 30.28 in1025.4 mb 0.00 in0.0 mm 0.00 in0.0 mm 0.00 in0.0 mm
12:10 AM 33.1°F0.6°C 22.3°F-5.4°C 64% 6.0 mph SE9.7 kmh SE 9.8 mph15.8 kmh 30.28 in1025.4 mb 0.00 in0.0 mm 0.00 in0.0 mm 0.00 in0.0 mm
12:09 AM 33.1°F0.6°C 22.3°F-5.4°C 64% 6.2 mph SE10.0 kmh SE 10.7 mph17.2 kmh 30.27 in1025.1 mb 0.00 in0.0 mm 0.00 in0.0 mm 0.00 in0.0 mm
12:08 AM 33.1°F0.6°C 21.9°F-5.6°C 63% 6.1 mph SE9.8 kmh SE 10.7 mph17.2 kmh 30.28 in1025.4 mb 0.00 in0.0 mm 0.00 in0.0 mm 0.00 in0.0 mm
12:07 AM 33.1°F0.6°C 21.9°F-5.6°C 63% 5.9 mph SE9.5 kmh SE 10.7 mph17.2 kmh 30.28 in1025.4 mb 0.00 in0.0 mm 0.00 in0.0 mm 0.00 in0.0 mm
12:06 AM 33.1°F0.6°C 21.9°F-5.6°C 63% 5.7 mph SE9.2 kmh SE 10.7 mph17.2 kmh 30.28 in1025.4 mb 0.00 in0.0 mm 0.00 in0.0 mm 0.00 in0.0 mm
12:05 AM 33.1°F0.6°C 21.9°F-5.6°C 63% 5.6 mph SE9.0 kmh SE 10.7 mph17.2 kmh 30.28 in1025.4 mb 0.00 in0.0 mm 0.00 in0.0 mm 0.00 in0.0 mm
12:04 AM 33.1°F0.6°C 21.9°F-5.6°C 63% 5.4 mph SE8.7 kmh SE 10.7 mph17.2 kmh 30.28 in1025.4 mb 0.00 in0.0 mm 0.00 in0.0 mm 0.00 in0.0 mm
12:03 AM 33.1°F0.6°C 21.9°F-5.6°C 63% 5.4 mph SE8.7 kmh SE 10.7 mph17.2 kmh 30.28 in1025.4 mb 0.00 in0.0 mm 0.00 in0.0 mm 0.00 in0.0 mm
12:02 AM 33.1°F0.6°C 21.9°F-5.6°C 63% 5.5 mph SE8.9 kmh SE 12.1 mph19.5 kmh 30.29 in1025.7 mb 0.00 in0.0 mm 0.00 in0.0 mm 0.00 in0.0 mm
12:01 AM 33.1°F0.6°C 21.9°F-5.6°C 63% 5.6 mph ESE9.0 kmh ESE 12.1 mph19.5 kmh 30.28 in1025.4 mb 0.00 in0.0 mm 0.00 in0.0 mm 0.00 in0.0 mm
12:00 AM 33.1°F0.6°C 21.9°F-5.6°C 63% 5.6 mph ESE9.0 kmh ESE 12.1 mph19.5 kmh 30.28 in1025.4 mb 0.00 in0.0 mm 0.00 in0.0 mm 0.00 in0.0 mm